<?xml version='1.0' encoding='UTF-8'?><gpx version="1.1" creator="JPX - https://github.com/jenetics/jpx" xmlns="http://www.topografix.com/GPX/1/1"><trk><trkseg><trkpt lat="42.4319107" lon="12.7165592"><ele>1016.0</ele><time>2026-04-03T12:57:27.995Z</time></trkpt><trkpt lat="42.4319781" lon="12.7166082"><ele>1016.0</ele><time>2026-04-03T12:57:30.996Z</time></trkpt><trkpt lat="42.4320396" lon="12.7166696"><ele>1016.0</ele><time>2026-04-03T12:57:33.994Z</time></trkpt><trkpt lat="42.4320977" lon="12.7167321"><ele>1016.0</ele><time>2026-04-03T12:57:36.995Z</time></trkpt><trkpt lat="42.4321659" lon="12.7167732"><ele>1016.0</ele><time>2026-04-03T12:57:39.995Z</time></trkpt><trkpt lat="42.4322315" lon="12.7168428"><ele>1016.0</ele><time>2026-04-03T12:57:42.995Z</time></trkpt><trkpt lat="42.4322765" lon="12.7169031"><ele>1016.0</ele><time>2026-04-03T12:57:45.995Z</time></trkpt><trkpt lat="42.4323283" lon="12.7169821"><ele>1015.1666666666667</ele><time>2026-04-03T12:57:48.994Z</time></trkpt><trkpt lat="42.4323837" lon="12.7170459"><ele>1014.3333333333334</ele><time>2026-04-03T12:57:50.995Z</time></trkpt><trkpt lat="42.4324478" lon="12.7171058"><ele>1013.5</ele><time>2026-04-03T12:57:52.994Z</time></trkpt><trkpt lat="42.4325292" lon="12.7171748"><ele>1012.6666666666667</ele><time>2026-04-03T12:57:55.997Z</time></trkpt><trkpt lat="42.4325879" lon="12.7172313"><ele>1011.8333333333334</ele><time>2026-04-03T12:57:58.005Z</time></trkpt><trkpt lat="42.4326641" lon="12.7173125"><ele>1011.0</ele><time>2026-04-03T12:57:59.995Z</time></trkpt><trkpt lat="42.4327278" lon="12.7173928"><ele>1010.9999999999999</ele><time>2026-04-03T12:58:01.995Z</time></trkpt><trkpt lat="42.4327746" lon="12.7174678"><ele>1011.0</ele><time>2026-04-03T12:58:03.995Z</time></trkpt><trkpt lat="42.4328061" lon="12.7175628"><ele>1010.9999999999999</ele><time>2026-04-03T12:58:06.995Z</time></trkpt><trkpt lat="42.432825" lon="12.7176511"><ele>1010.9999999999999</ele><time>2026-04-03T12:58:10.995Z</time></trkpt><trkpt lat="42.4328586" lon="12.7177401"><ele>1011.0</ele><time>2026-04-03T12:58:14.941Z</time></trkpt><trkpt lat="42.4328995" lon="12.7178118"><ele>1010.9999999999999</ele><time>2026-04-03T12:58:17.995Z</time></trkpt><trkpt lat="42.4329496" lon="12.7178941"><ele>1010.9999999999999</ele><time>2026-04-03T12:58:21.897Z</time></trkpt><trkpt lat="42.4329922" lon="12.7179684"><ele>1009.1666666666666</ele><time>2026-04-03T12:58:25.005Z</time></trkpt><trkpt lat="42.4330344" lon="12.7180418"><ele>1007.3333333333333</ele><time>2026-04-03T12:58:27.995Z</time></trkpt><trkpt lat="42.4330748" lon="12.7181088"><ele>1005.5</ele><time>2026-04-03T12:58:31Z</time></trkpt><trkpt lat="42.433129" lon="12.7181898"><ele>1003.6666666666666</ele><time>2026-04-03T12:58:33.994Z</time></trkpt><trkpt lat="42.4331795" lon="12.7182645"><ele>1001.8333333333333</ele><time>2026-04-03T12:58:36.995Z</time></trkpt><trkpt lat="42.4332423" lon="12.7183516"><ele>1000.0</ele><time>2026-04-03T12:58:39.994Z</time></trkpt><trkpt lat="42.4332904" lon="12.7184282"><ele>999.9999999999999</ele><time>2026-04-03T12:58:42.994Z</time></trkpt><trkpt lat="42.4333451" lon="12.7185081"><ele>1000.0</ele><time>2026-04-03T12:58:45.995Z</time></trkpt><trkpt lat="42.4334096" lon="12.7185897"><ele>1000.0</ele><time>2026-04-03T12:58:49.017Z</time></trkpt><trkpt lat="42.433474" lon="12.7186531"><ele>1000.0</ele><time>2026-04-03T12:58:52.005Z</time></trkpt><trkpt lat="42.4335331" lon="12.7187374"><ele>999.9999999999999</ele><time>2026-04-03T12:58:54.995Z</time></trkpt><trkpt lat="42.4335779" lon="12.7188357"><ele>1000.0</ele><time>2026-04-03T12:58:57.995Z</time></trkpt><trkpt lat="42.4336116" lon="12.7189192"><ele>998.6666666666666</ele><time>2026-04-03T12:59:00.995Z</time></trkpt><trkpt lat="42.4336539" lon="12.7190188"><ele>997.3333333333333</ele><time>2026-04-03T12:59:03.995Z</time></trkpt><trkpt lat="42.4336948" lon="12.7191106"><ele>996.0</ele><time>2026-04-03T12:59:06.995Z</time></trkpt><trkpt lat="42.433741" lon="12.7192148"><ele>994.6666666666667</ele><time>2026-04-03T12:59:09.995Z</time></trkpt><trkpt lat="42.4337904" lon="12.7193089"><ele>993.3333333333334</ele><time>2026-04-03T12:59:12.958Z</time></trkpt><trkpt lat="42.4338399" lon="12.7193824"><ele>992.0</ele><time>2026-04-03T12:59:15.995Z</time></trkpt><trkpt lat="42.4338799" lon="12.7194517"><ele>989.5714285714287</ele><time>2026-04-03T12:59:19.004Z</time></trkpt><trkpt lat="42.4339403" lon="12.7195477"><ele>987.1428571428572</ele><time>2026-04-03T12:59:21.995Z</time></trkpt><trkpt lat="42.4339888" lon="12.7196076"><ele>984.7142857142858</ele><time>2026-04-03T12:59:23.995Z</time></trkpt><trkpt lat="42.4340343" lon="12.7196711"><ele>982.2857142857142</ele><time>2026-04-03T12:59:25.995Z</time></trkpt><trkpt lat="42.4340752" lon="12.7197374"><ele>979.8571428571428</ele><time>2026-04-03T12:59:27.995Z</time></trkpt><trkpt lat="42.4341216" lon="12.7198052"><ele>977.4285714285713</ele><time>2026-04-03T12:59:29.995Z</time></trkpt><trkpt lat="42.4341648" lon="12.719894"><ele>975.0</ele><time>2026-04-03T12:59:31.994Z</time></trkpt><trkpt lat="42.4342013" lon="12.7199908"><ele>975.0</ele><time>2026-04-03T12:59:33.995Z</time></trkpt><trkpt lat="42.4342423" lon="12.7200727"><ele>974.9999999999999</ele><time>2026-04-03T12:59:35.995Z</time></trkpt><trkpt lat="42.434296" lon="12.7201367"><ele>975.0</ele><time>2026-04-03T12:59:37.995Z</time></trkpt><trkpt lat="42.4343498" lon="12.7201914"><ele>975.0</ele><time>2026-04-03T12:59:39.995Z</time></trkpt><trkpt lat="42.434408" lon="12.7202691"><ele>974.9999999999999</ele><time>2026-04-03T12:59:42.994Z</time></trkpt><trkpt lat="42.4344553" lon="12.7203461"><ele>975.0</ele><time>2026-04-03T12:59:46.004Z</time></trkpt><trkpt lat="42.4345002" lon="12.720425"><ele>975.0</ele><time>2026-04-03T12:59:47.995Z</time></trkpt><trkpt lat="42.4345477" lon="12.7205062"><ele>974.3333333333334</ele><time>2026-04-03T12:59:49.994Z</time></trkpt><trkpt lat="42.4346012" lon="12.7205926"><ele>973.6666666666667</ele><time>2026-04-03T12:59:51.995Z</time></trkpt><trkpt lat="42.4346594" lon="12.7206794"><ele>973.0</ele><time>2026-04-03T12:59:53.995Z</time></trkpt><trkpt lat="42.4347047" lon="12.7207639"><ele>972.3333333333334</ele><time>2026-04-03T12:59:55.995Z</time></trkpt><trkpt lat="42.4347508" lon="12.7208512"><ele>971.6666666666667</ele><time>2026-04-03T12:59:57.995Z</time></trkpt><trkpt lat="42.4348036" lon="12.7209258"><ele>971.0</ele><time>2026-04-03T12:59:59.995Z</time></trkpt><trkpt lat="42.434855" lon="12.7209894"><ele>968.5000000000001</ele><time>2026-04-03T13:00:01.917Z</time></trkpt><trkpt lat="42.4349215" lon="12.7210756"><ele>966.0</ele><time>2026-04-03T13:00:03.995Z</time></trkpt><trkpt lat="42.4349776" lon="12.7211445"><ele>963.5</ele><time>2026-04-03T13:00:05.961Z</time></trkpt><trkpt lat="42.4350429" lon="12.7212053"><ele>961.0</ele><time>2026-04-03T13:00:07.995Z</time></trkpt><trkpt lat="42.4351038" lon="12.7212565"><ele>958.5000000000001</ele><time>2026-04-03T13:00:09.995Z</time></trkpt><trkpt lat="42.4351635" lon="12.7212977"><ele>956.0</ele><time>2026-04-03T13:00:12Z</time></trkpt><trkpt lat="42.4352442" lon="12.721342"><ele>956.0</ele><time>2026-04-03T13:00:13.994Z</time></trkpt><trkpt lat="42.4353229" lon="12.7213816"><ele>955.9999999999999</ele><time>2026-04-03T13:00:15.994Z</time></trkpt><trkpt lat="42.4354057" lon="12.7214189"><ele>955.9999999999999</ele><time>2026-04-03T13:00:17.995Z</time></trkpt><trkpt lat="42.4354915" lon="12.7214411"><ele>956.0</ele><time>2026-04-03T13:00:19.994Z</time></trkpt><trkpt lat="42.4356154" lon="12.7214393"><ele>956.0</ele><time>2026-04-03T13:00:21.995Z</time></trkpt><trkpt lat="42.4357336" lon="12.7214281"><ele>955.5999999999999</ele><time>2026-04-03T13:00:23.995Z</time></trkpt><trkpt lat="42.4358382" lon="12.72141"><ele>955.1999999999999</ele><time>2026-04-03T13:00:25.995Z</time></trkpt><trkpt lat="42.4359437" lon="12.7213693"><ele>954.8000000000001</ele><time>2026-04-03T13:00:27.995Z</time></trkpt><trkpt lat="42.4360358" lon="12.7213"><ele>954.4000000000001</ele><time>2026-04-03T13:00:29.994Z</time></trkpt><trkpt lat="42.436134" lon="12.7212426"><ele>954.0</ele><time>2026-04-03T13:00:31.995Z</time></trkpt><trkpt lat="42.4362427" lon="12.721209"><ele>954.4000000000001</ele><time>2026-04-03T13:00:33.995Z</time></trkpt><trkpt lat="42.4363558" lon="12.721177"><ele>954.8000000000001</ele><time>2026-04-03T13:00:35.995Z</time></trkpt><trkpt lat="42.4364668" lon="12.7211671"><ele>955.1999999999999</ele><time>2026-04-03T13:00:37.995Z</time></trkpt><trkpt lat="42.4365692" lon="12.7211505"><ele>955.5999999999999</ele><time>2026-04-03T13:00:39.995Z</time></trkpt><trkpt lat="42.4366558" lon="12.7211158"><ele>956.0</ele><time>2026-04-03T13:00:41.995Z</time></trkpt><trkpt lat="42.436737" lon="12.7210657"><ele>956.0</ele><time>2026-04-03T13:00:43.995Z</time></trkpt><trkpt lat="42.4368143" lon="12.7210185"><ele>955.9999999999999</ele><time>2026-04-03T13:00:45.995Z</time></trkpt><trkpt lat="42.4368929" lon="12.7209754"><ele>955.9999999999999</ele><time>2026-04-03T13:00:47.995Z</time></trkpt><trkpt lat="42.4369727" lon="12.7209275"><ele>956.0</ele><time>2026-04-03T13:00:49.995Z</time></trkpt><trkpt lat="42.4370605" lon="12.7208797"><ele>956.0</ele><time>2026-04-03T13:00:51.995Z</time></trkpt><trkpt lat="42.4371588" lon="12.7208254"><ele>955.8</ele><time>2026-04-03T13:00:53.994Z</time></trkpt><trkpt lat="42.4372514" lon="12.7207581"><ele>955.5999999999999</ele><time>2026-04-03T13:00:55.995Z</time></trkpt><trkpt lat="42.4373337" lon="12.7206806"><ele>955.4</ele><time>2026-04-03T13:00:57.995Z</time></trkpt><trkpt lat="42.4374398" lon="12.7206033"><ele>955.2</ele><time>2026-04-03T13:00:59.994Z</time></trkpt><trkpt lat="42.4375483" lon="12.7205385"><ele>955.0</ele><time>2026-04-03T13:01:01.995Z</time></trkpt><trkpt lat="42.4376387" lon="12.7204784"><ele>954.9999999999999</ele><time>2026-04-03T13:01:03.995Z</time></trkpt><trkpt lat="42.4377122" lon="12.7204394"><ele>955.0</ele><time>2026-04-03T13:01:05.995Z</time></trkpt><trkpt lat="42.437788" lon="12.7203838"><ele>955.0</ele><time>2026-04-03T13:01:07.995Z</time></trkpt><trkpt lat="42.4378606" lon="12.7203108"><ele>955.0</ele><time>2026-04-03T13:01:09.995Z</time></trkpt><trkpt lat="42.4379284" lon="12.7202204"><ele>954.9999999999999</ele><time>2026-04-03T13:01:11.994Z</time></trkpt><trkpt lat="42.4379892" lon="12.7201202"><ele>955.0</ele><time>2026-04-03T13:01:13.994Z</time></trkpt><trkpt lat="42.4380311" lon="12.7200021"><ele>954.9999999999999</ele><time>2026-04-03T13:01:15.995Z</time></trkpt><trkpt lat="42.4380579" lon="12.7198971"><ele>955.0</ele><time>2026-04-03T13:01:17.995Z</time></trkpt><trkpt lat="42.4380907" lon="12.7198107"><ele>955.0</ele><time>2026-04-03T13:01:19.995Z</time></trkpt><trkpt lat="42.4381389" lon="12.7197136"><ele>955.0</ele><time>2026-04-03T13:01:22.994Z</time></trkpt><trkpt lat="42.4381843" lon="12.7196377"><ele>954.9999999999999</ele><time>2026-04-03T13:01:25.995Z</time></trkpt><trkpt lat="42.4382252" lon="12.7195618"><ele>955.0</ele><time>2026-04-03T13:01:28.995Z</time></trkpt><trkpt lat="42.4382709" lon="12.7194764"><ele>953.4999999999999</ele><time>2026-04-03T13:01:31.995Z</time></trkpt><trkpt lat="42.4383106" lon="12.7193846"><ele>952.0</ele><time>2026-04-03T13:01:36.994Z</time></trkpt><trkpt lat="42.4383454" lon="12.7193036"><ele>950.5</ele><time>2026-04-03T13:01:39.994Z</time></trkpt><trkpt lat="42.4383894" lon="12.7192335"><ele>949.0</ele><time>2026-04-03T13:01:42.994Z</time></trkpt><trkpt lat="42.4384477" lon="12.7191598"><ele>947.4999999999999</ele><time>2026-04-03T13:01:45.938Z</time></trkpt><trkpt lat="42.4385239" lon="12.719083"><ele>946.0</ele><time>2026-04-03T13:01:48.994Z</time></trkpt><trkpt lat="42.4385794" lon="12.7189984"><ele>945.9999999999999</ele><time>2026-04-03T13:01:51.993Z</time></trkpt><trkpt lat="42.4386181" lon="12.7189215"><ele>946.0</ele><time>2026-04-03T13:01:55.023Z</time></trkpt><trkpt lat="42.438678" lon="12.7188389"><ele>946.0</ele><time>2026-04-03T13:01:57.994Z</time></trkpt><trkpt lat="42.4387363" lon="12.7187799"><ele>946.0</ele><time>2026-04-03T13:01:59.996Z</time></trkpt><trkpt lat="42.4388038" lon="12.7187282"><ele>945.9999999999999</ele><time>2026-04-03T13:02:02.003Z</time></trkpt><trkpt lat="42.4388629" lon="12.7186788"><ele>946.0</ele><time>2026-04-03T13:02:03.913Z</time></trkpt><trkpt lat="42.4389341" lon="12.718623"><ele>946.4999999999999</ele><time>2026-04-03T13:02:05.994Z</time></trkpt><trkpt lat="42.4389947" lon="12.7185863"><ele>947.0</ele><time>2026-04-03T13:02:07.994Z</time></trkpt><trkpt lat="42.439071" lon="12.7185274"><ele>947.5</ele><time>2026-04-03T13:02:11.021Z</time></trkpt><trkpt lat="42.439138" lon="12.7184697"><ele>948.0</ele><time>2026-04-03T13:02:13.9Z</time></trkpt><trkpt lat="42.4392153" lon="12.7184034"><ele>948.4999999999999</ele><time>2026-04-03T13:02:15.994Z</time></trkpt><trkpt lat="42.439306" lon="12.7183215"><ele>949.0</ele><time>2026-04-03T13:02:17.994Z</time></trkpt><trkpt lat="42.4393613" lon="12.7182723"><ele>946.0</ele><time>2026-04-03T13:02:18.994Z</time></trkpt><trkpt lat="42.4394468" lon="12.7181846"><ele>943.0000000000001</ele><time>2026-04-03T13:02:20.994Z</time></trkpt><trkpt lat="42.4395175" lon="12.7181115"><ele>940.0000000000001</ele><time>2026-04-03T13:02:22.994Z</time></trkpt><trkpt lat="42.4395914" lon="12.7180289"><ele>937.0</ele><time>2026-04-03T13:02:24.994Z</time></trkpt><trkpt lat="42.4396735" lon="12.7179328"><ele>934.0</ele><time>2026-04-03T13:02:26.994Z</time></trkpt><trkpt lat="42.4397442" lon="12.7178415"><ele>933.7142857142856</ele><time>2026-04-03T13:02:28.994Z</time></trkpt><trkpt lat="42.4397901" lon="12.7177693"><ele>933.4285714285713</ele><time>2026-04-03T13:02:30.994Z</time></trkpt><trkpt lat="42.4398353" lon="12.717704"><ele>933.1428571428571</ele><time>2026-04-03T13:02:34.994Z</time></trkpt><trkpt lat="42.4398882" lon="12.7176324"><ele>932.8571428571428</ele><time>2026-04-03T13:02:38.999Z</time></trkpt><trkpt lat="42.4398741" lon="12.7175459"><ele>932.5714285714284</ele><time>2026-04-03T13:02:41.984Z</time></trkpt><trkpt lat="42.4399013" lon="12.7174625"><ele>932.2857142857143</ele><time>2026-04-03T13:03:02.994Z</time></trkpt><trkpt lat="42.4399929" lon="12.7174194"><ele>932.0</ele><time>2026-04-03T13:03:05.994Z</time></trkpt><trkpt lat="42.4400812" lon="12.7174347"><ele>932.4000000000001</ele><time>2026-04-03T13:03:07.994Z</time></trkpt><trkpt lat="42.4401839" lon="12.7174884"><ele>932.8000000000001</ele><time>2026-04-03T13:03:09.994Z</time></trkpt><trkpt lat="42.4402815" lon="12.7175542"><ele>933.2</ele><time>2026-04-03T13:03:11.993Z</time></trkpt><trkpt lat="42.4403723" lon="12.7176272"><ele>933.6</ele><time>2026-04-03T13:03:13.993Z</time></trkpt><trkpt lat="42.4404661" lon="12.7177102"><ele>934.0</ele><time>2026-04-03T13:03:15.993Z</time></trkpt><trkpt lat="42.440567" lon="12.7177996"><ele>934.0</ele><time>2026-04-03T13:03:17.994Z</time></trkpt><trkpt lat="42.4406185" lon="12.71785"><ele>934.0000000000001</ele><time>2026-04-03T13:03:18.994Z</time></trkpt><trkpt lat="42.4407177" lon="12.7179503"><ele>934.0000000000001</ele><time>2026-04-03T13:03:20.994Z</time></trkpt><trkpt lat="42.4408162" lon="12.7180478"><ele>934.0</ele><time>2026-04-03T13:03:22.993Z</time></trkpt><trkpt lat="42.4409075" lon="12.7181348"><ele>934.0</ele><time>2026-04-03T13:03:24.994Z</time></trkpt><trkpt lat="42.4409856" lon="12.7182246"><ele>933.9999999999999</ele><time>2026-04-03T13:03:26.994Z</time></trkpt><trkpt lat="42.4410651" lon="12.7183353"><ele>934.0</ele><time>2026-04-03T13:03:28.994Z</time></trkpt><trkpt lat="42.4411117" lon="12.7184008"><ele>934.0</ele><time>2026-04-03T13:03:29.993Z</time></trkpt><trkpt lat="42.441162" lon="12.7184672"><ele>934.0</ele><time>2026-04-03T13:03:30.993Z</time></trkpt><trkpt lat="42.441218" lon="12.7185296"><ele>933.9999999999999</ele><time>2026-04-03T13:03:31.994Z</time></trkpt><trkpt lat="42.441278" lon="12.718587"><ele>934.0</ele><time>2026-04-03T13:03:32.994Z</time></trkpt><trkpt lat="42.4413434" lon="12.7186358"><ele>936.4000000000001</ele><time>2026-04-03T13:03:33.994Z</time></trkpt><trkpt lat="42.4414115" lon="12.7186736"><ele>938.8000000000001</ele><time>2026-04-03T13:03:34.994Z</time></trkpt><trkpt lat="42.4414762" lon="12.7187028"><ele>941.1999999999999</ele><time>2026-04-03T13:03:35.994Z</time></trkpt><trkpt lat="42.4415791" lon="12.7187459"><ele>943.5999999999999</ele><time>2026-04-03T13:03:37.994Z</time></trkpt><trkpt lat="42.4416704" lon="12.7187935"><ele>946.0</ele><time>2026-04-03T13:03:39.994Z</time></trkpt><trkpt lat="42.4417662" lon="12.7188972"><ele>946.0</ele><time>2026-04-03T13:03:41.993Z</time></trkpt><trkpt lat="42.4418148" lon="12.7189683"><ele>946.0</ele><time>2026-04-03T13:03:42.994Z</time></trkpt><trkpt lat="42.4418624" lon="12.7190407"><ele>946.0</ele><time>2026-04-03T13:03:43.994Z</time></trkpt><trkpt lat="42.4419126" lon="12.7191071"><ele>946.0</ele><time>2026-04-03T13:03:44.994Z</time></trkpt><trkpt lat="42.4419675" lon="12.7191698"><ele>946.0</ele><time>2026-04-03T13:03:45.994Z</time></trkpt><trkpt lat="42.4420252" lon="12.7192271"><ele>946.0</ele><time>2026-04-03T13:03:46.994Z</time></trkpt><trkpt lat="42.4420878" lon="12.7192736"><ele>946.0</ele><time>2026-04-03T13:03:47.994Z</time></trkpt><trkpt lat="42.4421548" lon="12.7193101"><ele>946.9999999999999</ele><time>2026-04-03T13:03:48.994Z</time></trkpt><trkpt lat="42.4422258" lon="12.7193332"><ele>948.0</ele><time>2026-04-03T13:03:49.994Z</time></trkpt><trkpt lat="42.442299" lon="12.7193498"><ele>949.0</ele><time>2026-04-03T13:03:50.994Z</time></trkpt><trkpt lat="42.442371" lon="12.7193652"><ele>950.0</ele><time>2026-04-03T13:03:51.994Z</time></trkpt><trkpt lat="42.4424372" lon="12.7193828"><ele>950.9999999999999</ele><time>2026-04-03T13:03:52.994Z</time></trkpt><trkpt lat="42.4424979" lon="12.7194059"><ele>952.0</ele><time>2026-04-03T13:03:53.993Z</time></trkpt><trkpt lat="42.4426077" lon="12.7194756"><ele>951.9999999999999</ele><time>2026-04-03T13:03:55.994Z</time></trkpt><trkpt lat="42.4427165" lon="12.7195741"><ele>952.0</ele><time>2026-04-03T13:03:57.994Z</time></trkpt><trkpt lat="42.4427783" lon="12.7196315"><ele>952.0</ele><time>2026-04-03T13:03:58.993Z</time></trkpt><trkpt lat="42.4428471" lon="12.719692"><ele>952.0</ele><time>2026-04-03T13:03:59.994Z</time></trkpt><trkpt lat="42.4429179" lon="12.7197429"><ele>951.9999999999999</ele><time>2026-04-03T13:04:00.994Z</time></trkpt><trkpt lat="42.4429843" lon="12.7197774"><ele>952.0</ele><time>2026-04-03T13:04:01.994Z</time></trkpt><trkpt lat="42.4430469" lon="12.7198045"><ele>949.8333333333333</ele><time>2026-04-03T13:04:02.994Z</time></trkpt><trkpt lat="42.4431145" lon="12.7198359"><ele>947.6666666666666</ele><time>2026-04-03T13:04:03.994Z</time></trkpt><trkpt lat="42.4431835" lon="12.7198697"><ele>945.5</ele><time>2026-04-03T13:04:04.994Z</time></trkpt><trkpt lat="42.4432526" lon="12.7199053"><ele>943.3333333333333</ele><time>2026-04-03T13:04:05.994Z</time></trkpt><trkpt lat="42.4433273" lon="12.7199396"><ele>941.1666666666666</ele><time>2026-04-03T13:04:06.994Z</time></trkpt><trkpt lat="42.4434061" lon="12.7199707"><ele>939.0</ele><time>2026-04-03T13:04:07.994Z</time></trkpt><trkpt lat="42.4434867" lon="12.7199947"><ele>939.0</ele><time>2026-04-03T13:04:08.994Z</time></trkpt><trkpt lat="42.4435643" lon="12.7200087"><ele>939.0</ele><time>2026-04-03T13:04:09.994Z</time></trkpt><trkpt lat="42.4436334" lon="12.7200194"><ele>939.0</ele><time>2026-04-03T13:04:10.994Z</time></trkpt><trkpt lat="42.4436986" lon="12.7200307"><ele>939.0</ele><time>2026-04-03T13:04:11.994Z</time></trkpt><trkpt lat="42.4437622" lon="12.7200451"><ele>939.0</ele><time>2026-04-03T13:04:12.994Z</time></trkpt><trkpt lat="42.4438244" lon="12.7200656"><ele>939.0</ele><time>2026-04-03T13:04:13.994Z</time></trkpt><trkpt lat="42.443886" lon="12.7200915"><ele>939.0</ele><time>2026-04-03T13:04:14.993Z</time></trkpt><trkpt lat="42.4439462" lon="12.7201179"><ele>938.1666666666666</ele><time>2026-04-03T13:04:15.994Z</time></trkpt><trkpt lat="42.4440533" lon="12.7201619"><ele>937.3333333333333</ele><time>2026-04-03T13:04:17.994Z</time></trkpt><trkpt lat="42.4441603" lon="12.7201914"><ele>936.5</ele><time>2026-04-03T13:04:19.994Z</time></trkpt><trkpt lat="42.4442374" lon="12.7202154"><ele>935.6666666666666</ele><time>2026-04-03T13:04:21.994Z</time></trkpt><trkpt lat="42.4443133" lon="12.7202306"><ele>934.8333333333333</ele><time>2026-04-03T13:04:24.994Z</time></trkpt><trkpt lat="42.4443766" lon="12.7202665"><ele>934.0</ele><time>2026-04-03T13:04:27.994Z</time></trkpt><trkpt lat="42.4444547" lon="12.720321"><ele>935.6</ele><time>2026-04-03T13:04:30.994Z</time></trkpt><trkpt lat="42.444509" lon="12.7203814"><ele>937.2</ele><time>2026-04-03T13:04:32.994Z</time></trkpt><trkpt lat="42.4445787" lon="12.720479"><ele>938.8000000000001</ele><time>2026-04-03T13:04:34.993Z</time></trkpt><trkpt lat="42.4446466" lon="12.7205813"><ele>940.4000000000001</ele><time>2026-04-03T13:04:36.993Z</time></trkpt><trkpt lat="42.4447112" lon="12.7206801"><ele>942.0</ele><time>2026-04-03T13:04:38.993Z</time></trkpt><trkpt lat="42.4447738" lon="12.7207753"><ele>942.0</ele><time>2026-04-03T13:04:40.994Z</time></trkpt><trkpt lat="42.444846" lon="12.7208801"><ele>942.0</ele><time>2026-04-03T13:04:42.994Z</time></trkpt><trkpt lat="42.4449247" lon="12.7209686"><ele>942.0</ele><time>2026-04-03T13:04:44.993Z</time></trkpt><trkpt lat="42.4450202" lon="12.7210213"><ele>942.0</ele><time>2026-04-03T13:04:46.993Z</time></trkpt><trkpt lat="42.4451192" lon="12.7210354"><ele>942.0</ele><time>2026-04-03T13:04:48.994Z</time></trkpt><trkpt lat="42.4452222" lon="12.7210211"><ele>942.0</ele><time>2026-04-03T13:04:50.994Z</time></trkpt><trkpt lat="42.4453148" lon="12.7209952"><ele>942.0</ele><time>2026-04-03T13:04:52.994Z</time></trkpt><trkpt lat="42.4454011" lon="12.720953"><ele>942.0</ele><time>2026-04-03T13:04:54.994Z</time></trkpt><trkpt lat="42.4454735" lon="12.7209059"><ele>942.0</ele><time>2026-04-03T13:04:56.994Z</time></trkpt><trkpt lat="42.445545" lon="12.7208076"><ele>942.0</ele><time>2026-04-03T13:04:58.994Z</time></trkpt><trkpt lat="42.445617" lon="12.7207088"><ele>941.0</ele><time>2026-04-03T13:05:00.993Z</time></trkpt><trkpt lat="42.4456795" lon="12.7206402"><ele>940.0</ele><time>2026-04-03T13:05:02.994Z</time></trkpt><trkpt lat="42.4457569" lon="12.7206187"><ele>939.0</ele><time>2026-04-03T13:05:04.994Z</time></trkpt><trkpt lat="42.4458269" lon="12.7206378"><ele>938.0</ele><time>2026-04-03T13:05:06.994Z</time></trkpt><trkpt lat="42.4458987" lon="12.7206819"><ele>937.0</ele><time>2026-04-03T13:05:08.993Z</time></trkpt><trkpt lat="42.4459512" lon="12.7207329"><ele>936.0</ele><time>2026-04-03T13:05:10.994Z</time></trkpt><trkpt lat="42.4460084" lon="12.7208184"><ele>936.0</ele><time>2026-04-03T13:05:14.994Z</time></trkpt><trkpt lat="42.4460587" lon="12.7208749"><ele>936.0</ele><time>2026-04-03T13:05:17.994Z</time></trkpt><trkpt lat="42.4461407" lon="12.7208395"><ele>936.0</ele><time>2026-04-03T13:05:20.994Z</time></trkpt><trkpt lat="42.4461858" lon="12.7207495"><ele>936.0</ele><time>2026-04-03T13:05:22.994Z</time></trkpt><trkpt lat="42.4462215" lon="12.7206182"><ele>936.0</ele><time>2026-04-03T13:05:24.994Z</time></trkpt><trkpt lat="42.4462642" lon="12.7204832"><ele>936.0</ele><time>2026-04-03T13:05:26.994Z</time></trkpt><trkpt lat="42.4463257" lon="12.7203581"><ele>936.8</ele><time>2026-04-03T13:05:28.994Z</time></trkpt><trkpt lat="42.4463768" lon="12.7202361"><ele>937.5999999999999</ele><time>2026-04-03T13:05:30.994Z</time></trkpt><trkpt lat="42.4464345" lon="12.7201247"><ele>938.4</ele><time>2026-04-03T13:05:32.994Z</time></trkpt><trkpt lat="42.4465186" lon="12.7200389"><ele>939.2</ele><time>2026-04-03T13:05:34.994Z</time></trkpt><trkpt lat="42.4466222" lon="12.7199688"><ele>940.0</ele><time>2026-04-03T13:05:36.994Z</time></trkpt><trkpt lat="42.4466913" lon="12.7199065"><ele>937.2</ele><time>2026-04-03T13:05:38.994Z</time></trkpt><trkpt lat="42.4467525" lon="12.7198544"><ele>934.4</ele><time>2026-04-03T13:05:40.994Z</time></trkpt><trkpt lat="42.4468274" lon="12.7197954"><ele>931.5999999999999</ele><time>2026-04-03T13:05:42.993Z</time></trkpt><trkpt lat="42.4469099" lon="12.7197172"><ele>928.8</ele><time>2026-04-03T13:05:44.993Z</time></trkpt><trkpt lat="42.446997" lon="12.7196556"><ele>926.0</ele><time>2026-04-03T13:05:46.993Z</time></trkpt><trkpt lat="42.4470988" lon="12.7196004"><ele>926.5999999999999</ele><time>2026-04-03T13:05:48.993Z</time></trkpt><trkpt lat="42.4472035" lon="12.7195733"><ele>927.1999999999999</ele><time>2026-04-03T13:05:50.992Z</time></trkpt><trkpt lat="42.4473037" lon="12.719517"><ele>927.8000000000001</ele><time>2026-04-03T13:05:52.992Z</time></trkpt><trkpt lat="42.4473613" lon="12.7194814"><ele>928.4000000000001</ele><time>2026-04-03T13:05:53.993Z</time></trkpt><trkpt lat="42.4474647" lon="12.7194055"><ele>929.0</ele><time>2026-04-03T13:05:55.992Z</time></trkpt><trkpt lat="42.4475613" lon="12.719299"><ele>929.0000000000001</ele><time>2026-04-03T13:05:57.993Z</time></trkpt><trkpt lat="42.4476167" lon="12.7192386"><ele>929.0</ele><time>2026-04-03T13:05:58.992Z</time></trkpt><trkpt lat="42.4476738" lon="12.7191701"><ele>929.0</ele><time>2026-04-03T13:05:59.993Z</time></trkpt><trkpt lat="42.4477346" lon="12.7191004"><ele>929.0</ele><time>2026-04-03T13:06:00.993Z</time></trkpt><trkpt lat="42.4477937" lon="12.7190226"><ele>929.0000000000001</ele><time>2026-04-03T13:06:01.993Z</time></trkpt><trkpt lat="42.4478473" lon="12.7189435"><ele>929.0</ele><time>2026-04-03T13:06:02.993Z</time></trkpt><trkpt lat="42.4478975" lon="12.7188719"><ele>929.0000000000001</ele><time>2026-04-03T13:06:03.993Z</time></trkpt><trkpt lat="42.4479429" lon="12.7188105"><ele>929.0</ele><time>2026-04-03T13:06:04.993Z</time></trkpt><trkpt lat="42.4480275" lon="12.7187226"><ele>929.0</ele><time>2026-04-03T13:06:06.993Z</time></trkpt><trkpt lat="42.4481222" lon="12.7186619"><ele>929.0</ele><time>2026-04-03T13:06:08.993Z</time></trkpt><trkpt lat="42.4481809" lon="12.7186266"><ele>929.0000000000001</ele><time>2026-04-03T13:06:09.993Z</time></trkpt><trkpt lat="42.4482405" lon="12.7185846"><ele>929.0</ele><time>2026-04-03T13:06:10.993Z</time></trkpt><trkpt lat="42.4482985" lon="12.7185439"><ele>929.1666666666667</ele><time>2026-04-03T13:06:11.993Z</time></trkpt><trkpt lat="42.4483574" lon="12.7185105"><ele>929.3333333333334</ele><time>2026-04-03T13:06:12.993Z</time></trkpt><trkpt lat="42.4484675" lon="12.7184579"><ele>929.5</ele><time>2026-04-03T13:06:14.993Z</time></trkpt><trkpt lat="42.4485563" lon="12.7183948"><ele>929.6666666666667</ele><time>2026-04-03T13:06:16.993Z</time></trkpt><trkpt lat="42.4486124" lon="12.7183112"><ele>929.8333333333334</ele><time>2026-04-03T13:06:19.992Z</time></trkpt><trkpt lat="42.4486533" lon="12.7182215"><ele>930.0</ele><time>2026-04-03T13:06:23.992Z</time></trkpt><trkpt lat="42.448679" lon="12.7181294"><ele>930.0</ele><time>2026-04-03T13:06:26.993Z</time></trkpt><trkpt lat="42.4486991" lon="12.718024"><ele>930.0</ele><time>2026-04-03T13:06:29.992Z</time></trkpt><trkpt lat="42.4487209" lon="12.7179143"><ele>930.0</ele><time>2026-04-03T13:06:32.993Z</time></trkpt><trkpt lat="42.4487427" lon="12.7178033"><ele>930.0</ele><time>2026-04-03T13:06:35.993Z</time></trkpt><trkpt lat="42.4487524" lon="12.7177126"><ele>930.0</ele><time>2026-04-03T13:06:37.993Z</time></trkpt><trkpt lat="42.4487593" lon="12.7176143"><ele>930.0</ele><time>2026-04-03T13:06:39.993Z</time></trkpt><trkpt lat="42.4487779" lon="12.7175126"><ele>929.1428571428571</ele><time>2026-04-03T13:06:42.025Z</time></trkpt><trkpt lat="42.448806" lon="12.7174351"><ele>928.2857142857143</ele><time>2026-04-03T13:06:43.993Z</time></trkpt><trkpt lat="42.4488273" lon="12.7173545"><ele>927.4285714285714</ele><time>2026-04-03T13:06:45.995Z</time></trkpt><trkpt lat="42.4488534" lon="12.7172371"><ele>926.5714285714286</ele><time>2026-04-03T13:06:48.993Z</time></trkpt><trkpt lat="42.4488677" lon="12.7171507"><ele>925.7142857142858</ele><time>2026-04-03T13:06:50.993Z</time></trkpt><trkpt lat="42.4488902" lon="12.717044"><ele>924.8571428571429</ele><time>2026-04-03T13:06:53.992Z</time></trkpt><trkpt lat="42.4489093" lon="12.7169453"><ele>924.0</ele><time>2026-04-03T13:06:56.993Z</time></trkpt><trkpt lat="42.4489322" lon="12.7168459"><ele>924.0</ele><time>2026-04-03T13:06:59.941Z</time></trkpt><trkpt lat="42.4489592" lon="12.7167316"><ele>924.0</ele><time>2026-04-03T13:07:02.993Z</time></trkpt><trkpt lat="42.4489794" lon="12.7166386"><ele>924.0</ele><time>2026-04-03T13:07:04.993Z</time></trkpt><trkpt lat="42.449004" lon="12.7165448"><ele>924.0</ele><time>2026-04-03T13:07:06.992Z</time></trkpt><trkpt lat="42.449027" lon="12.7164644"><ele>924.0</ele><time>2026-04-03T13:07:08.993Z</time></trkpt><trkpt lat="42.4490561" lon="12.7163399"><ele>924.0</ele><time>2026-04-03T13:07:11.993Z</time></trkpt><trkpt lat="42.4490844" lon="12.7162463"><ele>924.0</ele><time>2026-04-03T13:07:13.997Z</time></trkpt><trkpt lat="42.4491147" lon="12.7161653"><ele>924.0</ele><time>2026-04-03T13:07:15.938Z</time></trkpt><trkpt lat="42.4491614" lon="12.7160642"><ele>924.0</ele><time>2026-04-03T13:07:18.993Z</time></trkpt><trkpt lat="42.4492076" lon="12.7159812"><ele>924.0</ele><time>2026-04-03T13:07:21.993Z</time></trkpt><trkpt lat="42.4492478" lon="12.7158894"><ele>924.0</ele><time>2026-04-03T13:07:24.942Z</time></trkpt><trkpt lat="42.4493032" lon="12.7157814"><ele>924.0</ele><time>2026-04-03T13:07:27.993Z</time></trkpt><trkpt lat="42.4493413" lon="12.7157108"><ele>922.0</ele><time>2026-04-03T13:07:29.993Z</time></trkpt><trkpt lat="42.4493875" lon="12.7156149"><ele>920.0</ele><time>2026-04-03T13:07:32.962Z</time></trkpt><trkpt lat="42.4494353" lon="12.7155335"><ele>918.0</ele><time>2026-04-03T13:07:35.993Z</time></trkpt><trkpt lat="42.4494877" lon="12.7154511"><ele>916.0</ele><time>2026-04-03T13:07:38.993Z</time></trkpt><trkpt lat="42.4495104" lon="12.7153568"><ele>914.0</ele><time>2026-04-03T13:07:42.997Z</time></trkpt><trkpt lat="42.4494392" lon="12.7153032"><ele>912.0</ele><time>2026-04-03T13:07:44.993Z</time></trkpt><trkpt lat="42.4493647" lon="12.7152561"><ele>910.4000000000001</ele><time>2026-04-03T13:07:46.993Z</time></trkpt><trkpt lat="42.4493194" lon="12.7151229"><ele>908.8000000000001</ele><time>2026-04-03T13:07:48.993Z</time></trkpt><trkpt lat="42.4493036" lon="12.7150355"><ele>907.2</ele><time>2026-04-03T13:07:49.993Z</time></trkpt><trkpt lat="42.4492727" lon="12.7149059"><ele>905.6</ele><time>2026-04-03T13:07:51.993Z</time></trkpt><trkpt lat="42.4492465" lon="12.7147789"><ele>904.0</ele><time>2026-04-03T13:07:53.992Z</time></trkpt><trkpt lat="42.4492249" lon="12.7146388"><ele>904.0</ele><time>2026-04-03T13:07:55.993Z</time></trkpt><trkpt lat="42.4491949" lon="12.7145028"><ele>904.0000000000001</ele><time>2026-04-03T13:07:57.993Z</time></trkpt><trkpt lat="42.4491603" lon="12.7143602"><ele>904.0000000000001</ele><time>2026-04-03T13:07:59.993Z</time></trkpt><trkpt lat="42.4491224" lon="12.714227"><ele>904.0</ele><time>2026-04-03T13:08:01.993Z</time></trkpt><trkpt lat="42.4490676" lon="12.7141056"><ele>904.0</ele><time>2026-04-03T13:08:03.993Z</time></trkpt><trkpt lat="42.4489958" lon="12.7139762"><ele>903.9999999999999</ele><time>2026-04-03T13:08:05.993Z</time></trkpt><trkpt lat="42.4489592" lon="12.7139044"><ele>904.0</ele><time>2026-04-03T13:08:06.993Z</time></trkpt><trkpt lat="42.4489218" lon="12.7138316"><ele>904.0</ele><time>2026-04-03T13:08:07.993Z</time></trkpt><trkpt lat="42.4488783" lon="12.7137604"><ele>904.0</ele><time>2026-04-03T13:08:08.993Z</time></trkpt><trkpt lat="42.4488302" lon="12.7136885"><ele>903.9999999999999</ele><time>2026-04-03T13:08:09.993Z</time></trkpt><trkpt lat="42.4487782" lon="12.713629"><ele>904.0</ele><time>2026-04-03T13:08:10.993Z</time></trkpt><trkpt lat="42.4486812" lon="12.7135222"><ele>904.0</ele><time>2026-04-03T13:08:12.993Z</time></trkpt><trkpt lat="42.4486314" lon="12.7134689"><ele>904.0</ele><time>2026-04-03T13:08:13.993Z</time></trkpt><trkpt lat="42.4485773" lon="12.7134147"><ele>904.0</ele><time>2026-04-03T13:08:14.992Z</time></trkpt><trkpt lat="42.4485163" lon="12.713365"><ele>904.0</ele><time>2026-04-03T13:08:15.993Z</time></trkpt><trkpt lat="42.4484505" lon="12.7133186"><ele>904.0</ele><time>2026-04-03T13:08:16.993Z</time></trkpt><trkpt lat="42.4483822" lon="12.7132739"><ele>904.0</ele><time>2026-04-03T13:08:17.992Z</time></trkpt><trkpt lat="42.4483086" lon="12.7132303"><ele>904.0</ele><time>2026-04-03T13:08:18.992Z</time></trkpt><trkpt lat="42.4482279" lon="12.7131902"><ele>903.9999999999999</ele><time>2026-04-03T13:08:19.993Z</time></trkpt><trkpt lat="42.4481424" lon="12.713159"><ele>904.0</ele><time>2026-04-03T13:08:20.993Z</time></trkpt><trkpt lat="42.4480554" lon="12.7131429"><ele>904.0</ele><time>2026-04-03T13:08:21.992Z</time></trkpt><trkpt lat="42.4479669" lon="12.7131353"><ele>904.0</ele><time>2026-04-03T13:08:22.993Z</time></trkpt><trkpt lat="42.4478819" lon="12.7131253"><ele>903.9999999999999</ele><time>2026-04-03T13:08:23.993Z</time></trkpt><trkpt lat="42.4478027" lon="12.7131146"><ele>904.0</ele><time>2026-04-03T13:08:24.993Z</time></trkpt><trkpt lat="42.4477235" lon="12.7131013"><ele>903.7142857142858</ele><time>2026-04-03T13:08:25.993Z</time></trkpt><trkpt lat="42.4476445" lon="12.7130882"><ele>903.4285714285713</ele><time>2026-04-03T13:08:26.993Z</time></trkpt><trkpt lat="42.4475671" lon="12.7130824"><ele>903.1428571428571</ele><time>2026-04-03T13:08:27.993Z</time></trkpt><trkpt lat="42.4474963" lon="12.7130729"><ele>902.8571428571429</ele><time>2026-04-03T13:08:28.993Z</time></trkpt><trkpt lat="42.4474319" lon="12.713055"><ele>902.5714285714287</ele><time>2026-04-03T13:08:29.993Z</time></trkpt><trkpt lat="42.4473658" lon="12.7130302"><ele>902.2857142857142</ele><time>2026-04-03T13:08:30.993Z</time></trkpt><trkpt lat="42.4472982" lon="12.7129897"><ele>902.0</ele><time>2026-04-03T13:08:31.993Z</time></trkpt><trkpt lat="42.4472256" lon="12.7129383"><ele>902.0000000000001</ele><time>2026-04-03T13:08:32.993Z</time></trkpt><trkpt lat="42.4471513" lon="12.7128902"><ele>902.0</ele><time>2026-04-03T13:08:33.993Z</time></trkpt><trkpt lat="42.4470805" lon="12.7128506"><ele>902.0</ele><time>2026-04-03T13:08:34.993Z</time></trkpt><trkpt lat="42.4470084" lon="12.7128054"><ele>902.0</ele><time>2026-04-03T13:08:35.993Z</time></trkpt><trkpt lat="42.4469408" lon="12.7127575"><ele>902.0000000000001</ele><time>2026-04-03T13:08:36.993Z</time></trkpt><trkpt lat="42.4468732" lon="12.7127262"><ele>902.0</ele><time>2026-04-03T13:08:37.992Z</time></trkpt><trkpt lat="42.4468014" lon="12.7126883"><ele>902.3333333333334</ele><time>2026-04-03T13:08:38.992Z</time></trkpt><trkpt lat="42.4467281" lon="12.7126439"><ele>902.6666666666667</ele><time>2026-04-03T13:08:39.993Z</time></trkpt><trkpt lat="42.4466559" lon="12.7126031"><ele>903.0</ele><time>2026-04-03T13:08:40.993Z</time></trkpt><trkpt lat="42.4465786" lon="12.7125722"><ele>903.3333333333333</ele><time>2026-04-03T13:08:41.993Z</time></trkpt><trkpt lat="42.4465035" lon="12.7125389"><ele>903.6666666666666</ele><time>2026-04-03T13:08:42.993Z</time></trkpt><trkpt lat="42.4464335" lon="12.7125149"><ele>904.0</ele><time>2026-04-03T13:08:43.993Z</time></trkpt><trkpt lat="42.4463158" lon="12.7124687"><ele>904.8333333333333</ele><time>2026-04-03T13:08:45.993Z</time></trkpt><trkpt lat="42.4462561" lon="12.7124356"><ele>905.6666666666666</ele><time>2026-04-03T13:08:46.993Z</time></trkpt><trkpt lat="42.4461997" lon="12.712384"><ele>906.5</ele><time>2026-04-03T13:08:47.993Z</time></trkpt><trkpt lat="42.446104" lon="12.7123234"><ele>907.3333333333333</ele><time>2026-04-03T13:08:49.993Z</time></trkpt><trkpt lat="42.4460374" lon="12.7123148"><ele>908.1666666666666</ele><time>2026-04-03T13:08:51.993Z</time></trkpt><trkpt lat="42.445976" lon="12.7123463"><ele>909.0</ele><time>2026-04-03T13:08:53.993Z</time></trkpt><trkpt lat="42.4458915" lon="12.7124191"><ele>909.0</ele><time>2026-04-03T13:08:55.992Z</time></trkpt><trkpt lat="42.4457934" lon="12.7124633"><ele>909.0000000000001</ele><time>2026-04-03T13:08:57.993Z</time></trkpt><trkpt lat="42.4456893" lon="12.7125288"><ele>909.0000000000001</ele><time>2026-04-03T13:08:59.993Z</time></trkpt><trkpt lat="42.4455864" lon="12.7126303"><ele>909.0</ele><time>2026-04-03T13:09:01.992Z</time></trkpt><trkpt lat="42.445529" lon="12.7126808"><ele>909.0</ele><time>2026-04-03T13:09:02.993Z</time></trkpt><trkpt lat="42.4454737" lon="12.7127296"><ele>908.6666666666666</ele><time>2026-04-03T13:09:03.992Z</time></trkpt><trkpt lat="42.4454164" lon="12.7127753"><ele>908.3333333333333</ele><time>2026-04-03T13:09:04.993Z</time></trkpt><trkpt lat="42.4453541" lon="12.7128173"><ele>908.0</ele><time>2026-04-03T13:09:05.992Z</time></trkpt><trkpt lat="42.4452852" lon="12.7128542"><ele>907.6666666666666</ele><time>2026-04-03T13:09:06.993Z</time></trkpt><trkpt lat="42.4452099" lon="12.7128901"><ele>907.3333333333333</ele><time>2026-04-03T13:09:07.993Z</time></trkpt><trkpt lat="42.4451311" lon="12.7129284"><ele>907.0</ele><time>2026-04-03T13:09:08.992Z</time></trkpt><trkpt lat="42.445053" lon="12.7129665"><ele>906.9999999999999</ele><time>2026-04-03T13:09:09.992Z</time></trkpt><trkpt lat="42.4449788" lon="12.7130042"><ele>907.0</ele><time>2026-04-03T13:09:10.993Z</time></trkpt><trkpt lat="42.444914" lon="12.7130431"><ele>907.0</ele><time>2026-04-03T13:09:11.992Z</time></trkpt><trkpt lat="42.4448546" lon="12.7130776"><ele>907.0</ele><time>2026-04-03T13:09:12.993Z</time></trkpt><trkpt lat="42.4447411" lon="12.713134"><ele>906.9999999999999</ele><time>2026-04-03T13:09:14.993Z</time></trkpt><trkpt lat="42.4446797" lon="12.7131616"><ele>907.0</ele><time>2026-04-03T13:09:15.991Z</time></trkpt><trkpt lat="42.4446161" lon="12.7131826"><ele>907.4285714285716</ele><time>2026-04-03T13:09:16.992Z</time></trkpt><trkpt lat="42.4445527" lon="12.7131977"><ele>907.8571428571429</ele><time>2026-04-03T13:09:17.993Z</time></trkpt><trkpt lat="42.444487" lon="12.7132068"><ele>908.2857142857143</ele><time>2026-04-03T13:09:18.991Z</time></trkpt><trkpt lat="42.4444193" lon="12.713215"><ele>908.7142857142858</ele><time>2026-04-03T13:09:19.993Z</time></trkpt><trkpt lat="42.4443508" lon="12.713218"><ele>909.1428571428571</ele><time>2026-04-03T13:09:20.993Z</time></trkpt><trkpt lat="42.4442796" lon="12.7132177"><ele>909.5714285714286</ele><time>2026-04-03T13:09:21.993Z</time></trkpt><trkpt lat="42.4442014" lon="12.7132194"><ele>910.0</ele><time>2026-04-03T13:09:22.993Z</time></trkpt><trkpt lat="42.4441183" lon="12.713219"><ele>909.9999999999999</ele><time>2026-04-03T13:09:23.993Z</time></trkpt><trkpt lat="42.4440337" lon="12.7132204"><ele>910.0</ele><time>2026-04-03T13:09:24.993Z</time></trkpt><trkpt lat="42.4439561" lon="12.7132245"><ele>910.0</ele><time>2026-04-03T13:09:25.993Z</time></trkpt><trkpt lat="42.4438831" lon="12.7132339"><ele>910.0</ele><time>2026-04-03T13:09:26.993Z</time></trkpt><trkpt lat="42.4438078" lon="12.7132346"><ele>909.9999999999999</ele><time>2026-04-03T13:09:27.992Z</time></trkpt><trkpt lat="42.4437285" lon="12.7132424"><ele>910.0</ele><time>2026-04-03T13:09:28.992Z</time></trkpt><trkpt lat="42.443648" lon="12.7132605"><ele>910.5714285714286</ele><time>2026-04-03T13:09:29.993Z</time></trkpt><trkpt lat="42.4435747" lon="12.7132761"><ele>911.1428571428571</ele><time>2026-04-03T13:09:30.992Z</time></trkpt><trkpt lat="42.4435085" lon="12.7132907"><ele>911.7142857142858</ele><time>2026-04-03T13:09:31.992Z</time></trkpt><trkpt lat="42.4434431" lon="12.713302"><ele>912.2857142857143</ele><time>2026-04-03T13:09:32.993Z</time></trkpt><trkpt lat="42.4433772" lon="12.7133034"><ele>912.8571428571429</ele><time>2026-04-03T13:09:33.992Z</time></trkpt><trkpt lat="42.4433091" lon="12.713305"><ele>913.4285714285716</ele><time>2026-04-03T13:09:34.993Z</time></trkpt><trkpt lat="42.4432371" lon="12.7133053"><ele>914.0000000000001</ele><time>2026-04-03T13:09:35.993Z</time></trkpt><trkpt lat="42.4431619" lon="12.7133017"><ele>914.0000000000001</ele><time>2026-04-03T13:09:36.993Z</time></trkpt><trkpt lat="42.4430823" lon="12.7132909"><ele>914.0</ele><time>2026-04-03T13:09:37.993Z</time></trkpt><trkpt lat="42.4430043" lon="12.7132808"><ele>914.0000000000001</ele><time>2026-04-03T13:09:38.993Z</time></trkpt><trkpt lat="42.4429357" lon="12.7132658"><ele>914.0000000000001</ele><time>2026-04-03T13:09:39.993Z</time></trkpt><trkpt lat="42.4428675" lon="12.7132411"><ele>914.0</ele><time>2026-04-03T13:09:40.993Z</time></trkpt><trkpt lat="42.4427975" lon="12.7132106"><ele>914.0000000000001</ele><time>2026-04-03T13:09:41.993Z</time></trkpt><trkpt lat="42.4427291" lon="12.7131839"><ele>914.0000000000001</ele><time>2026-04-03T13:09:42.993Z</time></trkpt><trkpt lat="42.4426605" lon="12.7131703"><ele>913.1666666666667</ele><time>2026-04-03T13:09:43.993Z</time></trkpt><trkpt lat="42.4425891" lon="12.7131732"><ele>912.3333333333334</ele><time>2026-04-03T13:09:44.993Z</time></trkpt><trkpt lat="42.4425254" lon="12.713179"><ele>911.5</ele><time>2026-04-03T13:09:45.993Z</time></trkpt><trkpt lat="42.4424212" lon="12.7131982"><ele>910.6666666666667</ele><time>2026-04-03T13:09:47.993Z</time></trkpt><trkpt lat="42.4423372" lon="12.7132078"><ele>909.8333333333334</ele><time>2026-04-03T13:09:49.993Z</time></trkpt><trkpt lat="42.4422483" lon="12.7132048"><ele>909.0</ele><time>2026-04-03T13:09:52.993Z</time></trkpt><trkpt lat="42.4421724" lon="12.7131807"><ele>906.5</ele><time>2026-04-03T13:09:55.992Z</time></trkpt><trkpt lat="42.4420997" lon="12.7131364"><ele>904.0</ele><time>2026-04-03T13:09:58.992Z</time></trkpt><trkpt lat="42.4420245" lon="12.7130867"><ele>901.5</ele><time>2026-04-03T13:10:01.991Z</time></trkpt><trkpt lat="42.4419553" lon="12.7130149"><ele>899.0</ele><time>2026-04-03T13:10:04.992Z</time></trkpt><trkpt lat="42.4418878" lon="12.7129425"><ele>896.5</ele><time>2026-04-03T13:10:07.992Z</time></trkpt><trkpt lat="42.4418301" lon="12.7128737"><ele>894.0</ele><time>2026-04-03T13:10:09.992Z</time></trkpt><trkpt lat="42.4417673" lon="12.7128076"><ele>894.0</ele><time>2026-04-03T13:10:11.992Z</time></trkpt><trkpt lat="42.4417079" lon="12.7127415"><ele>894.0</ele><time>2026-04-03T13:10:13.992Z</time></trkpt><trkpt lat="42.4416409" lon="12.7126842"><ele>894.0</ele><time>2026-04-03T13:10:15.992Z</time></trkpt><trkpt lat="42.4415703" lon="12.7126389"><ele>894.0</ele><time>2026-04-03T13:10:17.992Z</time></trkpt><trkpt lat="42.4415078" lon="12.7125907"><ele>894.0</ele><time>2026-04-03T13:10:19.991Z</time></trkpt><trkpt lat="42.4414416" lon="12.7125411"><ele>894.0</ele><time>2026-04-03T13:10:21.992Z</time></trkpt><trkpt lat="42.4413794" lon="12.712485"><ele>893.6</ele><time>2026-04-03T13:10:23.914Z</time></trkpt><trkpt lat="42.4413259" lon="12.7124338"><ele>893.2</ele><time>2026-04-03T13:10:24.992Z</time></trkpt><trkpt lat="42.4412229" lon="12.7123694"><ele>892.8000000000001</ele><time>2026-04-03T13:10:26.992Z</time></trkpt><trkpt lat="42.4411246" lon="12.7123011"><ele>892.4000000000001</ele><time>2026-04-03T13:10:28.992Z</time></trkpt><trkpt lat="42.4410266" lon="12.712229"><ele>892.0</ele><time>2026-04-03T13:10:30.992Z</time></trkpt><trkpt lat="42.4409382" lon="12.7121441"><ele>892.0</ele><time>2026-04-03T13:10:32.992Z</time></trkpt><trkpt lat="42.4408602" lon="12.7120669"><ele>892.0</ele><time>2026-04-03T13:10:34.991Z</time></trkpt><trkpt lat="42.4407865" lon="12.7119889"><ele>892.0</ele><time>2026-04-03T13:10:36.991Z</time></trkpt><trkpt lat="42.4407054" lon="12.7119048"><ele>892.0</ele><time>2026-04-03T13:10:38.991Z</time></trkpt><trkpt lat="42.4406162" lon="12.711822"><ele>892.0</ele><time>2026-04-03T13:10:40.992Z</time></trkpt><trkpt lat="42.440513" lon="12.711767"><ele>891.8333333333333</ele><time>2026-04-03T13:10:42.992Z</time></trkpt><trkpt lat="42.4404525" lon="12.7117408"><ele>891.6666666666666</ele><time>2026-04-03T13:10:43.992Z</time></trkpt><trkpt lat="42.440338" lon="12.7116617"><ele>891.5</ele><time>2026-04-03T13:10:45.992Z</time></trkpt><trkpt lat="42.4402779" lon="12.7116183"><ele>891.3333333333333</ele><time>2026-04-03T13:10:46.992Z</time></trkpt><trkpt lat="42.4402184" lon="12.7115763"><ele>891.1666666666666</ele><time>2026-04-03T13:10:47.992Z</time></trkpt><trkpt lat="42.4401581" lon="12.7115307"><ele>891.0</ele><time>2026-04-03T13:10:48.992Z</time></trkpt><trkpt lat="42.4400966" lon="12.7114889"><ele>891.0</ele><time>2026-04-03T13:10:49.992Z</time></trkpt><trkpt lat="42.4400374" lon="12.711453"><ele>891.0</ele><time>2026-04-03T13:10:50.992Z</time></trkpt><trkpt lat="42.439978" lon="12.7114213"><ele>891.0</ele><time>2026-04-03T13:10:51.992Z</time></trkpt><trkpt lat="42.4399186" lon="12.7113883"><ele>891.0</ele><time>2026-04-03T13:10:52.992Z</time></trkpt><trkpt lat="42.439861" lon="12.7113519"><ele>891.0</ele><time>2026-04-03T13:10:53.992Z</time></trkpt><trkpt lat="42.4397584" lon="12.7112698"><ele>891.0</ele><time>2026-04-03T13:10:55.991Z</time></trkpt><trkpt lat="42.4396578" lon="12.7112068"><ele>890.1999999999999</ele><time>2026-04-03T13:10:57.992Z</time></trkpt><trkpt lat="42.4395665" lon="12.7111654"><ele>889.3999999999999</ele><time>2026-04-03T13:10:59.992Z</time></trkpt><trkpt lat="42.4394634" lon="12.7110907"><ele>888.6</ele><time>2026-04-03T13:11:01.992Z</time></trkpt><trkpt lat="42.4393654" lon="12.7110092"><ele>887.8</ele><time>2026-04-03T13:11:03.992Z</time></trkpt><trkpt lat="42.4392818" lon="12.7109255"><ele>887.0</ele><time>2026-04-03T13:11:05.991Z</time></trkpt><trkpt lat="42.4392048" lon="12.7108451"><ele>887.0000000000001</ele><time>2026-04-03T13:11:07.992Z</time></trkpt><trkpt lat="42.4391276" lon="12.7107827"><ele>887.0</ele><time>2026-04-03T13:11:09.992Z</time></trkpt><trkpt lat="42.4390627" lon="12.7107746"><ele>887.0</ele><time>2026-04-03T13:11:11.992Z</time></trkpt><trkpt lat="42.4390321" lon="12.7108693"><ele>887.0</ele><time>2026-04-03T13:11:14.992Z</time></trkpt><trkpt lat="42.4390655" lon="12.7109901"><ele>887.0000000000001</ele><time>2026-04-03T13:11:16.992Z</time></trkpt><trkpt lat="42.4390987" lon="12.7111249"><ele>887.0</ele><time>2026-04-03T13:11:18.992Z</time></trkpt><trkpt lat="42.4391105" lon="12.7112949"><ele>886.6666666666667</ele><time>2026-04-03T13:11:20.992Z</time></trkpt><trkpt lat="42.4391069" lon="12.7113851"><ele>886.3333333333334</ele><time>2026-04-03T13:11:21.992Z</time></trkpt><trkpt lat="42.4390908" lon="12.7114746"><ele>886.0</ele><time>2026-04-03T13:11:22.992Z</time></trkpt><trkpt lat="42.4390474" lon="12.7116343"><ele>885.6666666666667</ele><time>2026-04-03T13:11:24.992Z</time></trkpt><trkpt lat="42.4390143" lon="12.711724"><ele>885.3333333333334</ele><time>2026-04-03T13:11:25.992Z</time></trkpt><trkpt lat="42.4389793" lon="12.7118135"><ele>885.0</ele><time>2026-04-03T13:11:26.991Z</time></trkpt><trkpt lat="42.4389472" lon="12.7118916"><ele>885.2</ele><time>2026-04-03T13:11:27.992Z</time></trkpt><trkpt lat="42.4389008" lon="12.7120355"><ele>885.4</ele><time>2026-04-03T13:11:29.992Z</time></trkpt><trkpt lat="42.4388896" lon="12.7121951"><ele>885.5999999999999</ele><time>2026-04-03T13:11:31.992Z</time></trkpt><trkpt lat="42.4389032" lon="12.7122878"><ele>885.8</ele><time>2026-04-03T13:11:32.992Z</time></trkpt><trkpt lat="42.4389218" lon="12.7123861"><ele>886.0</ele><time>2026-04-03T13:11:33.99Z</time></trkpt><trkpt lat="42.4389355" lon="12.7124882"><ele>885.9999999999999</ele><time>2026-04-03T13:11:34.992Z</time></trkpt><trkpt lat="42.4389446" lon="12.7125817"><ele>886.0</ele><time>2026-04-03T13:11:35.992Z</time></trkpt><trkpt lat="42.4389597" lon="12.7126661"><ele>886.0</ele><time>2026-04-03T13:11:36.992Z</time></trkpt><trkpt lat="42.4390037" lon="12.712799"><ele>886.0</ele><time>2026-04-03T13:11:38.991Z</time></trkpt><trkpt lat="42.4390687" lon="12.7128984"><ele>885.9999999999999</ele><time>2026-04-03T13:11:40.992Z</time></trkpt><trkpt lat="42.439139" lon="12.7129957"><ele>886.0</ele><time>2026-04-03T13:11:42.992Z</time></trkpt><trkpt lat="42.4391772" lon="12.7131075"><ele>887.1999999999999</ele><time>2026-04-03T13:11:44.992Z</time></trkpt><trkpt lat="42.4392001" lon="12.7132202"><ele>888.3999999999999</ele><time>2026-04-03T13:11:46.992Z</time></trkpt><trkpt lat="42.4392085" lon="12.7133501"><ele>889.6</ele><time>2026-04-03T13:11:48.992Z</time></trkpt><trkpt lat="42.4392291" lon="12.7134718"><ele>890.8</ele><time>2026-04-03T13:11:50.992Z</time></trkpt><trkpt lat="42.4392725" lon="12.7135779"><ele>892.0</ele><time>2026-04-03T13:11:52.991Z</time></trkpt><trkpt lat="42.439311" lon="12.7136815"><ele>893.2</ele><time>2026-04-03T13:11:55.992Z</time></trkpt><trkpt lat="42.4393203" lon="12.7137865"><ele>894.4000000000001</ele><time>2026-04-03T13:11:57.992Z</time></trkpt><trkpt lat="42.4393466" lon="12.7139182"><ele>895.5999999999999</ele><time>2026-04-03T13:11:59.992Z</time></trkpt><trkpt lat="42.4393728" lon="12.7140493"><ele>896.8</ele><time>2026-04-03T13:12:01.992Z</time></trkpt><trkpt lat="42.4393958" lon="12.714195"><ele>898.0</ele><time>2026-04-03T13:12:03.992Z</time></trkpt><trkpt lat="42.4394137" lon="12.7143679"><ele>898.8333333333333</ele><time>2026-04-03T13:12:05.992Z</time></trkpt><trkpt lat="42.4394196" lon="12.714463"><ele>899.6666666666666</ele><time>2026-04-03T13:12:06.992Z</time></trkpt><trkpt lat="42.4394275" lon="12.7145551"><ele>900.5</ele><time>2026-04-03T13:12:07.992Z</time></trkpt><trkpt lat="42.4394712" lon="12.7147072"><ele>901.3333333333333</ele><time>2026-04-03T13:12:09.992Z</time></trkpt><trkpt lat="42.4395346" lon="12.714842"><ele>902.1666666666666</ele><time>2026-04-03T13:12:11.992Z</time></trkpt><trkpt lat="42.4395623" lon="12.7149219"><ele>903.0</ele><time>2026-04-03T13:12:12.992Z</time></trkpt><trkpt lat="42.4395842" lon="12.7150085"><ele>903.0</ele><time>2026-04-03T13:12:13.992Z</time></trkpt><trkpt lat="42.4396006" lon="12.7150925"><ele>903.0</ele><time>2026-04-03T13:12:14.992Z</time></trkpt><trkpt lat="42.4396337" lon="12.7151723"><ele>903.0</ele><time>2026-04-03T13:12:15.992Z</time></trkpt><trkpt lat="42.4396761" lon="12.7152487"><ele>903.0</ele><time>2026-04-03T13:12:16.992Z</time></trkpt><trkpt lat="42.439725" lon="12.7153163"><ele>903.0</ele><time>2026-04-03T13:12:17.992Z</time></trkpt><trkpt lat="42.439777" lon="12.7153794"><ele>903.0</ele><time>2026-04-03T13:12:18.992Z</time></trkpt><trkpt lat="42.439821" lon="12.7154453"><ele>903.0</ele><time>2026-04-03T13:12:19.992Z</time></trkpt><trkpt lat="42.4398921" lon="12.7155722"><ele>904.0</ele><time>2026-04-03T13:12:21.992Z</time></trkpt><trkpt lat="42.4399536" lon="12.7156968"><ele>905.0</ele><time>2026-04-03T13:12:23.992Z</time></trkpt><trkpt lat="42.4399978" lon="12.7158161"><ele>906.0</ele><time>2026-04-03T13:12:25.991Z</time></trkpt><trkpt lat="42.440015" lon="12.7159498"><ele>907.0</ele><time>2026-04-03T13:12:27.992Z</time></trkpt><trkpt lat="42.4400194" lon="12.7161124"><ele>908.0</ele><time>2026-04-03T13:12:29.992Z</time></trkpt><trkpt lat="42.4400148" lon="12.7162037"><ele>908.8</ele><time>2026-04-03T13:12:30.992Z</time></trkpt><trkpt lat="42.4400037" lon="12.716295"><ele>909.5999999999999</ele><time>2026-04-03T13:12:31.992Z</time></trkpt><trkpt lat="42.4399766" lon="12.7164497"><ele>910.4000000000001</ele><time>2026-04-03T13:12:33.992Z</time></trkpt><trkpt lat="42.439933" lon="12.7165915"><ele>911.2</ele><time>2026-04-03T13:12:35.992Z</time></trkpt><trkpt lat="42.4398883" lon="12.7167436"><ele>912.0</ele><time>2026-04-03T13:12:37.992Z</time></trkpt><trkpt lat="42.4398755" lon="12.7168281"><ele>912.7142857142857</ele><time>2026-04-03T13:12:38.992Z</time></trkpt><trkpt lat="42.4398713" lon="12.7169199"><ele>913.4285714285713</ele><time>2026-04-03T13:12:39.992Z</time></trkpt><trkpt lat="42.4398738" lon="12.7170107"><ele>914.1428571428571</ele><time>2026-04-03T13:12:40.992Z</time></trkpt><trkpt lat="42.4398722" lon="12.7170986"><ele>914.8571428571429</ele><time>2026-04-03T13:12:41.992Z</time></trkpt><trkpt lat="42.4398693" lon="12.7171841"><ele>915.5714285714286</ele><time>2026-04-03T13:12:42.992Z</time></trkpt><trkpt lat="42.4398538" lon="12.717324"><ele>916.2857142857142</ele><time>2026-04-03T13:12:44.992Z</time></trkpt><trkpt lat="42.4398454" lon="12.7174168"><ele>917.0</ele><time>2026-04-03T13:12:46.992Z</time></trkpt><trkpt lat="42.4399211" lon="12.7174684"><ele>917.0</ele><time>2026-04-03T13:12:50.992Z</time></trkpt><trkpt lat="42.4400259" lon="12.7174627"><ele>917.0</ele><time>2026-04-03T13:12:52.992Z</time></trkpt><trkpt lat="42.440145" lon="12.717481"><ele>917.0</ele><time>2026-04-03T13:12:54.992Z</time></trkpt><trkpt lat="42.4402523" lon="12.7175216"><ele>917.0</ele><time>2026-04-03T13:12:56.992Z</time></trkpt><trkpt lat="42.4403447" lon="12.7175697"><ele>917.0</ele><time>2026-04-03T13:12:58.992Z</time></trkpt><trkpt lat="42.440434" lon="12.7176488"><ele>919.8333333333334</ele><time>2026-04-03T13:13:00.992Z</time></trkpt><trkpt lat="42.4405297" lon="12.7177357"><ele>922.6666666666667</ele><time>2026-04-03T13:13:02.992Z</time></trkpt><trkpt lat="42.4406313" lon="12.717834"><ele>925.5</ele><time>2026-04-03T13:13:04.992Z</time></trkpt><trkpt lat="42.4406818" lon="12.7178954"><ele>928.3333333333333</ele><time>2026-04-03T13:13:05.992Z</time></trkpt><trkpt lat="42.4407343" lon="12.7179568"><ele>931.1666666666666</ele><time>2026-04-03T13:13:06.992Z</time></trkpt><trkpt lat="42.440792" lon="12.7180145"><ele>934.0</ele><time>2026-04-03T13:13:07.992Z</time></trkpt><trkpt lat="42.440855" lon="12.7180728"><ele>933.9999999999999</ele><time>2026-04-03T13:13:08.992Z</time></trkpt><trkpt lat="42.4409111" lon="12.7181297"><ele>934.0</ele><time>2026-04-03T13:13:09.992Z</time></trkpt><trkpt lat="42.4409617" lon="12.718186"><ele>933.9999999999999</ele><time>2026-04-03T13:13:10.992Z</time></trkpt><trkpt lat="42.4410106" lon="12.718249"><ele>933.9999999999999</ele><time>2026-04-03T13:13:11.992Z</time></trkpt><trkpt lat="42.4410619" lon="12.7183198"><ele>934.0</ele><time>2026-04-03T13:13:12.992Z</time></trkpt><trkpt lat="42.4411148" lon="12.7183926"><ele>933.9999999999999</ele><time>2026-04-03T13:13:13.992Z</time></trkpt><trkpt lat="42.441167" lon="12.7184597"><ele>933.9999999999999</ele><time>2026-04-03T13:13:14.991Z</time></trkpt><trkpt lat="42.4412212" lon="12.7185217"><ele>935.9999999999999</ele><time>2026-04-03T13:13:15.991Z</time></trkpt><trkpt lat="42.441283" lon="12.7185793"><ele>938.0</ele><time>2026-04-03T13:13:16.991Z</time></trkpt><trkpt lat="42.4413519" lon="12.7186324"><ele>940.0</ele><time>2026-04-03T13:13:17.991Z</time></trkpt><trkpt lat="42.4414276" lon="12.7186747"><ele>942.0</ele><time>2026-04-03T13:13:18.992Z</time></trkpt><trkpt lat="42.4415033" lon="12.7187121"><ele>943.9999999999999</ele><time>2026-04-03T13:13:19.992Z</time></trkpt><trkpt lat="42.4415713" lon="12.7187412"><ele>946.0</ele><time>2026-04-03T13:13:20.991Z</time></trkpt><trkpt lat="42.4416852" lon="12.7188021"><ele>945.9999999999999</ele><time>2026-04-03T13:13:22.992Z</time></trkpt><trkpt lat="42.4417425" lon="12.7188632"><ele>946.0</ele><time>2026-04-03T13:13:23.992Z</time></trkpt><trkpt lat="42.4418021" lon="12.7189359"><ele>946.0</ele><time>2026-04-03T13:13:24.992Z</time></trkpt><trkpt lat="42.4418574" lon="12.719019"><ele>946.0</ele><time>2026-04-03T13:13:25.992Z</time></trkpt><trkpt lat="42.4419148" lon="12.7190979"><ele>945.9999999999999</ele><time>2026-04-03T13:13:26.992Z</time></trkpt><trkpt lat="42.441974" lon="12.7191688"><ele>946.0</ele><time>2026-04-03T13:13:27.992Z</time></trkpt><trkpt lat="42.4420326" lon="12.7192248"><ele>945.9999999999999</ele><time>2026-04-03T13:13:28.992Z</time></trkpt><trkpt lat="42.4420934" lon="12.7192676"><ele>946.0</ele><time>2026-04-03T13:13:29.992Z</time></trkpt><trkpt lat="42.4421598" lon="12.7193039"><ele>946.0</ele><time>2026-04-03T13:13:30.992Z</time></trkpt><trkpt lat="42.4422358" lon="12.719329"><ele>946.0</ele><time>2026-04-03T13:13:31.992Z</time></trkpt><trkpt lat="42.4423167" lon="12.7193493"><ele>945.9999999999999</ele><time>2026-04-03T13:13:32.991Z</time></trkpt><trkpt lat="42.4423955" lon="12.7193664"><ele>946.0</ele><time>2026-04-03T13:13:33.992Z</time></trkpt><trkpt lat="42.4424665" lon="12.7193849"><ele>947.1999999999999</ele><time>2026-04-03T13:13:34.992Z</time></trkpt><trkpt lat="42.4425271" lon="12.719412"><ele>948.3999999999999</ele><time>2026-04-03T13:13:35.992Z</time></trkpt><trkpt lat="42.4426273" lon="12.7194855"><ele>949.6</ele><time>2026-04-03T13:13:37.991Z</time></trkpt><trkpt lat="42.4427349" lon="12.7195899"><ele>950.8</ele><time>2026-04-03T13:13:39.992Z</time></trkpt><trkpt lat="42.4427993" lon="12.7196503"><ele>952.0</ele><time>2026-04-03T13:13:40.992Z</time></trkpt><trkpt lat="42.4428695" lon="12.7197055"><ele>952.0</ele><time>2026-04-03T13:13:41.992Z</time></trkpt><trkpt lat="42.4429401" lon="12.7197521"><ele>952.0</ele><time>2026-04-03T13:13:42.992Z</time></trkpt><trkpt lat="42.4430049" lon="12.7197876"><ele>952.0</ele><time>2026-04-03T13:13:43.991Z</time></trkpt><trkpt lat="42.4430702" lon="12.7198137"><ele>952.0</ele><time>2026-04-03T13:13:44.992Z</time></trkpt><trkpt lat="42.443142" lon="12.7198455"><ele>952.0</ele><time>2026-04-03T13:13:45.991Z</time></trkpt><trkpt lat="42.4432105" lon="12.7198819"><ele>952.0</ele><time>2026-04-03T13:13:46.992Z</time></trkpt><trkpt lat="42.4432783" lon="12.7199157"><ele>952.0</ele><time>2026-04-03T13:13:47.992Z</time></trkpt><trkpt lat="42.4433433" lon="12.7199427"><ele>949.8333333333333</ele><time>2026-04-03T13:13:48.992Z</time></trkpt><trkpt lat="42.4434166" lon="12.7199694"><ele>947.6666666666666</ele><time>2026-04-03T13:13:49.991Z</time></trkpt><trkpt lat="42.4434986" lon="12.7199933"><ele>945.5</ele><time>2026-04-03T13:13:50.992Z</time></trkpt><trkpt lat="42.4435834" lon="12.7200091"><ele>943.3333333333333</ele><time>2026-04-03T13:13:51.992Z</time></trkpt><trkpt lat="42.4436562" lon="12.7200222"><ele>941.1666666666666</ele><time>2026-04-03T13:13:52.992Z</time></trkpt><trkpt lat="42.4437258" lon="12.7200367"><ele>939.0</ele><time>2026-04-03T13:13:53.991Z</time></trkpt><trkpt lat="42.4437939" lon="12.7200547"><ele>938.1666666666666</ele><time>2026-04-03T13:13:54.992Z</time></trkpt><trkpt lat="42.4438586" lon="12.7200804"><ele>937.3333333333333</ele><time>2026-04-03T13:13:55.992Z</time></trkpt><trkpt lat="42.443922" lon="12.72011"><ele>936.5</ele><time>2026-04-03T13:13:56.992Z</time></trkpt><trkpt lat="42.4439827" lon="12.7201429"><ele>935.6666666666666</ele><time>2026-04-03T13:13:57.992Z</time></trkpt><trkpt lat="42.4440922" lon="12.7201974"><ele>934.8333333333333</ele><time>2026-04-03T13:13:59.992Z</time></trkpt><trkpt lat="42.4441994" lon="12.7202165"><ele>934.0</ele><time>2026-04-03T13:14:01.992Z</time></trkpt><trkpt lat="42.4442928" lon="12.7202324"><ele>935.6</ele><time>2026-04-03T13:14:03.992Z</time></trkpt><trkpt lat="42.4443523" lon="12.7202637"><ele>937.2</ele><time>2026-04-03T13:14:05.991Z</time></trkpt><trkpt lat="42.4444234" lon="12.7203178"><ele>938.8000000000001</ele><time>2026-04-03T13:14:07.992Z</time></trkpt><trkpt lat="42.4445137" lon="12.7204239"><ele>940.4000000000001</ele><time>2026-04-03T13:14:09.991Z</time></trkpt><trkpt lat="42.444583" lon="12.7205268"><ele>942.0</ele><time>2026-04-03T13:14:11.992Z</time></trkpt><trkpt lat="42.4446581" lon="12.7206343"><ele>942.0</ele><time>2026-04-03T13:14:13.991Z</time></trkpt><trkpt lat="42.4447017" lon="12.7206997"><ele>942.0</ele><time>2026-04-03T13:14:14.992Z</time></trkpt><trkpt lat="42.4447425" lon="12.7207664"><ele>942.0</ele><time>2026-04-03T13:14:15.991Z</time></trkpt><trkpt lat="42.4447858" lon="12.7208301"><ele>942.0</ele><time>2026-04-03T13:14:16.991Z</time></trkpt><trkpt lat="42.4448304" lon="12.720891"><ele>942.0</ele><time>2026-04-03T13:14:17.992Z</time></trkpt><trkpt lat="42.4449205" lon="12.7209886"><ele>942.0</ele><time>2026-04-03T13:14:19.992Z</time></trkpt><trkpt lat="42.4450302" lon="12.7210353"><ele>942.0</ele><time>2026-04-03T13:14:21.991Z</time></trkpt><trkpt lat="42.4451344" lon="12.7210506"><ele>942.0</ele><time>2026-04-03T13:14:23.992Z</time></trkpt><trkpt lat="42.4452472" lon="12.7210284"><ele>942.0</ele><time>2026-04-03T13:14:25.991Z</time></trkpt><trkpt lat="42.4453444" lon="12.720995"><ele>942.0</ele><time>2026-04-03T13:14:27.992Z</time></trkpt><trkpt lat="42.4454313" lon="12.7209542"><ele>942.0</ele><time>2026-04-03T13:14:29.992Z</time></trkpt><trkpt lat="42.44551" lon="12.720873"><ele>941.0</ele><time>2026-04-03T13:14:31.992Z</time></trkpt><trkpt lat="42.4455805" lon="12.720756"><ele>940.0</ele><time>2026-04-03T13:14:33.991Z</time></trkpt><trkpt lat="42.4456632" lon="12.7206708"><ele>939.0</ele><time>2026-04-03T13:14:35.991Z</time></trkpt><trkpt lat="42.4457377" lon="12.7206272"><ele>938.0</ele><time>2026-04-03T13:14:37.992Z</time></trkpt><trkpt lat="42.4458144" lon="12.7206252"><ele>937.0</ele><time>2026-04-03T13:14:39.992Z</time></trkpt><trkpt lat="42.4458869" lon="12.7206572"><ele>936.0</ele><time>2026-04-03T13:14:41.991Z</time></trkpt><trkpt lat="42.4459496" lon="12.7207126"><ele>936.0</ele><time>2026-04-03T13:14:43.99Z</time></trkpt><trkpt lat="42.4459991" lon="12.7207844"><ele>936.0</ele><time>2026-04-03T13:14:46.991Z</time></trkpt><trkpt lat="42.4460515" lon="12.7208623"><ele>936.0</ele><time>2026-04-03T13:14:49.99Z</time></trkpt><trkpt lat="42.4461291" lon="12.7208541"><ele>936.0</ele><time>2026-04-03T13:14:52.991Z</time></trkpt><trkpt lat="42.4461897" lon="12.7207444"><ele>936.0</ele><time>2026-04-03T13:14:54.991Z</time></trkpt><trkpt lat="42.4462162" lon="12.7206635"><ele>936.0</ele><time>2026-04-03T13:14:55.991Z</time></trkpt><trkpt lat="42.4462436" lon="12.7205784"><ele>936.0</ele><time>2026-04-03T13:14:56.991Z</time></trkpt><trkpt lat="42.4462753" lon="12.7204907"><ele>936.0000000000001</ele><time>2026-04-03T13:14:57.991Z</time></trkpt><trkpt lat="42.4463099" lon="12.7204009"><ele>936.0</ele><time>2026-04-03T13:14:58.99Z</time></trkpt><trkpt lat="42.4463447" lon="12.7203126"><ele>936.0</ele><time>2026-04-03T13:14:59.991Z</time></trkpt><trkpt lat="42.4463817" lon="12.7202313"><ele>936.0000000000001</ele><time>2026-04-03T13:15:00.991Z</time></trkpt><trkpt lat="42.446416" lon="12.7201564"><ele>936.0</ele><time>2026-04-03T13:15:01.991Z</time></trkpt><trkpt lat="42.446459" lon="12.720094"><ele>936.0</ele><time>2026-04-03T13:15:02.991Z</time></trkpt><trkpt lat="42.4465546" lon="12.7200002"><ele>934.0</ele><time>2026-04-03T13:15:04.991Z</time></trkpt><trkpt lat="42.4466442" lon="12.719929"><ele>931.9999999999999</ele><time>2026-04-03T13:15:06.991Z</time></trkpt><trkpt lat="42.4467334" lon="12.7198674"><ele>929.9999999999999</ele><time>2026-04-03T13:15:08.991Z</time></trkpt><trkpt lat="42.4468467" lon="12.7197756"><ele>928.0</ele><time>2026-04-03T13:15:10.991Z</time></trkpt><trkpt lat="42.4469083" lon="12.7197201"><ele>926.0</ele><time>2026-04-03T13:15:11.991Z</time></trkpt><trkpt lat="42.4469697" lon="12.719671"><ele>926.0000000000001</ele><time>2026-04-03T13:15:12.991Z</time></trkpt><trkpt lat="42.4470361" lon="12.7196313"><ele>926.0</ele><time>2026-04-03T13:15:13.991Z</time></trkpt><trkpt lat="42.4471033" lon="12.7195976"><ele>926.0</ele><time>2026-04-03T13:15:14.991Z</time></trkpt><trkpt lat="42.4471761" lon="12.7195659"><ele>926.0</ele><time>2026-04-03T13:15:15.991Z</time></trkpt><trkpt lat="42.4472435" lon="12.7195392"><ele>926.0000000000001</ele><time>2026-04-03T13:15:16.991Z</time></trkpt><trkpt lat="42.4473556" lon="12.7194731"><ele>926.0</ele><time>2026-04-03T13:15:18.991Z</time></trkpt><trkpt lat="42.4474581" lon="12.7193927"><ele>926.5000000000001</ele><time>2026-04-03T13:15:20.991Z</time></trkpt><trkpt lat="42.447564" lon="12.7192945"><ele>927.0</ele><time>2026-04-03T13:15:22.99Z</time></trkpt><trkpt lat="42.4476196" lon="12.7192433"><ele>927.5</ele><time>2026-04-03T13:15:23.991Z</time></trkpt><trkpt lat="42.4476757" lon="12.7191786"><ele>928.0</ele><time>2026-04-03T13:15:24.99Z</time></trkpt><trkpt lat="42.4477382" lon="12.7190978"><ele>928.5000000000001</ele><time>2026-04-03T13:15:25.991Z</time></trkpt><trkpt lat="42.4477981" lon="12.7190157"><ele>929.0</ele><time>2026-04-03T13:15:26.991Z</time></trkpt><trkpt lat="42.4478565" lon="12.7189392"><ele>929.0000000000001</ele><time>2026-04-03T13:15:27.991Z</time></trkpt><trkpt lat="42.4479127" lon="12.7188693"><ele>929.0</ele><time>2026-04-03T13:15:28.991Z</time></trkpt><trkpt lat="42.4479613" lon="12.718809"><ele>929.0</ele><time>2026-04-03T13:15:29.991Z</time></trkpt><trkpt lat="42.4480539" lon="12.7187125"><ele>929.0</ele><time>2026-04-03T13:15:31.991Z</time></trkpt><trkpt lat="42.4481128" lon="12.7186704"><ele>929.0000000000001</ele><time>2026-04-03T13:15:32.991Z</time></trkpt><trkpt lat="42.4481734" lon="12.7186294"><ele>929.0</ele><time>2026-04-03T13:15:33.991Z</time></trkpt><trkpt lat="42.4482306" lon="12.7185889"><ele>929.2</ele><time>2026-04-03T13:15:34.99Z</time></trkpt><trkpt lat="42.4483448" lon="12.7185153"><ele>929.4000000000001</ele><time>2026-04-03T13:15:36.991Z</time></trkpt><trkpt lat="42.4484058" lon="12.7184872"><ele>929.6</ele><time>2026-04-03T13:15:37.991Z</time></trkpt><trkpt lat="42.448516" lon="12.7184178"><ele>929.8</ele><time>2026-04-03T13:15:39.991Z</time></trkpt><trkpt lat="42.4485949" lon="12.7183371"><ele>930.0</ele><time>2026-04-03T13:15:41.991Z</time></trkpt><trkpt lat="42.448643" lon="12.7182451"><ele>930.0</ele><time>2026-04-03T13:15:44.991Z</time></trkpt><trkpt lat="42.4486724" lon="12.7181289"><ele>930.0</ele><time>2026-04-03T13:15:47.991Z</time></trkpt><trkpt lat="42.4486947" lon="12.7180354"><ele>930.0</ele><time>2026-04-03T13:15:49.991Z</time></trkpt><trkpt lat="42.4487192" lon="12.7179303"><ele>930.0</ele><time>2026-04-03T13:15:51.991Z</time></trkpt><trkpt lat="42.4487365" lon="12.7178338"><ele>930.0</ele><time>2026-04-03T13:15:53.991Z</time></trkpt><trkpt lat="42.4487473" lon="12.7177455"><ele>930.0</ele><time>2026-04-03T13:15:55.991Z</time></trkpt><trkpt lat="42.4487637" lon="12.7176491"><ele>931.1666666666666</ele><time>2026-04-03T13:15:57.991Z</time></trkpt><trkpt lat="42.4487757" lon="12.7175436"><ele>932.3333333333333</ele><time>2026-04-03T13:15:59.991Z</time></trkpt><trkpt lat="42.4487994" lon="12.7174459"><ele>933.5</ele><time>2026-04-03T13:16:01.991Z</time></trkpt><trkpt lat="42.4488193" lon="12.7173645"><ele>934.6666666666666</ele><time>2026-04-03T13:16:03.991Z</time></trkpt><trkpt lat="42.4488362" lon="12.7172735"><ele>935.8333333333333</ele><time>2026-04-03T13:16:05.991Z</time></trkpt><trkpt lat="42.4488632" lon="12.717154"><ele>937.0</ele><time>2026-04-03T13:16:08.991Z</time></trkpt><trkpt lat="42.4488884" lon="12.7170438"><ele>936.9999999999999</ele><time>2026-04-03T13:16:11.991Z</time></trkpt><trkpt lat="42.4489068" lon="12.7169567"><ele>937.0</ele><time>2026-04-03T13:16:13.99Z</time></trkpt><trkpt lat="42.4489268" lon="12.7168657"><ele>937.0</ele><time>2026-04-03T13:16:15.943Z</time></trkpt><trkpt lat="42.448971" lon="12.7167613"><ele>937.0</ele><time>2026-04-03T13:16:18.991Z</time></trkpt><trkpt lat="42.4490007" lon="12.71665"><ele>936.9999999999999</ele><time>2026-04-03T13:16:21.995Z</time></trkpt><trkpt lat="42.4490081" lon="12.7165272"><ele>937.0</ele><time>2026-04-03T13:16:24.991Z</time></trkpt><trkpt lat="42.4490264" lon="12.7164306"><ele>934.8333333333333</ele><time>2026-04-03T13:16:26.991Z</time></trkpt><trkpt lat="42.4490508" lon="12.7163311"><ele>932.6666666666666</ele><time>2026-04-03T13:16:28.996Z</time></trkpt><trkpt lat="42.4490841" lon="12.7162308"><ele>930.5</ele><time>2026-04-03T13:16:31.003Z</time></trkpt><trkpt lat="42.449121" lon="12.7161352"><ele>928.3333333333333</ele><time>2026-04-03T13:16:33.011Z</time></trkpt><trkpt lat="42.4491646" lon="12.7160468"><ele>926.1666666666666</ele><time>2026-04-03T13:16:34.991Z</time></trkpt><trkpt lat="42.4492073" lon="12.7159646"><ele>924.0</ele><time>2026-04-03T13:16:36.98Z</time></trkpt><trkpt lat="42.4492524" lon="12.7158721"><ele>921.6</ele><time>2026-04-03T13:16:38.991Z</time></trkpt><trkpt lat="42.4493031" lon="12.7157585"><ele>919.2</ele><time>2026-04-03T13:16:40.991Z</time></trkpt><trkpt lat="42.4493567" lon="12.7156523"><ele>916.8000000000001</ele><time>2026-04-03T13:16:42.99Z</time></trkpt><trkpt lat="42.449421" lon="12.7155509"><ele>914.4000000000001</ele><time>2026-04-03T13:16:44.991Z</time></trkpt><trkpt lat="42.4494927" lon="12.7154603"><ele>912.0</ele><time>2026-04-03T13:16:46.991Z</time></trkpt><trkpt lat="42.4495629" lon="12.7153603"><ele>912.0</ele><time>2026-04-03T13:16:48.991Z</time></trkpt><trkpt lat="42.449625" lon="12.7152549"><ele>912.0</ele><time>2026-04-03T13:16:50.991Z</time></trkpt><trkpt lat="42.4496705" lon="12.7151376"><ele>912.0</ele><time>2026-04-03T13:16:52.991Z</time></trkpt><trkpt lat="42.4497039" lon="12.7150126"><ele>912.0</ele><time>2026-04-03T13:16:54.991Z</time></trkpt><trkpt lat="42.4497263" lon="12.7148866"><ele>912.0</ele><time>2026-04-03T13:16:56.99Z</time></trkpt><trkpt lat="42.449745" lon="12.7147571"><ele>911.2</ele><time>2026-04-03T13:16:58.991Z</time></trkpt><trkpt lat="42.4497757" lon="12.7146563"><ele>910.4000000000001</ele><time>2026-04-03T13:17:00.991Z</time></trkpt><trkpt lat="42.4498027" lon="12.7145648"><ele>909.5999999999999</ele><time>2026-04-03T13:17:02.991Z</time></trkpt><trkpt lat="42.4498428" lon="12.7144783"><ele>908.8</ele><time>2026-04-03T13:17:04.991Z</time></trkpt><trkpt lat="42.4499077" lon="12.7143932"><ele>908.0</ele><time>2026-04-03T13:17:06.99Z</time></trkpt><trkpt lat="42.4500255" lon="12.7143072"><ele>906.2</ele><time>2026-04-03T13:17:08.991Z</time></trkpt><trkpt lat="42.4500901" lon="12.714262"><ele>904.4</ele><time>2026-04-03T13:17:09.991Z</time></trkpt><trkpt lat="42.450152" lon="12.714233"><ele>902.6000000000001</ele><time>2026-04-03T13:17:10.991Z</time></trkpt><trkpt lat="42.450272" lon="12.7142109"><ele>900.8000000000001</ele><time>2026-04-03T13:17:12.991Z</time></trkpt><trkpt lat="42.4503827" lon="12.7142011"><ele>899.0</ele><time>2026-04-03T13:17:14.991Z</time></trkpt><trkpt lat="42.4504947" lon="12.7141841"><ele>899.0000000000001</ele><time>2026-04-03T13:17:16.991Z</time></trkpt><trkpt lat="42.4506138" lon="12.7141573"><ele>899.0</ele><time>2026-04-03T13:17:18.991Z</time></trkpt><trkpt lat="42.4506808" lon="12.7141447"><ele>899.0</ele><time>2026-04-03T13:17:19.991Z</time></trkpt><trkpt lat="42.4507523" lon="12.7141302"><ele>899.0</ele><time>2026-04-03T13:17:20.99Z</time></trkpt><trkpt lat="42.4508252" lon="12.7141118"><ele>899.0000000000001</ele><time>2026-04-03T13:17:21.991Z</time></trkpt><trkpt lat="42.4508979" lon="12.7140926"><ele>899.0</ele><time>2026-04-03T13:17:22.991Z</time></trkpt><trkpt lat="42.4509663" lon="12.7140725"><ele>898.9999999999999</ele><time>2026-04-03T13:17:23.991Z</time></trkpt><trkpt lat="42.4510347" lon="12.7140516"><ele>899.0</ele><time>2026-04-03T13:17:24.991Z</time></trkpt><trkpt lat="42.4511058" lon="12.7140278"><ele>898.9999999999999</ele><time>2026-04-03T13:17:25.991Z</time></trkpt><trkpt lat="42.4511718" lon="12.7140062"><ele>898.9999999999999</ele><time>2026-04-03T13:17:26.991Z</time></trkpt><trkpt lat="42.4512374" lon="12.7139862"><ele>899.0</ele><time>2026-04-03T13:17:27.991Z</time></trkpt><trkpt lat="42.4513015" lon="12.7139623"><ele>898.9999999999999</ele><time>2026-04-03T13:17:28.991Z</time></trkpt><trkpt lat="42.4513707" lon="12.713941"><ele>898.9999999999999</ele><time>2026-04-03T13:17:29.991Z</time></trkpt><trkpt lat="42.4514455" lon="12.7139425"><ele>900.0000000000001</ele><time>2026-04-03T13:17:30.991Z</time></trkpt><trkpt lat="42.4515262" lon="12.7139572"><ele>901.0</ele><time>2026-04-03T13:17:31.991Z</time></trkpt><trkpt lat="42.4516065" lon="12.7139724"><ele>902.0</ele><time>2026-04-03T13:17:32.991Z</time></trkpt><trkpt lat="42.4516882" lon="12.7139763"><ele>903.0</ele><time>2026-04-03T13:17:33.991Z</time></trkpt><trkpt lat="42.4517756" lon="12.7139614"><ele>904.0000000000001</ele><time>2026-04-03T13:17:34.991Z</time></trkpt><trkpt lat="42.4518677" lon="12.7139339"><ele>905.0</ele><time>2026-04-03T13:17:35.991Z</time></trkpt><trkpt lat="42.4519537" lon="12.7139069"><ele>905.0000000000001</ele><time>2026-04-03T13:17:36.991Z</time></trkpt><trkpt lat="42.4520351" lon="12.7138772"><ele>905.0</ele><time>2026-04-03T13:17:37.99Z</time></trkpt><trkpt lat="42.4521145" lon="12.7138457"><ele>905.0</ele><time>2026-04-03T13:17:38.991Z</time></trkpt><trkpt lat="42.4521894" lon="12.7138082"><ele>905.0</ele><time>2026-04-03T13:17:39.991Z</time></trkpt><trkpt lat="42.4522667" lon="12.7137716"><ele>905.0000000000001</ele><time>2026-04-03T13:17:40.991Z</time></trkpt><trkpt lat="42.4523449" lon="12.7137308"><ele>905.0</ele><time>2026-04-03T13:17:41.991Z</time></trkpt><trkpt lat="42.452425" lon="12.7136866"><ele>904.4285714285713</ele><time>2026-04-03T13:17:42.99Z</time></trkpt><trkpt lat="42.4524944" lon="12.7136416"><ele>903.8571428571428</ele><time>2026-04-03T13:17:43.99Z</time></trkpt><trkpt lat="42.4525584" lon="12.7135917"><ele>903.2857142857142</ele><time>2026-04-03T13:17:44.991Z</time></trkpt><trkpt lat="42.4526136" lon="12.7135343"><ele>902.7142857142858</ele><time>2026-04-03T13:17:45.991Z</time></trkpt><trkpt lat="42.4526673" lon="12.7134708"><ele>902.1428571428572</ele><time>2026-04-03T13:17:46.991Z</time></trkpt><trkpt lat="42.4527136" lon="12.7134"><ele>901.5714285714287</ele><time>2026-04-03T13:17:47.991Z</time></trkpt><trkpt lat="42.4527516" lon="12.7133245"><ele>901.0</ele><time>2026-04-03T13:17:48.991Z</time></trkpt><trkpt lat="42.4528002" lon="12.7131631"><ele>900.9999999999999</ele><time>2026-04-03T13:17:50.991Z</time></trkpt><trkpt lat="42.4528328" lon="12.7130834"><ele>901.0</ele><time>2026-04-03T13:17:51.991Z</time></trkpt><trkpt lat="42.4529136" lon="12.7129554"><ele>901.0</ele><time>2026-04-03T13:17:53.99Z</time></trkpt><trkpt lat="42.4529669" lon="12.7129031"><ele>901.0</ele><time>2026-04-03T13:17:54.991Z</time></trkpt><trkpt lat="42.4530275" lon="12.7128493"><ele>900.9999999999999</ele><time>2026-04-03T13:17:55.991Z</time></trkpt><trkpt lat="42.453089" lon="12.7127931"><ele>901.0</ele><time>2026-04-03T13:17:56.991Z</time></trkpt><trkpt lat="42.4531519" lon="12.7127387"><ele>901.5714285714287</ele><time>2026-04-03T13:17:57.99Z</time></trkpt><trkpt lat="42.453217" lon="12.712683"><ele>902.1428571428572</ele><time>2026-04-03T13:17:58.991Z</time></trkpt><trkpt lat="42.4532873" lon="12.7126326"><ele>902.7142857142858</ele><time>2026-04-03T13:17:59.991Z</time></trkpt><trkpt lat="42.4533517" lon="12.7125785"><ele>903.2857142857142</ele><time>2026-04-03T13:18:00.99Z</time></trkpt><trkpt lat="42.4534099" lon="12.7125258"><ele>903.8571428571428</ele><time>2026-04-03T13:18:01.991Z</time></trkpt><trkpt lat="42.4534646" lon="12.7124721"><ele>904.4285714285713</ele><time>2026-04-03T13:18:02.991Z</time></trkpt><trkpt lat="42.4535239" lon="12.7124182"><ele>905.0</ele><time>2026-04-03T13:18:03.991Z</time></trkpt><trkpt lat="42.4535803" lon="12.7123526"><ele>905.0000000000001</ele><time>2026-04-03T13:18:04.991Z</time></trkpt><trkpt lat="42.4536341" lon="12.7122855"><ele>905.0</ele><time>2026-04-03T13:18:05.991Z</time></trkpt><trkpt lat="42.4536879" lon="12.7122219"><ele>905.0</ele><time>2026-04-03T13:18:06.991Z</time></trkpt><trkpt lat="42.4537427" lon="12.7121617"><ele>905.0</ele><time>2026-04-03T13:18:07.991Z</time></trkpt><trkpt lat="42.4537959" lon="12.7121022"><ele>905.0000000000001</ele><time>2026-04-03T13:18:08.991Z</time></trkpt><trkpt lat="42.4538994" lon="12.7119923"><ele>905.0</ele><time>2026-04-03T13:18:10.991Z</time></trkpt><trkpt lat="42.4539535" lon="12.7119323"><ele>904.0000000000001</ele><time>2026-04-03T13:18:11.991Z</time></trkpt><trkpt lat="42.454009" lon="12.7118811"><ele>903.0</ele><time>2026-04-03T13:18:12.991Z</time></trkpt><trkpt lat="42.454066" lon="12.7118228"><ele>902.0</ele><time>2026-04-03T13:18:13.99Z</time></trkpt><trkpt lat="42.4541194" lon="12.7117563"><ele>901.0</ele><time>2026-04-03T13:18:14.991Z</time></trkpt><trkpt lat="42.4541696" lon="12.7116998"><ele>900.0000000000001</ele><time>2026-04-03T13:18:15.991Z</time></trkpt><trkpt lat="42.454267" lon="12.7115898"><ele>899.0</ele><time>2026-04-03T13:18:17.991Z</time></trkpt><trkpt lat="42.4543562" lon="12.7114871"><ele>899.0</ele><time>2026-04-03T13:18:19.991Z</time></trkpt><trkpt lat="42.4544375" lon="12.7113958"><ele>899.0000000000001</ele><time>2026-04-03T13:18:21.99Z</time></trkpt><trkpt lat="42.4545239" lon="12.7113209"><ele>899.0000000000001</ele><time>2026-04-03T13:18:23.991Z</time></trkpt><trkpt lat="42.4546134" lon="12.7112579"><ele>899.0</ele><time>2026-04-03T13:18:25.99Z</time></trkpt><trkpt lat="42.4547004" lon="12.711169"><ele>899.0</ele><time>2026-04-03T13:18:27.991Z</time></trkpt><trkpt lat="42.4547726" lon="12.7110419"><ele>897.5000000000001</ele><time>2026-04-03T13:18:29.99Z</time></trkpt><trkpt lat="42.4548077" lon="12.7108737"><ele>896.0</ele><time>2026-04-03T13:18:31.99Z</time></trkpt><trkpt lat="42.4548236" lon="12.710778"><ele>894.5</ele><time>2026-04-03T13:18:32.991Z</time></trkpt><trkpt lat="42.4548364" lon="12.7106818"><ele>893.0</ele><time>2026-04-03T13:18:33.991Z</time></trkpt><trkpt lat="42.4548482" lon="12.7105919"><ele>891.5000000000001</ele><time>2026-04-03T13:18:34.991Z</time></trkpt><trkpt lat="42.4548573" lon="12.7105023"><ele>890.0</ele><time>2026-04-03T13:18:35.991Z</time></trkpt><trkpt lat="42.454864" lon="12.7104136"><ele>890.0</ele><time>2026-04-03T13:18:36.99Z</time></trkpt><trkpt lat="42.4548822" lon="12.7102606"><ele>890.0</ele><time>2026-04-03T13:18:38.99Z</time></trkpt><trkpt lat="42.4549387" lon="12.7101077"><ele>890.0</ele><time>2026-04-03T13:18:40.99Z</time></trkpt><trkpt lat="42.4549826" lon="12.7100292"><ele>890.0</ele><time>2026-04-03T13:18:41.991Z</time></trkpt><trkpt lat="42.4550299" lon="12.7099542"><ele>890.0</ele><time>2026-04-03T13:18:42.99Z</time></trkpt><trkpt lat="42.4550784" lon="12.7098827"><ele>889.1666666666667</ele><time>2026-04-03T13:18:43.991Z</time></trkpt><trkpt lat="42.4551287" lon="12.7098082"><ele>888.3333333333334</ele><time>2026-04-03T13:18:44.99Z</time></trkpt><trkpt lat="42.4551751" lon="12.7097249"><ele>887.5</ele><time>2026-04-03T13:18:45.991Z</time></trkpt><trkpt lat="42.4552121" lon="12.7096334"><ele>886.6666666666667</ele><time>2026-04-03T13:18:46.991Z</time></trkpt><trkpt lat="42.4552398" lon="12.7095355"><ele>885.8333333333334</ele><time>2026-04-03T13:18:47.991Z</time></trkpt><trkpt lat="42.455266" lon="12.7094356"><ele>885.0</ele><time>2026-04-03T13:18:48.991Z</time></trkpt><trkpt lat="42.4552934" lon="12.7093361"><ele>884.8333333333334</ele><time>2026-04-03T13:18:49.991Z</time></trkpt><trkpt lat="42.4553196" lon="12.7092388"><ele>884.6666666666667</ele><time>2026-04-03T13:18:50.991Z</time></trkpt><trkpt lat="42.4553478" lon="12.7091432"><ele>884.5</ele><time>2026-04-03T13:18:51.991Z</time></trkpt><trkpt lat="42.455381" lon="12.7090532"><ele>884.3333333333334</ele><time>2026-04-03T13:18:52.99Z</time></trkpt><trkpt lat="42.4554232" lon="12.7089683"><ele>884.1666666666667</ele><time>2026-04-03T13:18:53.991Z</time></trkpt><trkpt lat="42.4554767" lon="12.7088869"><ele>884.0</ele><time>2026-04-03T13:18:54.99Z</time></trkpt><trkpt lat="42.4555385" lon="12.7088053"><ele>883.0000000000001</ele><time>2026-04-03T13:18:55.991Z</time></trkpt><trkpt lat="42.4555986" lon="12.7087195"><ele>882.0</ele><time>2026-04-03T13:18:56.991Z</time></trkpt><trkpt lat="42.4556576" lon="12.7086335"><ele>881.0</ele><time>2026-04-03T13:18:57.991Z</time></trkpt><trkpt lat="42.4557176" lon="12.708547"><ele>880.0</ele><time>2026-04-03T13:18:58.99Z</time></trkpt><trkpt lat="42.4557763" lon="12.7084594"><ele>879.0000000000001</ele><time>2026-04-03T13:18:59.991Z</time></trkpt><trkpt lat="42.4558337" lon="12.7083737"><ele>878.0</ele><time>2026-04-03T13:19:00.991Z</time></trkpt><trkpt lat="42.4558938" lon="12.7082841"><ele>878.0</ele><time>2026-04-03T13:19:01.991Z</time></trkpt><trkpt lat="42.4559571" lon="12.7081923"><ele>878.0</ele><time>2026-04-03T13:19:02.991Z</time></trkpt><trkpt lat="42.4560195" lon="12.7080977"><ele>878.0</ele><time>2026-04-03T13:19:03.991Z</time></trkpt><trkpt lat="42.4560803" lon="12.7080076"><ele>878.0</ele><time>2026-04-03T13:19:04.991Z</time></trkpt><trkpt lat="42.4561413" lon="12.7079211"><ele>878.0</ele><time>2026-04-03T13:19:05.991Z</time></trkpt><trkpt lat="42.4562033" lon="12.7078355"><ele>878.0</ele><time>2026-04-03T13:19:06.991Z</time></trkpt><trkpt lat="42.4562679" lon="12.707748"><ele>878.0</ele><time>2026-04-03T13:19:07.991Z</time></trkpt><trkpt lat="42.4563323" lon="12.7076557"><ele>878.0</ele><time>2026-04-03T13:19:08.991Z</time></trkpt><trkpt lat="42.4563934" lon="12.7075611"><ele>878.0</ele><time>2026-04-03T13:19:09.991Z</time></trkpt><trkpt lat="42.4564509" lon="12.7074625"><ele>878.0</ele><time>2026-04-03T13:19:10.991Z</time></trkpt><trkpt lat="42.4565089" lon="12.707366"><ele>877.4</ele><time>2026-04-03T13:19:11.991Z</time></trkpt><trkpt lat="42.456566" lon="12.7072694"><ele>876.8</ele><time>2026-04-03T13:19:12.991Z</time></trkpt><trkpt lat="42.456626" lon="12.7071723"><ele>876.2</ele><time>2026-04-03T13:19:13.99Z</time></trkpt><trkpt lat="42.4566831" lon="12.7070759"><ele>875.6</ele><time>2026-04-03T13:19:14.991Z</time></trkpt><trkpt lat="42.4567392" lon="12.7069816"><ele>875.0</ele><time>2026-04-03T13:19:15.991Z</time></trkpt><trkpt lat="42.4567941" lon="12.7068878"><ele>874.8571428571429</ele><time>2026-04-03T13:19:16.991Z</time></trkpt><trkpt lat="42.4568519" lon="12.7067975"><ele>874.7142857142858</ele><time>2026-04-03T13:19:17.991Z</time></trkpt><trkpt lat="42.456901" lon="12.7067155"><ele>874.5714285714286</ele><time>2026-04-03T13:19:18.991Z</time></trkpt><trkpt lat="42.4569438" lon="12.7066406"><ele>874.4285714285714</ele><time>2026-04-03T13:19:19.991Z</time></trkpt><trkpt lat="42.4569779" lon="12.7065603"><ele>874.2857142857143</ele><time>2026-04-03T13:19:20.99Z</time></trkpt><trkpt lat="42.4569973" lon="12.7064709"><ele>874.1428571428571</ele><time>2026-04-03T13:19:21.991Z</time></trkpt><trkpt lat="42.4570043" lon="12.7063788"><ele>874.0</ele><time>2026-04-03T13:19:22.991Z</time></trkpt><trkpt lat="42.456998" lon="12.7062804"><ele>873.9999999999999</ele><time>2026-04-03T13:19:23.991Z</time></trkpt><trkpt lat="42.4569837" lon="12.7061842"><ele>874.0</ele><time>2026-04-03T13:19:24.991Z</time></trkpt><trkpt lat="42.4569653" lon="12.7060854"><ele>874.0</ele><time>2026-04-03T13:19:25.991Z</time></trkpt><trkpt lat="42.4569468" lon="12.705978"><ele>874.0</ele><time>2026-04-03T13:19:26.99Z</time></trkpt><trkpt lat="42.4569304" lon="12.7058677"><ele>873.9999999999999</ele><time>2026-04-03T13:19:27.991Z</time></trkpt><trkpt lat="42.4569218" lon="12.7057698"><ele>874.0</ele><time>2026-04-03T13:19:28.991Z</time></trkpt><trkpt lat="42.456908" lon="12.7056094"><ele>873.8333333333333</ele><time>2026-04-03T13:19:30.991Z</time></trkpt><trkpt lat="42.4568308" lon="12.7054942"><ele>873.6666666666666</ele><time>2026-04-03T13:19:32.991Z</time></trkpt><trkpt lat="42.4567691" lon="12.7054543"><ele>873.5</ele><time>2026-04-03T13:19:33.991Z</time></trkpt><trkpt lat="42.4566962" lon="12.7054177"><ele>873.3333333333333</ele><time>2026-04-03T13:19:34.991Z</time></trkpt><trkpt lat="42.456617" lon="12.7053843"><ele>873.1666666666666</ele><time>2026-04-03T13:19:35.99Z</time></trkpt><trkpt lat="42.4565408" lon="12.7053515"><ele>873.0</ele><time>2026-04-03T13:19:36.99Z</time></trkpt><trkpt lat="42.456473" lon="12.7053133"><ele>872.9999999999999</ele><time>2026-04-03T13:19:37.99Z</time></trkpt><trkpt lat="42.4564087" lon="12.7052715"><ele>873.0</ele><time>2026-04-03T13:19:38.99Z</time></trkpt><trkpt lat="42.4563448" lon="12.7052267"><ele>873.0</ele><time>2026-04-03T13:19:39.99Z</time></trkpt><trkpt lat="42.4562863" lon="12.7051772"><ele>873.0</ele><time>2026-04-03T13:19:40.989Z</time></trkpt><trkpt lat="42.4562324" lon="12.7051242"><ele>873.0</ele><time>2026-04-03T13:19:41.99Z</time></trkpt><trkpt lat="42.456182" lon="12.7050666"><ele>872.9999999999999</ele><time>2026-04-03T13:19:42.99Z</time></trkpt><trkpt lat="42.4561277" lon="12.7050093"><ele>873.0</ele><time>2026-04-03T13:19:43.99Z</time></trkpt><trkpt lat="42.4560699" lon="12.7049512"><ele>872.6666666666666</ele><time>2026-04-03T13:19:44.99Z</time></trkpt><trkpt lat="42.4560124" lon="12.704893"><ele>872.3333333333333</ele><time>2026-04-03T13:19:45.99Z</time></trkpt><trkpt lat="42.4559581" lon="12.7048389"><ele>872.0</ele><time>2026-04-03T13:19:46.99Z</time></trkpt><trkpt lat="42.4559042" lon="12.7047853"><ele>871.6666666666666</ele><time>2026-04-03T13:19:47.99Z</time></trkpt><trkpt lat="42.4558495" lon="12.7047315"><ele>871.3333333333333</ele><time>2026-04-03T13:19:48.99Z</time></trkpt><trkpt lat="42.4557942" lon="12.7046828"><ele>871.0</ele><time>2026-04-03T13:19:49.99Z</time></trkpt><trkpt lat="42.4556849" lon="12.704606"><ele>870.9999999999999</ele><time>2026-04-03T13:19:51.99Z</time></trkpt><trkpt lat="42.4555591" lon="12.7046206"><ele>871.0</ele><time>2026-04-03T13:19:53.99Z</time></trkpt><trkpt lat="42.4554948" lon="12.7046634"><ele>871.0</ele><time>2026-04-03T13:19:54.99Z</time></trkpt><trkpt lat="42.4554306" lon="12.704717"><ele>871.0</ele><time>2026-04-03T13:19:55.99Z</time></trkpt><trkpt lat="42.4553681" lon="12.7047741"><ele>870.9999999999999</ele><time>2026-04-03T13:19:56.99Z</time></trkpt><trkpt lat="42.4553091" lon="12.7048216"><ele>871.0</ele><time>2026-04-03T13:19:57.989Z</time></trkpt><trkpt lat="42.4552466" lon="12.7048502"><ele>870.3333333333333</ele><time>2026-04-03T13:19:58.99Z</time></trkpt><trkpt lat="42.4551737" lon="12.7048631"><ele>869.6666666666666</ele><time>2026-04-03T13:19:59.99Z</time></trkpt><trkpt lat="42.4550961" lon="12.7048578"><ele>869.0</ele><time>2026-04-03T13:20:00.99Z</time></trkpt><trkpt lat="42.4550113" lon="12.7048328"><ele>868.3333333333333</ele><time>2026-04-03T13:20:01.99Z</time></trkpt><trkpt lat="42.454925" lon="12.7047962"><ele>867.6666666666666</ele><time>2026-04-03T13:20:02.99Z</time></trkpt><trkpt lat="42.4548432" lon="12.7047595"><ele>867.0</ele><time>2026-04-03T13:20:03.99Z</time></trkpt><trkpt lat="42.4547608" lon="12.704728"><ele>867.0</ele><time>2026-04-03T13:20:04.99Z</time></trkpt><trkpt lat="42.4546782" lon="12.7046961"><ele>867.0</ele><time>2026-04-03T13:20:05.99Z</time></trkpt><trkpt lat="42.4545958" lon="12.7046584"><ele>867.0</ele><time>2026-04-03T13:20:06.99Z</time></trkpt><trkpt lat="42.4545141" lon="12.7046168"><ele>867.0</ele><time>2026-04-03T13:20:07.99Z</time></trkpt><trkpt lat="42.4544387" lon="12.7045654"><ele>867.0</ele><time>2026-04-03T13:20:08.99Z</time></trkpt><trkpt lat="42.4543647" lon="12.7045125"><ele>867.0</ele><time>2026-04-03T13:20:09.99Z</time></trkpt><trkpt lat="42.4542866" lon="12.7044638"><ele>865.0</ele><time>2026-04-03T13:20:10.989Z</time></trkpt><trkpt lat="42.4542032" lon="12.7044078"><ele>863.0</ele><time>2026-04-03T13:20:11.989Z</time></trkpt><trkpt lat="42.4541136" lon="12.7043583"><ele>861.0</ele><time>2026-04-03T13:20:12.99Z</time></trkpt><trkpt lat="42.4540209" lon="12.7043173"><ele>859.0</ele><time>2026-04-03T13:20:13.99Z</time></trkpt><trkpt lat="42.453926" lon="12.7042802"><ele>857.0</ele><time>2026-04-03T13:20:14.99Z</time></trkpt><trkpt lat="42.4538312" lon="12.7042535"><ele>857.6</ele><time>2026-04-03T13:20:15.99Z</time></trkpt><trkpt lat="42.4537397" lon="12.7042446"><ele>858.2</ele><time>2026-04-03T13:20:16.989Z</time></trkpt><trkpt lat="42.4536522" lon="12.7042313"><ele>858.8</ele><time>2026-04-03T13:20:17.99Z</time></trkpt><trkpt lat="42.4535605" lon="12.7041988"><ele>859.4</ele><time>2026-04-03T13:20:18.989Z</time></trkpt><trkpt lat="42.4534606" lon="12.7041611"><ele>860.0</ele><time>2026-04-03T13:20:19.99Z</time></trkpt><trkpt lat="42.4533608" lon="12.70413"><ele>860.0000000000001</ele><time>2026-04-03T13:20:20.989Z</time></trkpt><trkpt lat="42.4532633" lon="12.7040985"><ele>860.0</ele><time>2026-04-03T13:20:21.99Z</time></trkpt><trkpt lat="42.4531716" lon="12.7040576"><ele>860.0</ele><time>2026-04-03T13:20:22.99Z</time></trkpt><trkpt lat="42.4530878" lon="12.7040242"><ele>860.0</ele><time>2026-04-03T13:20:23.99Z</time></trkpt><trkpt lat="42.4530143" lon="12.7040027"><ele>860.0000000000001</ele><time>2026-04-03T13:20:24.99Z</time></trkpt><trkpt lat="42.4529429" lon="12.7039859"><ele>860.0</ele><time>2026-04-03T13:20:25.99Z</time></trkpt><trkpt lat="42.4528705" lon="12.7039724"><ele>861.0000000000001</ele><time>2026-04-03T13:20:26.99Z</time></trkpt><trkpt lat="42.4527966" lon="12.7039582"><ele>862.0</ele><time>2026-04-03T13:20:27.99Z</time></trkpt><trkpt lat="42.4527273" lon="12.7039333"><ele>863.0</ele><time>2026-04-03T13:20:28.989Z</time></trkpt><trkpt lat="42.4526649" lon="12.7039143"><ele>864.0</ele><time>2026-04-03T13:20:29.99Z</time></trkpt><trkpt lat="42.4525466" lon="12.703888"><ele>865.0000000000001</ele><time>2026-04-03T13:20:31.99Z</time></trkpt><trkpt lat="42.4524306" lon="12.7038638"><ele>866.0</ele><time>2026-04-03T13:20:33.99Z</time></trkpt><trkpt lat="42.4523205" lon="12.7037899"><ele>866.0000000000001</ele><time>2026-04-03T13:20:35.99Z</time></trkpt><trkpt lat="42.45227" lon="12.7037388"><ele>866.0</ele><time>2026-04-03T13:20:36.989Z</time></trkpt><trkpt lat="42.4521971" lon="12.7036129"><ele>866.0</ele><time>2026-04-03T13:20:38.99Z</time></trkpt><trkpt lat="42.4521653" lon="12.7035287"><ele>866.0</ele><time>2026-04-03T13:20:39.99Z</time></trkpt><trkpt lat="42.4521247" lon="12.7034403"><ele>866.0000000000001</ele><time>2026-04-03T13:20:40.989Z</time></trkpt><trkpt lat="42.4520798" lon="12.703354"><ele>866.0</ele><time>2026-04-03T13:20:41.99Z</time></trkpt><trkpt lat="42.4520282" lon="12.7032821"><ele>865.0000000000001</ele><time>2026-04-03T13:20:42.99Z</time></trkpt><trkpt lat="42.4519707" lon="12.7032149"><ele>864.0</ele><time>2026-04-03T13:20:43.99Z</time></trkpt><trkpt lat="42.4519073" lon="12.7031477"><ele>863.0</ele><time>2026-04-03T13:20:44.99Z</time></trkpt><trkpt lat="42.4518413" lon="12.7030873"><ele>862.0</ele><time>2026-04-03T13:20:45.989Z</time></trkpt><trkpt lat="42.45177" lon="12.7030321"><ele>861.0000000000001</ele><time>2026-04-03T13:20:46.99Z</time></trkpt><trkpt lat="42.4516982" lon="12.7029745"><ele>860.0</ele><time>2026-04-03T13:20:47.99Z</time></trkpt><trkpt lat="42.4516286" lon="12.7029153"><ele>860.0000000000001</ele><time>2026-04-03T13:20:48.99Z</time></trkpt><trkpt lat="42.4515558" lon="12.702865"><ele>860.0</ele><time>2026-04-03T13:20:49.99Z</time></trkpt><trkpt lat="42.4514756" lon="12.7028194"><ele>860.0</ele><time>2026-04-03T13:20:50.99Z</time></trkpt><trkpt lat="42.4513924" lon="12.7027804"><ele>860.0</ele><time>2026-04-03T13:20:51.99Z</time></trkpt><trkpt lat="42.4513096" lon="12.7027483"><ele>860.0000000000001</ele><time>2026-04-03T13:20:52.99Z</time></trkpt><trkpt lat="42.4512245" lon="12.7027274"><ele>860.0</ele><time>2026-04-03T13:20:53.99Z</time></trkpt><trkpt lat="42.4511389" lon="12.7027132"><ele>858.1666666666667</ele><time>2026-04-03T13:20:54.99Z</time></trkpt><trkpt lat="42.4510565" lon="12.7026877"><ele>856.3333333333334</ele><time>2026-04-03T13:20:55.99Z</time></trkpt><trkpt lat="42.4509766" lon="12.7026635"><ele>854.5</ele><time>2026-04-03T13:20:56.99Z</time></trkpt><trkpt lat="42.4508985" lon="12.7026374"><ele>852.6666666666667</ele><time>2026-04-03T13:20:57.99Z</time></trkpt><trkpt lat="42.4508191" lon="12.7026054"><ele>850.8333333333334</ele><time>2026-04-03T13:20:58.99Z</time></trkpt><trkpt lat="42.4507388" lon="12.7025681"><ele>849.0</ele><time>2026-04-03T13:20:59.99Z</time></trkpt><trkpt lat="42.4506574" lon="12.7025275"><ele>849.0</ele><time>2026-04-03T13:21:00.989Z</time></trkpt><trkpt lat="42.4505735" lon="12.7024934"><ele>849.0</ele><time>2026-04-03T13:21:01.99Z</time></trkpt><trkpt lat="42.4504854" lon="12.7024634"><ele>849.0</ele><time>2026-04-03T13:21:02.99Z</time></trkpt><trkpt lat="42.4503953" lon="12.7024357"><ele>849.0</ele><time>2026-04-03T13:21:03.99Z</time></trkpt><trkpt lat="42.4503014" lon="12.7024152"><ele>849.0</ele><time>2026-04-03T13:21:04.99Z</time></trkpt><trkpt lat="42.450208" lon="12.7024001"><ele>849.3333333333334</ele><time>2026-04-03T13:21:05.99Z</time></trkpt><trkpt lat="42.4501214" lon="12.7023872"><ele>849.6666666666667</ele><time>2026-04-03T13:21:06.99Z</time></trkpt><trkpt lat="42.4500417" lon="12.7023766"><ele>850.0</ele><time>2026-04-03T13:21:07.989Z</time></trkpt><trkpt lat="42.4499594" lon="12.7023809"><ele>850.3333333333334</ele><time>2026-04-03T13:21:08.99Z</time></trkpt><trkpt lat="42.449872" lon="12.7024001"><ele>850.6666666666667</ele><time>2026-04-03T13:21:09.99Z</time></trkpt><trkpt lat="42.4497915" lon="12.7024282"><ele>851.0</ele><time>2026-04-03T13:21:10.99Z</time></trkpt><trkpt lat="42.4497154" lon="12.7024588"><ele>851.0000000000001</ele><time>2026-04-03T13:21:11.99Z</time></trkpt><trkpt lat="42.4496424" lon="12.7024868"><ele>851.0</ele><time>2026-04-03T13:21:12.99Z</time></trkpt><trkpt lat="42.4495724" lon="12.7025295"><ele>851.0</ele><time>2026-04-03T13:21:13.99Z</time></trkpt><trkpt lat="42.4494965" lon="12.7025803"><ele>851.0</ele><time>2026-04-03T13:21:14.99Z</time></trkpt><trkpt lat="42.4494159" lon="12.7026322"><ele>851.0000000000001</ele><time>2026-04-03T13:21:15.99Z</time></trkpt><trkpt lat="42.4493436" lon="12.7026758"><ele>851.0</ele><time>2026-04-03T13:21:16.99Z</time></trkpt><trkpt lat="42.4492698" lon="12.7027117"><ele>852.6666666666667</ele><time>2026-04-03T13:21:17.99Z</time></trkpt><trkpt lat="42.4491892" lon="12.7027494"><ele>854.3333333333334</ele><time>2026-04-03T13:21:18.99Z</time></trkpt><trkpt lat="42.4491142" lon="12.7028011"><ele>856.0</ele><time>2026-04-03T13:21:19.99Z</time></trkpt><trkpt lat="42.4490384" lon="12.7028451"><ele>857.6666666666667</ele><time>2026-04-03T13:21:20.99Z</time></trkpt><trkpt lat="42.4489584" lon="12.7028835"><ele>859.3333333333334</ele><time>2026-04-03T13:21:21.99Z</time></trkpt><trkpt lat="42.4488746" lon="12.7029269"><ele>861.0</ele><time>2026-04-03T13:21:22.99Z</time></trkpt><trkpt lat="42.4487948" lon="12.7029752"><ele>859.0</ele><time>2026-04-03T13:21:23.989Z</time></trkpt><trkpt lat="42.4487146" lon="12.7030237"><ele>857.0</ele><time>2026-04-03T13:21:24.99Z</time></trkpt><trkpt lat="42.4486423" lon="12.7030725"><ele>855.0</ele><time>2026-04-03T13:21:25.99Z</time></trkpt><trkpt lat="42.4485707" lon="12.7031166"><ele>853.0</ele><time>2026-04-03T13:21:26.99Z</time></trkpt><trkpt lat="42.4484938" lon="12.7031581"><ele>851.0</ele><time>2026-04-03T13:21:27.99Z</time></trkpt><trkpt lat="42.4484167" lon="12.7031807"><ele>849.0</ele><time>2026-04-03T13:21:28.99Z</time></trkpt><trkpt lat="42.4483345" lon="12.703209"><ele>849.0</ele><time>2026-04-03T13:21:29.989Z</time></trkpt><trkpt lat="42.4482518" lon="12.7032297"><ele>849.0</ele><time>2026-04-03T13:21:30.99Z</time></trkpt><trkpt lat="42.4481651" lon="12.7032465"><ele>849.0</ele><time>2026-04-03T13:21:31.99Z</time></trkpt><trkpt lat="42.4480831" lon="12.703258"><ele>849.0</ele><time>2026-04-03T13:21:32.99Z</time></trkpt><trkpt lat="42.4479981" lon="12.7032745"><ele>849.0</ele><time>2026-04-03T13:21:33.99Z</time></trkpt><trkpt lat="42.4479194" lon="12.7032993"><ele>849.0</ele><time>2026-04-03T13:21:34.99Z</time></trkpt><trkpt lat="42.4478375" lon="12.70334"><ele>849.2</ele><time>2026-04-03T13:21:35.99Z</time></trkpt><trkpt lat="42.4477547" lon="12.7033986"><ele>849.4000000000001</ele><time>2026-04-03T13:21:36.99Z</time></trkpt><trkpt lat="42.4476672" lon="12.7034734"><ele>849.6</ele><time>2026-04-03T13:21:37.989Z</time></trkpt><trkpt lat="42.4475798" lon="12.7035524"><ele>849.8</ele><time>2026-04-03T13:21:38.99Z</time></trkpt><trkpt lat="42.4475016" lon="12.7036159"><ele>850.0</ele><time>2026-04-03T13:21:39.99Z</time></trkpt><trkpt lat="42.4474214" lon="12.7036854"><ele>849.9999999999999</ele><time>2026-04-03T13:21:40.99Z</time></trkpt><trkpt lat="42.4473505" lon="12.7037522"><ele>850.0</ele><time>2026-04-03T13:21:41.99Z</time></trkpt><trkpt lat="42.4472835" lon="12.7038172"><ele>850.0</ele><time>2026-04-03T13:21:42.99Z</time></trkpt><trkpt lat="42.4472151" lon="12.7038743"><ele>850.0</ele><time>2026-04-03T13:21:43.99Z</time></trkpt><trkpt lat="42.4471464" lon="12.7039249"><ele>849.9999999999999</ele><time>2026-04-03T13:21:44.989Z</time></trkpt><trkpt lat="42.4470857" lon="12.7039678"><ele>850.0</ele><time>2026-04-03T13:21:45.99Z</time></trkpt><trkpt lat="42.4470251" lon="12.7039956"><ele>848.8333333333333</ele><time>2026-04-03T13:21:46.989Z</time></trkpt><trkpt lat="42.4469015" lon="12.7040364"><ele>847.6666666666666</ele><time>2026-04-03T13:21:48.99Z</time></trkpt><trkpt lat="42.4468377" lon="12.7040438"><ele>846.5</ele><time>2026-04-03T13:21:49.989Z</time></trkpt><trkpt lat="42.4467595" lon="12.7040226"><ele>845.3333333333333</ele><time>2026-04-03T13:21:50.99Z</time></trkpt><trkpt lat="42.446682" lon="12.7039922"><ele>844.1666666666666</ele><time>2026-04-03T13:21:51.988Z</time></trkpt><trkpt lat="42.4465917" lon="12.7039497"><ele>843.0</ele><time>2026-04-03T13:21:52.99Z</time></trkpt><trkpt lat="42.4464974" lon="12.7038971"><ele>843.0</ele><time>2026-04-03T13:21:53.99Z</time></trkpt><trkpt lat="42.4464004" lon="12.7038524"><ele>843.0</ele><time>2026-04-03T13:21:54.989Z</time></trkpt><trkpt lat="42.4463053" lon="12.7038062"><ele>843.0</ele><time>2026-04-03T13:21:55.99Z</time></trkpt><trkpt lat="42.446208" lon="12.7037744"><ele>843.0</ele><time>2026-04-03T13:21:56.989Z</time></trkpt><trkpt lat="42.4461148" lon="12.703748"><ele>843.0</ele><time>2026-04-03T13:21:57.99Z</time></trkpt><trkpt lat="42.4460207" lon="12.703739"><ele>843.5999999999999</ele><time>2026-04-03T13:21:58.99Z</time></trkpt><trkpt lat="42.4459164" lon="12.7037359"><ele>844.1999999999999</ele><time>2026-04-03T13:21:59.99Z</time></trkpt><trkpt lat="42.4458036" lon="12.7037368"><ele>844.8</ele><time>2026-04-03T13:22:00.99Z</time></trkpt><trkpt lat="42.4457007" lon="12.7037279"><ele>845.4</ele><time>2026-04-03T13:22:01.99Z</time></trkpt><trkpt lat="42.4455974" lon="12.7037226"><ele>846.0</ele><time>2026-04-03T13:22:02.99Z</time></trkpt><trkpt lat="42.4454954" lon="12.7037141"><ele>845.5999999999999</ele><time>2026-04-03T13:22:03.99Z</time></trkpt><trkpt lat="42.445391" lon="12.703701"><ele>845.2</ele><time>2026-04-03T13:22:04.99Z</time></trkpt><trkpt lat="42.4452894" lon="12.7036999"><ele>844.8</ele><time>2026-04-03T13:22:05.99Z</time></trkpt><trkpt lat="42.445189" lon="12.7037003"><ele>844.4000000000001</ele><time>2026-04-03T13:22:06.99Z</time></trkpt><trkpt lat="42.4450865" lon="12.7036992"><ele>844.0</ele><time>2026-04-03T13:22:07.989Z</time></trkpt><trkpt lat="42.444983" lon="12.7037065"><ele>844.0</ele><time>2026-04-03T13:22:08.99Z</time></trkpt><trkpt lat="42.4448803" lon="12.70372"><ele>844.0</ele><time>2026-04-03T13:22:09.99Z</time></trkpt><trkpt lat="42.444778" lon="12.7037361"><ele>844.0</ele><time>2026-04-03T13:22:10.99Z</time></trkpt><trkpt lat="42.4446815" lon="12.7037407"><ele>844.0</ele><time>2026-04-03T13:22:11.99Z</time></trkpt><trkpt lat="42.4445938" lon="12.7037532"><ele>844.0</ele><time>2026-04-03T13:22:12.989Z</time></trkpt><trkpt lat="42.4445144" lon="12.703771"><ele>843.8000000000001</ele><time>2026-04-03T13:22:13.99Z</time></trkpt><trkpt lat="42.4444442" lon="12.7037909"><ele>843.6</ele><time>2026-04-03T13:22:14.99Z</time></trkpt><trkpt lat="42.4443778" lon="12.7037998"><ele>843.4</ele><time>2026-04-03T13:22:15.99Z</time></trkpt><trkpt lat="42.4442675" lon="12.7037975"><ele>843.2</ele><time>2026-04-03T13:22:17.99Z</time></trkpt><trkpt lat="42.4441641" lon="12.7037696"><ele>843.0</ele><time>2026-04-03T13:22:19.99Z</time></trkpt><trkpt lat="42.4440565" lon="12.7037454"><ele>843.0</ele><time>2026-04-03T13:22:21.99Z</time></trkpt><trkpt lat="42.4439481" lon="12.7037349"><ele>843.0</ele><time>2026-04-03T13:22:23.99Z</time></trkpt><trkpt lat="42.4438544" lon="12.7037108"><ele>843.0</ele><time>2026-04-03T13:22:25.99Z</time></trkpt><trkpt lat="42.4437472" lon="12.7037046"><ele>843.0</ele><time>2026-04-03T13:22:27.99Z</time></trkpt><trkpt lat="42.4436764" lon="12.7037026"><ele>843.0</ele><time>2026-04-03T13:22:28.99Z</time></trkpt><trkpt lat="42.4435984" lon="12.7037063"><ele>842.1428571428571</ele><time>2026-04-03T13:22:29.99Z</time></trkpt><trkpt lat="42.443518" lon="12.7037103"><ele>841.2857142857142</ele><time>2026-04-03T13:22:30.99Z</time></trkpt><trkpt lat="42.4434402" lon="12.7037131"><ele>840.4285714285714</ele><time>2026-04-03T13:22:31.99Z</time></trkpt><trkpt lat="42.4433695" lon="12.7037051"><ele>839.5714285714286</ele><time>2026-04-03T13:22:32.989Z</time></trkpt><trkpt lat="42.4433005" lon="12.7037008"><ele>838.7142857142858</ele><time>2026-04-03T13:22:33.99Z</time></trkpt><trkpt lat="42.4432308" lon="12.7037137"><ele>837.8571428571429</ele><time>2026-04-03T13:22:34.989Z</time></trkpt><trkpt lat="42.4431648" lon="12.7037461"><ele>837.0</ele><time>2026-04-03T13:22:35.989Z</time></trkpt><trkpt lat="42.4431045" lon="12.703796"><ele>837.0</ele><time>2026-04-03T13:22:36.99Z</time></trkpt><trkpt lat="42.4430482" lon="12.7038613"><ele>837.0</ele><time>2026-04-03T13:22:37.989Z</time></trkpt><trkpt lat="42.4429929" lon="12.7039282"><ele>837.0</ele><time>2026-04-03T13:22:38.99Z</time></trkpt><trkpt lat="42.4429381" lon="12.7039918"><ele>837.0</ele><time>2026-04-03T13:22:39.989Z</time></trkpt><trkpt lat="42.4428813" lon="12.7040585"><ele>837.0</ele><time>2026-04-03T13:22:40.99Z</time></trkpt><trkpt lat="42.4428213" lon="12.7041149"><ele>837.0</ele><time>2026-04-03T13:22:41.989Z</time></trkpt><trkpt lat="42.4427571" lon="12.7041473"><ele>837.0</ele><time>2026-04-03T13:22:42.99Z</time></trkpt><trkpt lat="42.4426888" lon="12.7041639"><ele>836.0</ele><time>2026-04-03T13:22:43.99Z</time></trkpt><trkpt lat="42.4426106" lon="12.7041617"><ele>835.0</ele><time>2026-04-03T13:22:44.99Z</time></trkpt><trkpt lat="42.4425285" lon="12.7041481"><ele>834.0</ele><time>2026-04-03T13:22:45.99Z</time></trkpt><trkpt lat="42.4424502" lon="12.7041238"><ele>833.0</ele><time>2026-04-03T13:22:46.99Z</time></trkpt><trkpt lat="42.442373" lon="12.7041031"><ele>832.0</ele><time>2026-04-03T13:22:47.989Z</time></trkpt><trkpt lat="42.4423001" lon="12.7040779"><ele>831.0</ele><time>2026-04-03T13:22:48.99Z</time></trkpt><trkpt lat="42.4422269" lon="12.7040523"><ele>831.0</ele><time>2026-04-03T13:22:49.99Z</time></trkpt><trkpt lat="42.4421568" lon="12.7040272"><ele>831.0</ele><time>2026-04-03T13:22:50.99Z</time></trkpt><trkpt lat="42.4420918" lon="12.7040098"><ele>831.0</ele><time>2026-04-03T13:22:51.99Z</time></trkpt><trkpt lat="42.441982" lon="12.7039733"><ele>831.0</ele><time>2026-04-03T13:22:53.989Z</time></trkpt><trkpt lat="42.4418777" lon="12.7039657"><ele>831.0</ele><time>2026-04-03T13:22:55.989Z</time></trkpt><trkpt lat="42.4417566" lon="12.703965"><ele>831.2857142857142</ele><time>2026-04-03T13:22:57.99Z</time></trkpt><trkpt lat="42.4416903" lon="12.7039687"><ele>831.5714285714286</ele><time>2026-04-03T13:22:58.989Z</time></trkpt><trkpt lat="42.4416254" lon="12.703968"><ele>831.8571428571429</ele><time>2026-04-03T13:22:59.99Z</time></trkpt><trkpt lat="42.4415565" lon="12.7039647"><ele>832.1428571428571</ele><time>2026-04-03T13:23:00.99Z</time></trkpt><trkpt lat="42.4414883" lon="12.7039594"><ele>832.4285714285714</ele><time>2026-04-03T13:23:01.99Z</time></trkpt><trkpt lat="42.4414212" lon="12.703955"><ele>832.7142857142857</ele><time>2026-04-03T13:23:02.99Z</time></trkpt><trkpt lat="42.441351" lon="12.7039528"><ele>833.0</ele><time>2026-04-03T13:23:03.99Z</time></trkpt><trkpt lat="42.441277" lon="12.7039543"><ele>831.8333333333334</ele><time>2026-04-03T13:23:04.99Z</time></trkpt><trkpt lat="42.4412013" lon="12.7039602"><ele>830.6666666666667</ele><time>2026-04-03T13:23:05.99Z</time></trkpt><trkpt lat="42.4411219" lon="12.7039674"><ele>829.5</ele><time>2026-04-03T13:23:06.989Z</time></trkpt><trkpt lat="42.4410419" lon="12.7039755"><ele>828.3333333333333</ele><time>2026-04-03T13:23:07.99Z</time></trkpt><trkpt lat="42.4409611" lon="12.7039995"><ele>827.1666666666666</ele><time>2026-04-03T13:23:08.99Z</time></trkpt><trkpt lat="42.4408779" lon="12.7040353"><ele>826.0</ele><time>2026-04-03T13:23:09.99Z</time></trkpt><trkpt lat="42.4407949" lon="12.7040733"><ele>826.0</ele><time>2026-04-03T13:23:10.99Z</time></trkpt><trkpt lat="42.4407097" lon="12.7040989"><ele>826.0</ele><time>2026-04-03T13:23:11.99Z</time></trkpt><trkpt lat="42.4406209" lon="12.7041083"><ele>826.0</ele><time>2026-04-03T13:23:12.99Z</time></trkpt><trkpt lat="42.440523" lon="12.7041202"><ele>826.0</ele><time>2026-04-03T13:23:13.99Z</time></trkpt><trkpt lat="42.440415" lon="12.7041326"><ele>826.0</ele><time>2026-04-03T13:23:14.989Z</time></trkpt><trkpt lat="42.4403127" lon="12.7041512"><ele>824.1999999999999</ele><time>2026-04-03T13:23:15.989Z</time></trkpt><trkpt lat="42.4402149" lon="12.7041817"><ele>822.4</ele><time>2026-04-03T13:23:16.99Z</time></trkpt><trkpt lat="42.440117" lon="12.7042193"><ele>820.6</ele><time>2026-04-03T13:23:17.99Z</time></trkpt><trkpt lat="42.4400205" lon="12.7042614"><ele>818.8</ele><time>2026-04-03T13:23:18.99Z</time></trkpt><trkpt lat="42.4399315" lon="12.7043058"><ele>817.0</ele><time>2026-04-03T13:23:19.99Z</time></trkpt><trkpt lat="42.4398493" lon="12.7043585"><ele>817.6666666666666</ele><time>2026-04-03T13:23:20.99Z</time></trkpt><trkpt lat="42.4397692" lon="12.7044153"><ele>818.3333333333333</ele><time>2026-04-03T13:23:21.99Z</time></trkpt><trkpt lat="42.4396935" lon="12.7044648"><ele>819.0</ele><time>2026-04-03T13:23:22.99Z</time></trkpt><trkpt lat="42.439624" lon="12.7045037"><ele>819.6666666666667</ele><time>2026-04-03T13:23:23.99Z</time></trkpt><trkpt lat="42.4395569" lon="12.7045354"><ele>820.3333333333334</ele><time>2026-04-03T13:23:24.99Z</time></trkpt><trkpt lat="42.4394864" lon="12.7045703"><ele>821.0</ele><time>2026-04-03T13:23:25.99Z</time></trkpt><trkpt lat="42.4394102" lon="12.7046046"><ele>821.0000000000001</ele><time>2026-04-03T13:23:26.99Z</time></trkpt><trkpt lat="42.4393313" lon="12.7046153"><ele>821.0</ele><time>2026-04-03T13:23:27.99Z</time></trkpt><trkpt lat="42.4392479" lon="12.704609"><ele>821.0</ele><time>2026-04-03T13:23:28.99Z</time></trkpt><trkpt lat="42.4391607" lon="12.704599"><ele>821.0</ele><time>2026-04-03T13:23:29.989Z</time></trkpt><trkpt lat="42.4390744" lon="12.7045912"><ele>821.0000000000001</ele><time>2026-04-03T13:23:30.989Z</time></trkpt><trkpt lat="42.4389821" lon="12.7045741"><ele>821.0</ele><time>2026-04-03T13:23:31.99Z</time></trkpt><trkpt lat="42.4388913" lon="12.7045539"><ele>820.4</ele><time>2026-04-03T13:23:32.99Z</time></trkpt><trkpt lat="42.4387969" lon="12.7045381"><ele>819.8</ele><time>2026-04-03T13:23:33.99Z</time></trkpt><trkpt lat="42.4387052" lon="12.7045239"><ele>819.1999999999999</ele><time>2026-04-03T13:23:34.989Z</time></trkpt><trkpt lat="42.4386155" lon="12.7045047"><ele>818.5999999999999</ele><time>2026-04-03T13:23:35.99Z</time></trkpt><trkpt lat="42.4385272" lon="12.7044936"><ele>818.0</ele><time>2026-04-03T13:23:36.99Z</time></trkpt><trkpt lat="42.4384424" lon="12.7044866"><ele>818.0000000000001</ele><time>2026-04-03T13:23:37.99Z</time></trkpt><trkpt lat="42.4383629" lon="12.7044824"><ele>818.0</ele><time>2026-04-03T13:23:38.99Z</time></trkpt><trkpt lat="42.4382845" lon="12.7044717"><ele>818.0</ele><time>2026-04-03T13:23:39.989Z</time></trkpt><trkpt lat="42.4382086" lon="12.7044546"><ele>818.0</ele><time>2026-04-03T13:23:40.99Z</time></trkpt><trkpt lat="42.4381421" lon="12.7044334"><ele>818.0000000000001</ele><time>2026-04-03T13:23:41.99Z</time></trkpt><trkpt lat="42.4380351" lon="12.7044135"><ele>818.0</ele><time>2026-04-03T13:23:43.99Z</time></trkpt><trkpt lat="42.4379547" lon="12.7043871"><ele>816.2</ele><time>2026-04-03T13:23:45.99Z</time></trkpt><trkpt lat="42.4378796" lon="12.7043531"><ele>814.4</ele><time>2026-04-03T13:23:47.99Z</time></trkpt><trkpt lat="42.4378114" lon="12.7043267"><ele>812.6</ele><time>2026-04-03T13:23:49.989Z</time></trkpt><trkpt lat="42.4377265" lon="12.7042948"><ele>810.8000000000001</ele><time>2026-04-03T13:23:51.99Z</time></trkpt><trkpt lat="42.437617" lon="12.7042624"><ele>809.0</ele><time>2026-04-03T13:23:53.99Z</time></trkpt><trkpt lat="42.4375027" lon="12.7042428"><ele>809.0</ele><time>2026-04-03T13:23:55.989Z</time></trkpt><trkpt lat="42.43739" lon="12.7042304"><ele>809.0</ele><time>2026-04-03T13:23:57.989Z</time></trkpt><trkpt lat="42.4372582" lon="12.7042163"><ele>809.0</ele><time>2026-04-03T13:23:59.989Z</time></trkpt><trkpt lat="42.4371866" lon="12.7042074"><ele>809.0</ele><time>2026-04-03T13:24:00.989Z</time></trkpt><trkpt lat="42.4371134" lon="12.7041913"><ele>809.0</ele><time>2026-04-03T13:24:01.99Z</time></trkpt><trkpt lat="42.4370383" lon="12.7041793"><ele>808.1666666666667</ele><time>2026-04-03T13:24:02.99Z</time></trkpt><trkpt lat="42.4369611" lon="12.7041703"><ele>807.3333333333334</ele><time>2026-04-03T13:24:03.99Z</time></trkpt><trkpt lat="42.4368784" lon="12.7041635"><ele>806.5</ele><time>2026-04-03T13:24:04.99Z</time></trkpt><trkpt lat="42.4367966" lon="12.7041592"><ele>805.6666666666667</ele><time>2026-04-03T13:24:05.99Z</time></trkpt><trkpt lat="42.4367156" lon="12.7041559"><ele>804.8333333333334</ele><time>2026-04-03T13:24:06.99Z</time></trkpt><trkpt lat="42.4366367" lon="12.7041536"><ele>804.0</ele><time>2026-04-03T13:24:07.99Z</time></trkpt><trkpt lat="42.4365632" lon="12.704152"><ele>804.0</ele><time>2026-04-03T13:24:08.99Z</time></trkpt><trkpt lat="42.4364956" lon="12.70415"><ele>804.0</ele><time>2026-04-03T13:24:09.99Z</time></trkpt><trkpt lat="42.436429" lon="12.7041384"><ele>804.0</ele><time>2026-04-03T13:24:10.99Z</time></trkpt><trkpt lat="42.4363604" lon="12.7041197"><ele>804.0</ele><time>2026-04-03T13:24:11.99Z</time></trkpt><trkpt lat="42.4362901" lon="12.7040817"><ele>804.0</ele><time>2026-04-03T13:24:12.99Z</time></trkpt><trkpt lat="42.4362227" lon="12.7040233"><ele>804.0</ele><time>2026-04-03T13:24:13.989Z</time></trkpt><trkpt lat="42.436159" lon="12.703948"><ele>804.0</ele><time>2026-04-03T13:24:14.989Z</time></trkpt><trkpt lat="42.4361032" lon="12.7038565"><ele>804.0</ele><time>2026-04-03T13:24:15.99Z</time></trkpt><trkpt lat="42.4360559" lon="12.7037557"><ele>804.0</ele><time>2026-04-03T13:24:16.99Z</time></trkpt><trkpt lat="42.4360128" lon="12.703654"><ele>804.0</ele><time>2026-04-03T13:24:17.99Z</time></trkpt><trkpt lat="42.4359695" lon="12.7035535"><ele>804.0</ele><time>2026-04-03T13:24:18.99Z</time></trkpt><trkpt lat="42.4359204" lon="12.7034478"><ele>804.0</ele><time>2026-04-03T13:24:19.99Z</time></trkpt><trkpt lat="42.4358654" lon="12.7033325"><ele>803.4000000000001</ele><time>2026-04-03T13:24:20.989Z</time></trkpt><trkpt lat="42.4358054" lon="12.7032109"><ele>802.8</ele><time>2026-04-03T13:24:21.99Z</time></trkpt><trkpt lat="42.4357413" lon="12.7030929"><ele>802.2</ele><time>2026-04-03T13:24:22.99Z</time></trkpt><trkpt lat="42.4356801" lon="12.7029872"><ele>801.5999999999999</ele><time>2026-04-03T13:24:23.989Z</time></trkpt><trkpt lat="42.4356224" lon="12.7028928"><ele>801.0</ele><time>2026-04-03T13:24:24.99Z</time></trkpt><trkpt lat="42.4355639" lon="12.7027991"><ele>801.0</ele><time>2026-04-03T13:24:25.99Z</time></trkpt><trkpt lat="42.4355048" lon="12.7026987"><ele>801.0</ele><time>2026-04-03T13:24:26.99Z</time></trkpt><trkpt lat="42.4354478" lon="12.7025952"><ele>801.0</ele><time>2026-04-03T13:24:27.99Z</time></trkpt><trkpt lat="42.4353915" lon="12.7024951"><ele>801.0</ele><time>2026-04-03T13:24:28.99Z</time></trkpt><trkpt lat="42.4353328" lon="12.7023983"><ele>801.0</ele><time>2026-04-03T13:24:29.99Z</time></trkpt><trkpt lat="42.4352728" lon="12.7023028"><ele>801.0</ele><time>2026-04-03T13:24:30.99Z</time></trkpt><trkpt lat="42.4352139" lon="12.7022059"><ele>801.0</ele><time>2026-04-03T13:24:31.99Z</time></trkpt><trkpt lat="42.4351532" lon="12.7021126"><ele>801.0</ele><time>2026-04-03T13:24:32.989Z</time></trkpt><trkpt lat="42.4350888" lon="12.7020252"><ele>801.0</ele><time>2026-04-03T13:24:33.99Z</time></trkpt><trkpt lat="42.4350224" lon="12.7019487"><ele>801.0</ele><time>2026-04-03T13:24:34.99Z</time></trkpt><trkpt lat="42.4349523" lon="12.7018878"><ele>801.0</ele><time>2026-04-03T13:24:35.99Z</time></trkpt><trkpt lat="42.434879" lon="12.7018269"><ele>801.8</ele><time>2026-04-03T13:24:36.99Z</time></trkpt><trkpt lat="42.434801" lon="12.701761"><ele>802.5999999999999</ele><time>2026-04-03T13:24:37.99Z</time></trkpt><trkpt lat="42.4347244" lon="12.7016895"><ele>803.4</ele><time>2026-04-03T13:24:38.99Z</time></trkpt><trkpt lat="42.4346441" lon="12.701608"><ele>804.2</ele><time>2026-04-03T13:24:39.989Z</time></trkpt><trkpt lat="42.4345698" lon="12.7015311"><ele>805.0</ele><time>2026-04-03T13:24:40.99Z</time></trkpt><trkpt lat="42.4344968" lon="12.7014582"><ele>805.1666666666666</ele><time>2026-04-03T13:24:41.989Z</time></trkpt><trkpt lat="42.4344265" lon="12.7013839"><ele>805.3333333333333</ele><time>2026-04-03T13:24:42.99Z</time></trkpt><trkpt lat="42.4343618" lon="12.7013095"><ele>805.5</ele><time>2026-04-03T13:24:43.99Z</time></trkpt><trkpt lat="42.4343031" lon="12.7012365"><ele>805.6666666666667</ele><time>2026-04-03T13:24:44.99Z</time></trkpt><trkpt lat="42.4342414" lon="12.7011659"><ele>805.8333333333334</ele><time>2026-04-03T13:24:45.99Z</time></trkpt><trkpt lat="42.4341722" lon="12.7010968"><ele>806.0</ele><time>2026-04-03T13:24:46.99Z</time></trkpt><trkpt lat="42.434093" lon="12.7010392"><ele>806.0</ele><time>2026-04-03T13:24:47.99Z</time></trkpt><trkpt lat="42.4340068" lon="12.7009884"><ele>806.0</ele><time>2026-04-03T13:24:48.99Z</time></trkpt><trkpt lat="42.4339134" lon="12.7009484"><ele>806.0</ele><time>2026-04-03T13:24:49.989Z</time></trkpt><trkpt lat="42.4338122" lon="12.7009125"><ele>806.0</ele><time>2026-04-03T13:24:50.99Z</time></trkpt><trkpt lat="42.4337074" lon="12.7008801"><ele>806.0</ele><time>2026-04-03T13:24:51.99Z</time></trkpt><trkpt lat="42.4336047" lon="12.7008462"><ele>807.1999999999999</ele><time>2026-04-03T13:24:52.989Z</time></trkpt><trkpt lat="42.4335019" lon="12.7008124"><ele>808.4</ele><time>2026-04-03T13:24:53.99Z</time></trkpt><trkpt lat="42.4333969" lon="12.7007811"><ele>809.6</ele><time>2026-04-03T13:24:54.99Z</time></trkpt><trkpt lat="42.4332965" lon="12.700754"><ele>810.8</ele><time>2026-04-03T13:24:55.99Z</time></trkpt><trkpt lat="42.4332065" lon="12.7007353"><ele>812.0</ele><time>2026-04-03T13:24:56.989Z</time></trkpt><trkpt lat="42.4331217" lon="12.7007317"><ele>812.0</ele><time>2026-04-03T13:24:57.989Z</time></trkpt><trkpt lat="42.433033" lon="12.7007411"><ele>812.0</ele><time>2026-04-03T13:24:58.989Z</time></trkpt><trkpt lat="42.4329377" lon="12.7007408"><ele>812.0</ele><time>2026-04-03T13:24:59.989Z</time></trkpt><trkpt lat="42.4328383" lon="12.7007288"><ele>812.0</ele><time>2026-04-03T13:25:00.989Z</time></trkpt><trkpt lat="42.4327343" lon="12.7006963"><ele>812.0</ele><time>2026-04-03T13:25:01.988Z</time></trkpt><trkpt lat="42.4326277" lon="12.7006506"><ele>811.0</ele><time>2026-04-03T13:25:02.988Z</time></trkpt><trkpt lat="42.432518" lon="12.7006027"><ele>810.0</ele><time>2026-04-03T13:25:03.989Z</time></trkpt><trkpt lat="42.4324082" lon="12.7005573"><ele>809.0</ele><time>2026-04-03T13:25:04.989Z</time></trkpt><trkpt lat="42.4323029" lon="12.7005208"><ele>808.0</ele><time>2026-04-03T13:25:05.989Z</time></trkpt><trkpt lat="42.4322001" lon="12.7004978"><ele>807.0</ele><time>2026-04-03T13:25:06.989Z</time></trkpt><trkpt lat="42.4321015" lon="12.7004765"><ele>806.0</ele><time>2026-04-03T13:25:07.988Z</time></trkpt><trkpt lat="42.432007" lon="12.7004562"><ele>805.0</ele><time>2026-04-03T13:25:08.989Z</time></trkpt><trkpt lat="42.4319287" lon="12.7004395"><ele>804.0</ele><time>2026-04-03T13:25:09.989Z</time></trkpt><trkpt lat="42.4318574" lon="12.7004317"><ele>803.0</ele><time>2026-04-03T13:25:10.989Z</time></trkpt><trkpt lat="42.4317901" lon="12.7004248"><ele>802.0</ele><time>2026-04-03T13:25:11.989Z</time></trkpt><trkpt lat="42.4316858" lon="12.7003963"><ele>801.0</ele><time>2026-04-03T13:25:13.989Z</time></trkpt><trkpt lat="42.4315998" lon="12.7003272"><ele>798.25</ele><time>2026-04-03T13:25:15.989Z</time></trkpt><trkpt lat="42.4315229" lon="12.7002334"><ele>795.5</ele><time>2026-04-03T13:25:17.988Z</time></trkpt><trkpt lat="42.4314374" lon="12.7001414"><ele>792.75</ele><time>2026-04-03T13:25:19.989Z</time></trkpt><trkpt lat="42.4313465" lon="12.7000491"><ele>790.0</ele><time>2026-04-03T13:25:21.989Z</time></trkpt><trkpt lat="42.4312718" lon="12.6999098"><ele>789.9999999999999</ele><time>2026-04-03T13:25:23.989Z</time></trkpt><trkpt lat="42.4312379" lon="12.6998115"><ele>790.0</ele><time>2026-04-03T13:25:24.989Z</time></trkpt><trkpt lat="42.4312059" lon="12.6997101"><ele>790.0</ele><time>2026-04-03T13:25:25.989Z</time></trkpt><trkpt lat="42.4311656" lon="12.6996014"><ele>790.0</ele><time>2026-04-03T13:25:26.989Z</time></trkpt><trkpt lat="42.431121" lon="12.6994972"><ele>789.9999999999999</ele><time>2026-04-03T13:25:27.989Z</time></trkpt><trkpt lat="42.4310719" lon="12.6994012"><ele>790.0</ele><time>2026-04-03T13:25:28.989Z</time></trkpt><trkpt lat="42.4310263" lon="12.6993083"><ele>793.4999999999999</ele><time>2026-04-03T13:25:29.989Z</time></trkpt><trkpt lat="42.4309887" lon="12.6992158"><ele>797.0</ele><time>2026-04-03T13:25:30.989Z</time></trkpt><trkpt lat="42.430942" lon="12.6991326"><ele>800.5</ele><time>2026-04-03T13:25:31.988Z</time></trkpt><trkpt lat="42.4308953" lon="12.6990525"><ele>804.0</ele><time>2026-04-03T13:25:32.989Z</time></trkpt><trkpt lat="42.4308563" lon="12.6989846"><ele>807.4999999999999</ele><time>2026-04-03T13:25:33.989Z</time></trkpt><trkpt lat="42.4307835" lon="12.6988735"><ele>811.0</ele><time>2026-04-03T13:25:35.989Z</time></trkpt><trkpt lat="42.4307018" lon="12.6987986"><ele>811.0</ele><time>2026-04-03T13:25:37.989Z</time></trkpt><trkpt lat="42.4306205" lon="12.6987521"><ele>811.0</ele><time>2026-04-03T13:25:39.989Z</time></trkpt><trkpt lat="42.430525" lon="12.6987149"><ele>811.0</ele><time>2026-04-03T13:25:41.989Z</time></trkpt><trkpt lat="42.4304361" lon="12.6986768"><ele>811.0</ele><time>2026-04-03T13:25:43.989Z</time></trkpt><trkpt lat="42.4303424" lon="12.6986293"><ele>811.0</ele><time>2026-04-03T13:25:45.989Z</time></trkpt><trkpt lat="42.4302721" lon="12.6985759"><ele>808.1999999999999</ele><time>2026-04-03T13:25:47.989Z</time></trkpt><trkpt lat="42.4302113" lon="12.6984982"><ele>805.4</ele><time>2026-04-03T13:25:49.989Z</time></trkpt><trkpt lat="42.4301511" lon="12.6983977"><ele>802.6</ele><time>2026-04-03T13:25:51.989Z</time></trkpt><trkpt lat="42.4300895" lon="12.6982897"><ele>799.8</ele><time>2026-04-03T13:25:53.989Z</time></trkpt><trkpt lat="42.4300209" lon="12.6981908"><ele>797.0</ele><time>2026-04-03T13:25:55.989Z</time></trkpt><trkpt lat="42.4299559" lon="12.6980804"><ele>797.0000000000001</ele><time>2026-04-03T13:25:57.989Z</time></trkpt><trkpt lat="42.4298758" lon="12.6979552"><ele>797.0</ele><time>2026-04-03T13:25:59.989Z</time></trkpt><trkpt lat="42.42982" lon="12.6978989"><ele>797.0</ele><time>2026-04-03T13:26:00.989Z</time></trkpt><trkpt lat="42.4297554" lon="12.6978506"><ele>797.0</ele><time>2026-04-03T13:26:01.989Z</time></trkpt><trkpt lat="42.4296885" lon="12.6978111"><ele>797.0000000000001</ele><time>2026-04-03T13:26:02.988Z</time></trkpt><trkpt lat="42.429616" lon="12.6977718"><ele>797.0</ele><time>2026-04-03T13:26:03.989Z</time></trkpt><trkpt lat="42.4295477" lon="12.6977364"><ele>797.0000000000001</ele><time>2026-04-03T13:26:04.989Z</time></trkpt><trkpt lat="42.4294814" lon="12.6977056"><ele>797.0</ele><time>2026-04-03T13:26:05.989Z</time></trkpt><trkpt lat="42.4294177" lon="12.6976812"><ele>797.0</ele><time>2026-04-03T13:26:06.988Z</time></trkpt><trkpt lat="42.4293545" lon="12.6976596"><ele>797.0</ele><time>2026-04-03T13:26:07.989Z</time></trkpt><trkpt lat="42.4292321" lon="12.6976202"><ele>797.0000000000001</ele><time>2026-04-03T13:26:09.989Z</time></trkpt><trkpt lat="42.4291705" lon="12.6975997"><ele>797.0</ele><time>2026-04-03T13:26:10.988Z</time></trkpt><trkpt lat="42.4290529" lon="12.6975497"><ele>797.0</ele><time>2026-04-03T13:26:12.989Z</time></trkpt><trkpt lat="42.4289412" lon="12.6974923"><ele>797.0</ele><time>2026-04-03T13:26:14.989Z</time></trkpt><trkpt lat="42.42883" lon="12.6974372"><ele>797.0</ele><time>2026-04-03T13:26:16.989Z</time></trkpt><trkpt lat="42.4287243" lon="12.6974118"><ele>797.0</ele><time>2026-04-03T13:26:18.989Z</time></trkpt><trkpt lat="42.428628" lon="12.6974086"><ele>797.0</ele><time>2026-04-03T13:26:20.989Z</time></trkpt><trkpt lat="42.4285333" lon="12.6974165"><ele>794.4000000000001</ele><time>2026-04-03T13:26:22.989Z</time></trkpt><trkpt lat="42.4284378" lon="12.6974452"><ele>791.8000000000001</ele><time>2026-04-03T13:26:24.989Z</time></trkpt><trkpt lat="42.4283375" lon="12.6974665"><ele>789.2</ele><time>2026-04-03T13:26:26.989Z</time></trkpt><trkpt lat="42.4282408" lon="12.6974714"><ele>786.6</ele><time>2026-04-03T13:26:28.989Z</time></trkpt><trkpt lat="42.4281528" lon="12.6974722"><ele>784.0</ele><time>2026-04-03T13:26:30.989Z</time></trkpt><trkpt lat="42.4280567" lon="12.6974762"><ele>781.3333333333333</ele><time>2026-04-03T13:26:32.989Z</time></trkpt><trkpt lat="42.4279435" lon="12.6974875"><ele>778.6666666666666</ele><time>2026-04-03T13:26:34.989Z</time></trkpt><trkpt lat="42.4278177" lon="12.6974724"><ele>776.0</ele><time>2026-04-03T13:26:36.989Z</time></trkpt><trkpt lat="42.4277518" lon="12.6974507"><ele>773.3333333333333</ele><time>2026-04-03T13:26:37.989Z</time></trkpt><trkpt lat="42.4276876" lon="12.6974205"><ele>770.6666666666666</ele><time>2026-04-03T13:26:38.989Z</time></trkpt><trkpt lat="42.4276295" lon="12.6973836"><ele>768.0</ele><time>2026-04-03T13:26:39.989Z</time></trkpt><trkpt lat="42.4275265" lon="12.6973074"><ele>768.0</ele><time>2026-04-03T13:26:41.989Z</time></trkpt><trkpt lat="42.4274135" lon="12.697242"><ele>768.0</ele><time>2026-04-03T13:26:43.989Z</time></trkpt><trkpt lat="42.4273493" lon="12.6972203"><ele>768.0</ele><time>2026-04-03T13:26:44.989Z</time></trkpt><trkpt lat="42.4272829" lon="12.6972078"><ele>768.0</ele><time>2026-04-03T13:26:45.988Z</time></trkpt><trkpt lat="42.4272162" lon="12.6972009"><ele>768.0</ele><time>2026-04-03T13:26:46.989Z</time></trkpt><trkpt lat="42.4271461" lon="12.6972019"><ele>768.0</ele><time>2026-04-03T13:26:47.989Z</time></trkpt><trkpt lat="42.4270742" lon="12.6972053"><ele>766.4285714285713</ele><time>2026-04-03T13:26:48.989Z</time></trkpt><trkpt lat="42.4270004" lon="12.6972096"><ele>764.8571428571429</ele><time>2026-04-03T13:26:49.989Z</time></trkpt><trkpt lat="42.4269272" lon="12.6972111"><ele>763.2857142857142</ele><time>2026-04-03T13:26:50.989Z</time></trkpt><trkpt lat="42.4268541" lon="12.6972107"><ele>761.7142857142857</ele><time>2026-04-03T13:26:51.989Z</time></trkpt><trkpt lat="42.4267791" lon="12.6972027"><ele>760.1428571428571</ele><time>2026-04-03T13:26:52.989Z</time></trkpt><trkpt lat="42.4267066" lon="12.6971844"><ele>758.5714285714286</ele><time>2026-04-03T13:26:53.987Z</time></trkpt><trkpt lat="42.4266409" lon="12.697153"><ele>757.0</ele><time>2026-04-03T13:26:54.988Z</time></trkpt><trkpt lat="42.4265828" lon="12.6971072"><ele>757.0</ele><time>2026-04-03T13:26:55.988Z</time></trkpt><trkpt lat="42.4265321" lon="12.6970462"><ele>757.0</ele><time>2026-04-03T13:26:56.989Z</time></trkpt><trkpt lat="42.4264836" lon="12.696973"><ele>757.0</ele><time>2026-04-03T13:26:57.989Z</time></trkpt><trkpt lat="42.4264368" lon="12.6968901"><ele>757.0</ele><time>2026-04-03T13:26:58.989Z</time></trkpt><trkpt lat="42.4263902" lon="12.6967953"><ele>757.0</ele><time>2026-04-03T13:26:59.988Z</time></trkpt><trkpt lat="42.4263459" lon="12.6966971"><ele>757.0</ele><time>2026-04-03T13:27:00.989Z</time></trkpt><trkpt lat="42.4263027" lon="12.6966012"><ele>759.1666666666667</ele><time>2026-04-03T13:27:01.989Z</time></trkpt><trkpt lat="42.4262603" lon="12.6965095"><ele>761.3333333333334</ele><time>2026-04-03T13:27:02.989Z</time></trkpt><trkpt lat="42.4262257" lon="12.6964105"><ele>763.5</ele><time>2026-04-03T13:27:03.989Z</time></trkpt><trkpt lat="42.4262008" lon="12.6963011"><ele>765.6666666666667</ele><time>2026-04-03T13:27:04.989Z</time></trkpt><trkpt lat="42.4261884" lon="12.6961854"><ele>767.8333333333334</ele><time>2026-04-03T13:27:05.989Z</time></trkpt><trkpt lat="42.4261846" lon="12.6960678"><ele>770.0</ele><time>2026-04-03T13:27:06.989Z</time></trkpt><trkpt lat="42.4261785" lon="12.6959482"><ele>770.1666666666667</ele><time>2026-04-03T13:27:07.989Z</time></trkpt><trkpt lat="42.4261686" lon="12.695831"><ele>770.3333333333334</ele><time>2026-04-03T13:27:08.988Z</time></trkpt><trkpt lat="42.4261499" lon="12.6957175"><ele>770.5</ele><time>2026-04-03T13:27:09.989Z</time></trkpt><trkpt lat="42.4261241" lon="12.6956046"><ele>770.6666666666667</ele><time>2026-04-03T13:27:10.989Z</time></trkpt><trkpt lat="42.4260892" lon="12.6954878"><ele>770.8333333333334</ele><time>2026-04-03T13:27:11.989Z</time></trkpt><trkpt lat="42.4260528" lon="12.695368"><ele>771.0</ele><time>2026-04-03T13:27:12.989Z</time></trkpt><trkpt lat="42.426017" lon="12.6952512"><ele>771.0</ele><time>2026-04-03T13:27:13.989Z</time></trkpt><trkpt lat="42.4259905" lon="12.6951332"><ele>771.0</ele><time>2026-04-03T13:27:14.989Z</time></trkpt><trkpt lat="42.425975" lon="12.6950113"><ele>771.0</ele><time>2026-04-03T13:27:15.989Z</time></trkpt><trkpt lat="42.4259617" lon="12.6948921"><ele>771.0</ele><time>2026-04-03T13:27:16.989Z</time></trkpt><trkpt lat="42.4259435" lon="12.6947835"><ele>771.0</ele><time>2026-04-03T13:27:17.989Z</time></trkpt><trkpt lat="42.4259153" lon="12.69469"><ele>771.0</ele><time>2026-04-03T13:27:18.989Z</time></trkpt><trkpt lat="42.4258714" lon="12.6946143"><ele>771.0</ele><time>2026-04-03T13:27:19.989Z</time></trkpt><trkpt lat="42.4258109" lon="12.6945521"><ele>771.0</ele><time>2026-04-03T13:27:20.989Z</time></trkpt><trkpt lat="42.4257393" lon="12.6945021"><ele>771.0</ele><time>2026-04-03T13:27:21.989Z</time></trkpt><trkpt lat="42.4256639" lon="12.6944513"><ele>771.0</ele><time>2026-04-03T13:27:22.988Z</time></trkpt><trkpt lat="42.4255847" lon="12.6943958"><ele>771.0</ele><time>2026-04-03T13:27:23.988Z</time></trkpt><trkpt lat="42.4255083" lon="12.6943326"><ele>771.0</ele><time>2026-04-03T13:27:24.989Z</time></trkpt><trkpt lat="42.4254466" lon="12.6942652"><ele>772.1428571428572</ele><time>2026-04-03T13:27:25.989Z</time></trkpt><trkpt lat="42.4253958" lon="12.694193"><ele>773.2857142857142</ele><time>2026-04-03T13:27:26.989Z</time></trkpt><trkpt lat="42.4253504" lon="12.6941154"><ele>774.4285714285714</ele><time>2026-04-03T13:27:27.988Z</time></trkpt><trkpt lat="42.4253062" lon="12.6940353"><ele>775.5714285714287</ele><time>2026-04-03T13:27:28.989Z</time></trkpt><trkpt lat="42.4252617" lon="12.6939573"><ele>776.7142857142858</ele><time>2026-04-03T13:27:29.989Z</time></trkpt><trkpt lat="42.425213" lon="12.6938857"><ele>777.8571428571429</ele><time>2026-04-03T13:27:30.989Z</time></trkpt><trkpt lat="42.4251592" lon="12.6938205"><ele>779.0</ele><time>2026-04-03T13:27:31.988Z</time></trkpt><trkpt lat="42.4251024" lon="12.6937543"><ele>779.0000000000001</ele><time>2026-04-03T13:27:32.989Z</time></trkpt><trkpt lat="42.4250451" lon="12.6936856"><ele>779.0</ele><time>2026-04-03T13:27:33.988Z</time></trkpt><trkpt lat="42.4249875" lon="12.6936222"><ele>779.0</ele><time>2026-04-03T13:27:34.989Z</time></trkpt><trkpt lat="42.4249339" lon="12.6935595"><ele>779.0</ele><time>2026-04-03T13:27:35.989Z</time></trkpt><trkpt lat="42.4248825" lon="12.6934971"><ele>779.0</ele><time>2026-04-03T13:27:36.989Z</time></trkpt><trkpt lat="42.4248364" lon="12.6934296"><ele>779.0000000000001</ele><time>2026-04-03T13:27:37.989Z</time></trkpt><trkpt lat="42.4247954" lon="12.6933544"><ele>779.0</ele><time>2026-04-03T13:27:38.989Z</time></trkpt><trkpt lat="42.4247568" lon="12.6932756"><ele>779.5714285714287</ele><time>2026-04-03T13:27:39.989Z</time></trkpt><trkpt lat="42.4247229" lon="12.6931916"><ele>780.1428571428571</ele><time>2026-04-03T13:27:40.988Z</time></trkpt><trkpt lat="42.4246955" lon="12.6931007"><ele>780.7142857142858</ele><time>2026-04-03T13:27:41.989Z</time></trkpt><trkpt lat="42.4246718" lon="12.6930041"><ele>781.2857142857143</ele><time>2026-04-03T13:27:42.988Z</time></trkpt><trkpt lat="42.4246517" lon="12.6929029"><ele>781.8571428571429</ele><time>2026-04-03T13:27:43.989Z</time></trkpt><trkpt lat="42.4246285" lon="12.692803"><ele>782.4285714285714</ele><time>2026-04-03T13:27:44.989Z</time></trkpt><trkpt lat="42.4246031" lon="12.6927085"><ele>783.0</ele><time>2026-04-03T13:27:45.989Z</time></trkpt><trkpt lat="42.4245767" lon="12.6926252"><ele>777.5</ele><time>2026-04-03T13:27:46.989Z</time></trkpt><trkpt lat="42.4245192" lon="12.6924819"><ele>772.0</ele><time>2026-04-03T13:27:48.989Z</time></trkpt><trkpt lat="42.424463" lon="12.6923549"><ele>766.5</ele><time>2026-04-03T13:27:50.989Z</time></trkpt><trkpt lat="42.4243988" lon="12.6922346"><ele>761.0</ele><time>2026-04-03T13:27:52.989Z</time></trkpt><trkpt lat="42.4243072" lon="12.6921463"><ele>761.0</ele><time>2026-04-03T13:27:54.989Z</time></trkpt><trkpt lat="42.4241796" lon="12.6920969"><ele>761.0</ele><time>2026-04-03T13:27:56.989Z</time></trkpt><trkpt lat="42.4241084" lon="12.6920751"><ele>761.0</ele><time>2026-04-03T13:27:57.989Z</time></trkpt><trkpt lat="42.4240444" lon="12.6920527"><ele>761.0</ele><time>2026-04-03T13:27:58.989Z</time></trkpt><trkpt lat="42.4239411" lon="12.692021"><ele>761.0</ele><time>2026-04-03T13:28:00.988Z</time></trkpt><trkpt lat="42.4238596" lon="12.691993"><ele>760.8</ele><time>2026-04-03T13:28:02.989Z</time></trkpt><trkpt lat="42.4237759" lon="12.6919724"><ele>760.5999999999999</ele><time>2026-04-03T13:28:04.988Z</time></trkpt><trkpt lat="42.4236862" lon="12.6919683"><ele>760.4</ele><time>2026-04-03T13:28:06.989Z</time></trkpt><trkpt lat="42.4235983" lon="12.6919775"><ele>760.2</ele><time>2026-04-03T13:28:08.989Z</time></trkpt><trkpt lat="42.4234951" lon="12.6920012"><ele>760.0</ele><time>2026-04-03T13:28:10.988Z</time></trkpt><trkpt lat="42.4233849" lon="12.6920366"><ele>760.0</ele><time>2026-04-03T13:28:12.988Z</time></trkpt><trkpt lat="42.4232696" lon="12.6920752"><ele>760.0</ele><time>2026-04-03T13:28:14.988Z</time></trkpt><trkpt lat="42.4231491" lon="12.6921218"><ele>760.0</ele><time>2026-04-03T13:28:16.989Z</time></trkpt><trkpt lat="42.4230842" lon="12.6921442"><ele>760.0</ele><time>2026-04-03T13:28:17.989Z</time></trkpt><trkpt lat="42.4230189" lon="12.6921569"><ele>760.0</ele><time>2026-04-03T13:28:18.989Z</time></trkpt><trkpt lat="42.4229532" lon="12.6921578"><ele>760.0</ele><time>2026-04-03T13:28:19.989Z</time></trkpt><trkpt lat="42.422886" lon="12.6921475"><ele>760.6666666666667</ele><time>2026-04-03T13:28:20.989Z</time></trkpt><trkpt lat="42.4228228" lon="12.6921279"><ele>761.3333333333334</ele><time>2026-04-03T13:28:21.989Z</time></trkpt><trkpt lat="42.4227075" lon="12.6920666"><ele>762.0</ele><time>2026-04-03T13:28:23.989Z</time></trkpt><trkpt lat="42.4226488" lon="12.692028"><ele>762.6666666666666</ele><time>2026-04-03T13:28:24.989Z</time></trkpt><trkpt lat="42.4225919" lon="12.6919852"><ele>763.3333333333333</ele><time>2026-04-03T13:28:25.989Z</time></trkpt><trkpt lat="42.4225338" lon="12.6919421"><ele>764.0</ele><time>2026-04-03T13:28:26.989Z</time></trkpt><trkpt lat="42.4224717" lon="12.6918938"><ele>760.4285714285714</ele><time>2026-04-03T13:28:27.989Z</time></trkpt><trkpt lat="42.4224074" lon="12.6918466"><ele>756.8571428571428</ele><time>2026-04-03T13:28:28.988Z</time></trkpt><trkpt lat="42.4223439" lon="12.6917999"><ele>753.2857142857142</ele><time>2026-04-03T13:28:29.989Z</time></trkpt><trkpt lat="42.4222815" lon="12.691756"><ele>749.7142857142858</ele><time>2026-04-03T13:28:30.989Z</time></trkpt><trkpt lat="42.4222205" lon="12.6917172"><ele>746.1428571428571</ele><time>2026-04-03T13:28:31.989Z</time></trkpt><trkpt lat="42.4221594" lon="12.6916853"><ele>742.5714285714286</ele><time>2026-04-03T13:28:32.989Z</time></trkpt><trkpt lat="42.4220967" lon="12.6916566"><ele>739.0</ele><time>2026-04-03T13:28:33.988Z</time></trkpt><trkpt lat="42.4220317" lon="12.691626"><ele>739.0</ele><time>2026-04-03T13:28:34.989Z</time></trkpt><trkpt lat="42.4219627" lon="12.6915967"><ele>739.0</ele><time>2026-04-03T13:28:35.989Z</time></trkpt><trkpt lat="42.4218938" lon="12.6915619"><ele>739.0</ele><time>2026-04-03T13:28:36.989Z</time></trkpt><trkpt lat="42.4218256" lon="12.6915208"><ele>739.0</ele><time>2026-04-03T13:28:37.989Z</time></trkpt><trkpt lat="42.4217579" lon="12.6914776"><ele>739.0</ele><time>2026-04-03T13:28:38.989Z</time></trkpt><trkpt lat="42.4216914" lon="12.6914267"><ele>739.0</ele><time>2026-04-03T13:28:39.989Z</time></trkpt><trkpt lat="42.4216269" lon="12.6913702"><ele>739.0</ele><time>2026-04-03T13:28:40.989Z</time></trkpt><trkpt lat="42.421563" lon="12.691311"><ele>739.0</ele><time>2026-04-03T13:28:41.988Z</time></trkpt><trkpt lat="42.4214975" lon="12.6912529"><ele>739.0</ele><time>2026-04-03T13:28:42.989Z</time></trkpt><trkpt lat="42.4214287" lon="12.6911996"><ele>739.0</ele><time>2026-04-03T13:28:43.988Z</time></trkpt><trkpt lat="42.4213556" lon="12.691151"><ele>739.0</ele><time>2026-04-03T13:28:44.988Z</time></trkpt><trkpt lat="42.4212799" lon="12.6911038"><ele>739.0</ele><time>2026-04-03T13:28:45.988Z</time></trkpt><trkpt lat="42.4212048" lon="12.6910539"><ele>739.0</ele><time>2026-04-03T13:28:46.989Z</time></trkpt><trkpt lat="42.4211301" lon="12.6910046"><ele>736.0</ele><time>2026-04-03T13:28:47.988Z</time></trkpt><trkpt lat="42.4210571" lon="12.6909638"><ele>733.0</ele><time>2026-04-03T13:28:48.989Z</time></trkpt><trkpt lat="42.4209845" lon="12.6909313"><ele>730.0</ele><time>2026-04-03T13:28:49.989Z</time></trkpt><trkpt lat="42.4209081" lon="12.6909107"><ele>727.0</ele><time>2026-04-03T13:28:50.989Z</time></trkpt><trkpt lat="42.4208282" lon="12.6909076"><ele>724.0</ele><time>2026-04-03T13:28:51.989Z</time></trkpt><trkpt lat="42.4207481" lon="12.6909161"><ele>721.0</ele><time>2026-04-03T13:28:52.989Z</time></trkpt><trkpt lat="42.4206701" lon="12.6909346"><ele>721.0</ele><time>2026-04-03T13:28:53.989Z</time></trkpt><trkpt lat="42.4205949" lon="12.6909645"><ele>721.0</ele><time>2026-04-03T13:28:54.989Z</time></trkpt><trkpt lat="42.4205274" lon="12.6910038"><ele>721.0</ele><time>2026-04-03T13:28:55.989Z</time></trkpt><trkpt lat="42.420468" lon="12.6910437"><ele>721.0</ele><time>2026-04-03T13:28:56.989Z</time></trkpt><trkpt lat="42.4203617" lon="12.6911197"><ele>721.0</ele><time>2026-04-03T13:28:58.988Z</time></trkpt><trkpt lat="42.4202514" lon="12.6911937"><ele>722.0</ele><time>2026-04-03T13:29:00.989Z</time></trkpt><trkpt lat="42.4201906" lon="12.6912395"><ele>723.0</ele><time>2026-04-03T13:29:01.988Z</time></trkpt><trkpt lat="42.4201349" lon="12.6912864"><ele>724.0</ele><time>2026-04-03T13:29:02.989Z</time></trkpt><trkpt lat="42.4200366" lon="12.6913773"><ele>725.0</ele><time>2026-04-03T13:29:04.989Z</time></trkpt><trkpt lat="42.4199321" lon="12.6914869"><ele>726.0</ele><time>2026-04-03T13:29:06.989Z</time></trkpt><trkpt lat="42.4198791" lon="12.6915439"><ele>726.0</ele><time>2026-04-03T13:29:07.989Z</time></trkpt><trkpt lat="42.4197843" lon="12.6916615"><ele>726.0</ele><time>2026-04-03T13:29:09.988Z</time></trkpt><trkpt lat="42.4197332" lon="12.6917271"><ele>726.0</ele><time>2026-04-03T13:29:10.988Z</time></trkpt><trkpt lat="42.4196828" lon="12.6917889"><ele>726.0</ele><time>2026-04-03T13:29:11.988Z</time></trkpt><trkpt lat="42.4196338" lon="12.6918552"><ele>726.0</ele><time>2026-04-03T13:29:12.988Z</time></trkpt><trkpt lat="42.419589" lon="12.6919198"><ele>726.0</ele><time>2026-04-03T13:29:13.987Z</time></trkpt><trkpt lat="42.4195463" lon="12.691985"><ele>724.5714285714286</ele><time>2026-04-03T13:29:14.988Z</time></trkpt><trkpt lat="42.4194976" lon="12.6920508"><ele>723.1428571428571</ele><time>2026-04-03T13:29:15.988Z</time></trkpt><trkpt lat="42.4194526" lon="12.6921166"><ele>721.7142857142858</ele><time>2026-04-03T13:29:16.988Z</time></trkpt><trkpt lat="42.4194091" lon="12.6921869"><ele>720.2857142857142</ele><time>2026-04-03T13:29:17.988Z</time></trkpt><trkpt lat="42.4193657" lon="12.6922611"><ele>718.8571428571429</ele><time>2026-04-03T13:29:18.988Z</time></trkpt><trkpt lat="42.4193208" lon="12.6923338"><ele>717.4285714285714</ele><time>2026-04-03T13:29:19.987Z</time></trkpt><trkpt lat="42.4192775" lon="12.6924002"><ele>716.0</ele><time>2026-04-03T13:29:20.988Z</time></trkpt><trkpt lat="42.4192375" lon="12.6924751"><ele>716.0</ele><time>2026-04-03T13:29:21.988Z</time></trkpt><trkpt lat="42.4191968" lon="12.6925576"><ele>716.0</ele><time>2026-04-03T13:29:22.988Z</time></trkpt><trkpt lat="42.4191615" lon="12.6926377"><ele>716.0</ele><time>2026-04-03T13:29:23.988Z</time></trkpt><trkpt lat="42.4191313" lon="12.6927206"><ele>716.0</ele><time>2026-04-03T13:29:24.988Z</time></trkpt><trkpt lat="42.4191045" lon="12.6928055"><ele>716.0</ele><time>2026-04-03T13:29:25.988Z</time></trkpt><trkpt lat="42.4190837" lon="12.6928882"><ele>716.0</ele><time>2026-04-03T13:29:26.987Z</time></trkpt><trkpt lat="42.419048" lon="12.6930477"><ele>716.8</ele><time>2026-04-03T13:29:28.988Z</time></trkpt><trkpt lat="42.4189931" lon="12.6931654"><ele>717.5999999999999</ele><time>2026-04-03T13:29:30.987Z</time></trkpt><trkpt lat="42.4189072" lon="12.6932255"><ele>718.4</ele><time>2026-04-03T13:29:32.988Z</time></trkpt><trkpt lat="42.4188077" lon="12.6931865"><ele>719.2</ele><time>2026-04-03T13:29:34.988Z</time></trkpt><trkpt lat="42.4187459" lon="12.6930538"><ele>720.0</ele><time>2026-04-03T13:29:36.988Z</time></trkpt><trkpt lat="42.4187432" lon="12.6929679"><ele>720.5</ele><time>2026-04-03T13:29:37.988Z</time></trkpt><trkpt lat="42.4187471" lon="12.6928758"><ele>721.0</ele><time>2026-04-03T13:29:38.988Z</time></trkpt><trkpt lat="42.4187562" lon="12.6927872"><ele>721.5</ele><time>2026-04-03T13:29:39.988Z</time></trkpt><trkpt lat="42.4187703" lon="12.6926921"><ele>722.0</ele><time>2026-04-03T13:29:40.988Z</time></trkpt><trkpt lat="42.4187783" lon="12.6925167"><ele>722.5</ele><time>2026-04-03T13:29:42.988Z</time></trkpt><trkpt lat="42.4187758" lon="12.6924312"><ele>723.0</ele><time>2026-04-03T13:29:43.988Z</time></trkpt><trkpt lat="42.4187698" lon="12.6923412"><ele>723.4285714285714</ele><time>2026-04-03T13:29:44.988Z</time></trkpt><trkpt lat="42.4187587" lon="12.6922485"><ele>723.8571428571429</ele><time>2026-04-03T13:29:45.987Z</time></trkpt><trkpt lat="42.4187423" lon="12.6921566"><ele>724.2857142857142</ele><time>2026-04-03T13:29:46.986Z</time></trkpt><trkpt lat="42.4187224" lon="12.6920689"><ele>724.7142857142858</ele><time>2026-04-03T13:29:47.988Z</time></trkpt><trkpt lat="42.4187098" lon="12.6919832"><ele>725.1428571428571</ele><time>2026-04-03T13:29:48.988Z</time></trkpt><trkpt lat="42.4186926" lon="12.6918994"><ele>725.5714285714286</ele><time>2026-04-03T13:29:49.987Z</time></trkpt><trkpt lat="42.4186748" lon="12.6918154"><ele>726.0</ele><time>2026-04-03T13:29:50.988Z</time></trkpt><trkpt lat="42.4186608" lon="12.6917275"><ele>723.0</ele><time>2026-04-03T13:29:51.988Z</time></trkpt><trkpt lat="42.418632" lon="12.6915685"><ele>720.0</ele><time>2026-04-03T13:29:53.988Z</time></trkpt><trkpt lat="42.4185975" lon="12.6914261"><ele>717.0</ele><time>2026-04-03T13:29:55.988Z</time></trkpt><trkpt lat="42.4185497" lon="12.6912789"><ele>714.0</ele><time>2026-04-03T13:29:57.988Z</time></trkpt><trkpt lat="42.4184843" lon="12.6911397"><ele>710.1666666666666</ele><time>2026-04-03T13:29:59.988Z</time></trkpt><trkpt lat="42.4184159" lon="12.6910098"><ele>706.3333333333334</ele><time>2026-04-03T13:30:01.988Z</time></trkpt><trkpt lat="42.4183711" lon="12.6909439"><ele>702.5</ele><time>2026-04-03T13:30:02.988Z</time></trkpt><trkpt lat="42.4183271" lon="12.6908766"><ele>698.6666666666667</ele><time>2026-04-03T13:30:03.988Z</time></trkpt><trkpt lat="42.4182785" lon="12.6908054"><ele>694.8333333333334</ele><time>2026-04-03T13:30:04.988Z</time></trkpt><trkpt lat="42.41823" lon="12.6907393"><ele>691.0</ele><time>2026-04-03T13:30:05.988Z</time></trkpt><trkpt lat="42.4181834" lon="12.6906757"><ele>691.0</ele><time>2026-04-03T13:30:06.988Z</time></trkpt><trkpt lat="42.418141" lon="12.6906094"><ele>691.0</ele><time>2026-04-03T13:30:07.988Z</time></trkpt><trkpt lat="42.418098" lon="12.6905466"><ele>691.0</ele><time>2026-04-03T13:30:08.988Z</time></trkpt><trkpt lat="42.4180538" lon="12.6904754"><ele>691.0</ele><time>2026-04-03T13:30:09.987Z</time></trkpt><trkpt lat="42.4180075" lon="12.6904103"><ele>691.0</ele><time>2026-04-03T13:30:10.988Z</time></trkpt><trkpt lat="42.4179177" lon="12.6902839"><ele>691.0</ele><time>2026-04-03T13:30:12.988Z</time></trkpt><trkpt lat="42.4178719" lon="12.6902213"><ele>691.8333333333334</ele><time>2026-04-03T13:30:13.988Z</time></trkpt><trkpt lat="42.4178266" lon="12.690155"><ele>692.6666666666667</ele><time>2026-04-03T13:30:14.988Z</time></trkpt><trkpt lat="42.4177875" lon="12.6900849"><ele>693.5</ele><time>2026-04-03T13:30:15.988Z</time></trkpt><trkpt lat="42.4177518" lon="12.6900104"><ele>694.3333333333334</ele><time>2026-04-03T13:30:16.987Z</time></trkpt><trkpt lat="42.4177244" lon="12.6899326"><ele>695.1666666666666</ele><time>2026-04-03T13:30:17.988Z</time></trkpt><trkpt lat="42.4176999" lon="12.6897844"><ele>696.0</ele><time>2026-04-03T13:30:19.988Z</time></trkpt><trkpt lat="42.4177027" lon="12.6896328"><ele>696.0</ele><time>2026-04-03T13:30:21.988Z</time></trkpt><trkpt lat="42.4177259" lon="12.6894681"><ele>696.0</ele><time>2026-04-03T13:30:23.988Z</time></trkpt><trkpt lat="42.4177408" lon="12.6893734"><ele>696.0</ele><time>2026-04-03T13:30:24.988Z</time></trkpt><trkpt lat="42.4177472" lon="12.6892868"><ele>696.0</ele><time>2026-04-03T13:30:25.988Z</time></trkpt><trkpt lat="42.4177527" lon="12.6891889"><ele>696.0</ele><time>2026-04-03T13:30:26.988Z</time></trkpt><trkpt lat="42.4177553" lon="12.6890906"><ele>696.0</ele><time>2026-04-03T13:30:27.987Z</time></trkpt><trkpt lat="42.4177594" lon="12.6889927"><ele>694.1428571428571</ele><time>2026-04-03T13:30:28.988Z</time></trkpt><trkpt lat="42.4177624" lon="12.6888949"><ele>692.2857142857143</ele><time>2026-04-03T13:30:29.988Z</time></trkpt><trkpt lat="42.4177646" lon="12.6888024"><ele>690.4285714285714</ele><time>2026-04-03T13:30:30.988Z</time></trkpt><trkpt lat="42.4177638" lon="12.688715"><ele>688.5714285714286</ele><time>2026-04-03T13:30:31.988Z</time></trkpt><trkpt lat="42.417751" lon="12.6886288"><ele>686.7142857142857</ele><time>2026-04-03T13:30:32.988Z</time></trkpt><trkpt lat="42.4177339" lon="12.6885422"><ele>684.8571428571429</ele><time>2026-04-03T13:30:33.988Z</time></trkpt><trkpt lat="42.4177067" lon="12.6884641"><ele>683.0</ele><time>2026-04-03T13:30:34.988Z</time></trkpt><trkpt lat="42.4176704" lon="12.688393"><ele>679.75</ele><time>2026-04-03T13:30:35.988Z</time></trkpt><trkpt lat="42.4176052" lon="12.688252"><ele>676.5</ele><time>2026-04-03T13:30:37.988Z</time></trkpt><trkpt lat="42.4175587" lon="12.6881073"><ele>673.25</ele><time>2026-04-03T13:30:39.988Z</time></trkpt><trkpt lat="42.4175396" lon="12.6879536"><ele>670.0</ele><time>2026-04-03T13:30:41.988Z</time></trkpt><trkpt lat="42.4175356" lon="12.6877903"><ele>667.25</ele><time>2026-04-03T13:30:43.988Z</time></trkpt><trkpt lat="42.4174929" lon="12.6876532"><ele>664.5</ele><time>2026-04-03T13:30:45.988Z</time></trkpt><trkpt lat="42.417394" lon="12.6875771"><ele>661.75</ele><time>2026-04-03T13:30:47.988Z</time></trkpt><trkpt lat="42.4172818" lon="12.6876095"><ele>659.0</ele><time>2026-04-03T13:30:49.988Z</time></trkpt><trkpt lat="42.4171765" lon="12.6877327"><ele>661.0</ele><time>2026-04-03T13:30:51.988Z</time></trkpt><trkpt lat="42.4171144" lon="12.687814"><ele>663.0</ele><time>2026-04-03T13:30:52.988Z</time></trkpt><trkpt lat="42.4170492" lon="12.687891"><ele>665.0</ele><time>2026-04-03T13:30:53.988Z</time></trkpt><trkpt lat="42.4169835" lon="12.6879635"><ele>667.0</ele><time>2026-04-03T13:30:54.988Z</time></trkpt><trkpt lat="42.4169127" lon="12.6880273"><ele>669.0</ele><time>2026-04-03T13:30:55.988Z</time></trkpt><trkpt lat="42.4168389" lon="12.6880781"><ele>671.0</ele><time>2026-04-03T13:30:56.988Z</time></trkpt><trkpt lat="42.4167641" lon="12.688105"><ele>671.0</ele><time>2026-04-03T13:30:57.986Z</time></trkpt><trkpt lat="42.416692" lon="12.6880947"><ele>671.0</ele><time>2026-04-03T13:30:58.988Z</time></trkpt><trkpt lat="42.4166295" lon="12.6880477"><ele>671.0</ele><time>2026-04-03T13:30:59.988Z</time></trkpt><trkpt lat="42.4165782" lon="12.6879635"><ele>671.0</ele><time>2026-04-03T13:31:00.987Z</time></trkpt><trkpt lat="42.4165482" lon="12.6878522"><ele>671.0</ele><time>2026-04-03T13:31:01.988Z</time></trkpt><trkpt lat="42.4165352" lon="12.6877229"><ele>671.0</ele><time>2026-04-03T13:31:02.988Z</time></trkpt><trkpt lat="42.4165266" lon="12.6875772"><ele>668.0</ele><time>2026-04-03T13:31:03.988Z</time></trkpt><trkpt lat="42.4165147" lon="12.6874268"><ele>665.0</ele><time>2026-04-03T13:31:04.988Z</time></trkpt><trkpt lat="42.4165018" lon="12.6872808"><ele>662.0</ele><time>2026-04-03T13:31:05.988Z</time></trkpt><trkpt lat="42.4164929" lon="12.6871388"><ele>659.0</ele><time>2026-04-03T13:31:06.988Z</time></trkpt><trkpt lat="42.4164876" lon="12.6869944"><ele>656.0</ele><time>2026-04-03T13:31:07.988Z</time></trkpt><trkpt lat="42.4164815" lon="12.6868474"><ele>653.5999999999999</ele><time>2026-04-03T13:31:08.988Z</time></trkpt><trkpt lat="42.4164813" lon="12.6867038"><ele>651.2</ele><time>2026-04-03T13:31:09.988Z</time></trkpt><trkpt lat="42.4164831" lon="12.6865626"><ele>648.8</ele><time>2026-04-03T13:31:10.988Z</time></trkpt><trkpt lat="42.4164764" lon="12.6864193"><ele>646.4000000000001</ele><time>2026-04-03T13:31:11.987Z</time></trkpt><trkpt lat="42.4164547" lon="12.6862766"><ele>644.0</ele><time>2026-04-03T13:31:12.988Z</time></trkpt><trkpt lat="42.4164231" lon="12.6861365"><ele>645.4000000000001</ele><time>2026-04-03T13:31:13.988Z</time></trkpt><trkpt lat="42.4163864" lon="12.6860004"><ele>646.8</ele><time>2026-04-03T13:31:14.988Z</time></trkpt><trkpt lat="42.4163481" lon="12.6858693"><ele>648.2</ele><time>2026-04-03T13:31:15.988Z</time></trkpt><trkpt lat="42.4162989" lon="12.6857429"><ele>649.5999999999999</ele><time>2026-04-03T13:31:16.987Z</time></trkpt><trkpt lat="42.416236" lon="12.6856189"><ele>651.0</ele><time>2026-04-03T13:31:17.988Z</time></trkpt><trkpt lat="42.4161644" lon="12.6855042"><ele>651.0</ele><time>2026-04-03T13:31:18.988Z</time></trkpt><trkpt lat="42.4160966" lon="12.6853945"><ele>651.0</ele><time>2026-04-03T13:31:19.988Z</time></trkpt><trkpt lat="42.4160391" lon="12.685283"><ele>651.0</ele><time>2026-04-03T13:31:20.988Z</time></trkpt><trkpt lat="42.4159948" lon="12.6851668"><ele>651.0</ele><time>2026-04-03T13:31:21.988Z</time></trkpt><trkpt lat="42.4159565" lon="12.6850488"><ele>651.0</ele><time>2026-04-03T13:31:22.988Z</time></trkpt><trkpt lat="42.4159168" lon="12.6849458"><ele>647.3333333333334</ele><time>2026-04-03T13:31:23.987Z</time></trkpt><trkpt lat="42.415868" lon="12.6848576"><ele>643.6666666666666</ele><time>2026-04-03T13:31:24.988Z</time></trkpt><trkpt lat="42.4158047" lon="12.6847876"><ele>640.0</ele><time>2026-04-03T13:31:25.987Z</time></trkpt><trkpt lat="42.4157329" lon="12.6847418"><ele>636.3333333333333</ele><time>2026-04-03T13:31:26.988Z</time></trkpt><trkpt lat="42.4156429" lon="12.6847178"><ele>632.6666666666666</ele><time>2026-04-03T13:31:27.988Z</time></trkpt><trkpt lat="42.415554" lon="12.6847173"><ele>629.0</ele><time>2026-04-03T13:31:28.988Z</time></trkpt><trkpt lat="42.4154615" lon="12.6847258"><ele>628.8333333333333</ele><time>2026-04-03T13:31:29.988Z</time></trkpt><trkpt lat="42.4153742" lon="12.6847345"><ele>628.6666666666666</ele><time>2026-04-03T13:31:30.987Z</time></trkpt><trkpt lat="42.4152863" lon="12.6847327"><ele>628.5</ele><time>2026-04-03T13:31:31.988Z</time></trkpt><trkpt lat="42.4152023" lon="12.684713"><ele>628.3333333333334</ele><time>2026-04-03T13:31:32.988Z</time></trkpt><trkpt lat="42.415121" lon="12.6846755"><ele>628.1666666666667</ele><time>2026-04-03T13:31:33.988Z</time></trkpt><trkpt lat="42.415044" lon="12.6846333"><ele>628.0</ele><time>2026-04-03T13:31:34.988Z</time></trkpt><trkpt lat="42.4149743" lon="12.6845877"><ele>627.9999999999999</ele><time>2026-04-03T13:31:35.988Z</time></trkpt><trkpt lat="42.4149087" lon="12.6845509"><ele>628.0</ele><time>2026-04-03T13:31:36.988Z</time></trkpt><trkpt lat="42.4148459" lon="12.6845277"><ele>628.0</ele><time>2026-04-03T13:31:37.988Z</time></trkpt><trkpt lat="42.4147765" lon="12.6845331"><ele>628.0</ele><time>2026-04-03T13:31:38.988Z</time></trkpt><trkpt lat="42.4147174" lon="12.6845684"><ele>628.0</ele><time>2026-04-03T13:31:39.987Z</time></trkpt><trkpt lat="42.4146692" lon="12.6846249"><ele>627.9999999999999</ele><time>2026-04-03T13:31:40.988Z</time></trkpt><trkpt lat="42.4146299" lon="12.6847001"><ele>628.0</ele><time>2026-04-03T13:31:41.988Z</time></trkpt><trkpt lat="42.4145951" lon="12.6847943"><ele>623.6</ele><time>2026-04-03T13:31:42.987Z</time></trkpt><trkpt lat="42.4145593" lon="12.684905"><ele>619.1999999999999</ele><time>2026-04-03T13:31:43.988Z</time></trkpt><trkpt lat="42.4145237" lon="12.6850267"><ele>614.8</ele><time>2026-04-03T13:31:44.988Z</time></trkpt><trkpt lat="42.4144918" lon="12.6851465"><ele>610.4</ele><time>2026-04-03T13:31:45.988Z</time></trkpt><trkpt lat="42.4144649" lon="12.6852642"><ele>606.0</ele><time>2026-04-03T13:31:46.988Z</time></trkpt><trkpt lat="42.4144383" lon="12.6853788"><ele>606.0</ele><time>2026-04-03T13:31:47.988Z</time></trkpt><trkpt lat="42.4144086" lon="12.6854903"><ele>606.0</ele><time>2026-04-03T13:31:48.987Z</time></trkpt><trkpt lat="42.4143766" lon="12.6855982"><ele>606.0</ele><time>2026-04-03T13:31:49.988Z</time></trkpt><trkpt lat="42.4143454" lon="12.685713"><ele>606.0</ele><time>2026-04-03T13:31:50.988Z</time></trkpt><trkpt lat="42.4143172" lon="12.685829"><ele>606.0</ele><time>2026-04-03T13:31:51.988Z</time></trkpt><trkpt lat="42.4142904" lon="12.6859411"><ele>606.0</ele><time>2026-04-03T13:31:52.988Z</time></trkpt><trkpt lat="42.4142609" lon="12.6860477"><ele>607.7142857142858</ele><time>2026-04-03T13:31:53.988Z</time></trkpt><trkpt lat="42.4142317" lon="12.686151"><ele>609.4285714285714</ele><time>2026-04-03T13:31:54.988Z</time></trkpt><trkpt lat="42.4141993" lon="12.6862444"><ele>611.1428571428571</ele><time>2026-04-03T13:31:55.988Z</time></trkpt><trkpt lat="42.4141679" lon="12.6863227"><ele>612.8571428571429</ele><time>2026-04-03T13:31:56.988Z</time></trkpt><trkpt lat="42.4141257" lon="12.6863924"><ele>614.5714285714286</ele><time>2026-04-03T13:31:57.988Z</time></trkpt><trkpt lat="42.4140749" lon="12.6864472"><ele>616.2857142857143</ele><time>2026-04-03T13:31:58.988Z</time></trkpt><trkpt lat="42.4140172" lon="12.6864844"><ele>618.0</ele><time>2026-04-03T13:31:59.988Z</time></trkpt><trkpt lat="42.4139539" lon="12.6864868"><ele>618.0</ele><time>2026-04-03T13:32:00.987Z</time></trkpt><trkpt lat="42.4138926" lon="12.6864547"><ele>618.0</ele><time>2026-04-03T13:32:01.987Z</time></trkpt><trkpt lat="42.4138371" lon="12.6863985"><ele>618.0</ele><time>2026-04-03T13:32:02.988Z</time></trkpt><trkpt lat="42.413784" lon="12.6863242"><ele>618.0</ele><time>2026-04-03T13:32:03.987Z</time></trkpt><trkpt lat="42.4137242" lon="12.6862465"><ele>618.0</ele><time>2026-04-03T13:32:04.987Z</time></trkpt><trkpt lat="42.4136689" lon="12.6861652"><ele>618.0</ele><time>2026-04-03T13:32:05.988Z</time></trkpt><trkpt lat="42.4136111" lon="12.6860794"><ele>613.3333333333334</ele><time>2026-04-03T13:32:06.988Z</time></trkpt><trkpt lat="42.4135523" lon="12.6859994"><ele>608.6666666666666</ele><time>2026-04-03T13:32:07.988Z</time></trkpt><trkpt lat="42.4134809" lon="12.6859272"><ele>604.0</ele><time>2026-04-03T13:32:08.988Z</time></trkpt><trkpt lat="42.4134009" lon="12.6858673"><ele>599.3333333333333</ele><time>2026-04-03T13:32:09.988Z</time></trkpt><trkpt lat="42.413316" lon="12.6858124"><ele>594.6666666666666</ele><time>2026-04-03T13:32:10.988Z</time></trkpt><trkpt lat="42.4132329" lon="12.6857677"><ele>590.0</ele><time>2026-04-03T13:32:11.988Z</time></trkpt><trkpt lat="42.4131482" lon="12.685732"><ele>590.0</ele><time>2026-04-03T13:32:12.988Z</time></trkpt><trkpt lat="42.4130576" lon="12.6857061"><ele>590.0</ele><time>2026-04-03T13:32:13.987Z</time></trkpt><trkpt lat="42.4129687" lon="12.6856889"><ele>590.0</ele><time>2026-04-03T13:32:14.988Z</time></trkpt><trkpt lat="42.4128812" lon="12.6856865"><ele>590.0</ele><time>2026-04-03T13:32:15.988Z</time></trkpt><trkpt lat="42.4127994" lon="12.6856959"><ele>590.0</ele><time>2026-04-03T13:32:16.988Z</time></trkpt><trkpt lat="42.4127131" lon="12.6857228"><ele>590.0</ele><time>2026-04-03T13:32:17.988Z</time></trkpt><trkpt lat="42.4126271" lon="12.6857744"><ele>588.8333333333333</ele><time>2026-04-03T13:32:18.988Z</time></trkpt><trkpt lat="42.4125515" lon="12.6858419"><ele>587.6666666666666</ele><time>2026-04-03T13:32:19.988Z</time></trkpt><trkpt lat="42.4124865" lon="12.6859234"><ele>586.5</ele><time>2026-04-03T13:32:20.988Z</time></trkpt><trkpt lat="42.4124305" lon="12.686007"><ele>585.3333333333334</ele><time>2026-04-03T13:32:21.988Z</time></trkpt><trkpt lat="42.4123768" lon="12.686084"><ele>584.1666666666667</ele><time>2026-04-03T13:32:22.988Z</time></trkpt><trkpt lat="42.4123286" lon="12.6861568"><ele>583.0</ele><time>2026-04-03T13:32:23.988Z</time></trkpt><trkpt lat="42.4122243" lon="12.6862392"><ele>581.8333333333334</ele><time>2026-04-03T13:32:25.988Z</time></trkpt><trkpt lat="42.4121592" lon="12.6862254"><ele>580.6666666666667</ele><time>2026-04-03T13:32:26.988Z</time></trkpt><trkpt lat="42.4120868" lon="12.6861832"><ele>579.5</ele><time>2026-04-03T13:32:27.988Z</time></trkpt><trkpt lat="42.4120055" lon="12.6861236"><ele>578.3333333333334</ele><time>2026-04-03T13:32:28.988Z</time></trkpt><trkpt lat="42.411918" lon="12.6860563"><ele>577.1666666666666</ele><time>2026-04-03T13:32:29.988Z</time></trkpt><trkpt lat="42.4118275" lon="12.6859878"><ele>576.0</ele><time>2026-04-03T13:32:30.988Z</time></trkpt><trkpt lat="42.4117375" lon="12.6859225"><ele>576.0</ele><time>2026-04-03T13:32:31.988Z</time></trkpt><trkpt lat="42.4116431" lon="12.6858578"><ele>576.0</ele><time>2026-04-03T13:32:32.988Z</time></trkpt><trkpt lat="42.4115461" lon="12.6857853"><ele>576.0</ele><time>2026-04-03T13:32:33.988Z</time></trkpt><trkpt lat="42.411454" lon="12.6857137"><ele>576.0</ele><time>2026-04-03T13:32:34.988Z</time></trkpt><trkpt lat="42.4113643" lon="12.6856425"><ele>576.0</ele><time>2026-04-03T13:32:35.988Z</time></trkpt><trkpt lat="42.411273" lon="12.685573"><ele>576.2</ele><time>2026-04-03T13:32:36.988Z</time></trkpt><trkpt lat="42.411183" lon="12.6855101"><ele>576.4000000000001</ele><time>2026-04-03T13:32:37.988Z</time></trkpt><trkpt lat="42.4110938" lon="12.68545"><ele>576.6</ele><time>2026-04-03T13:32:38.988Z</time></trkpt><trkpt lat="42.4110043" lon="12.6854079"><ele>576.8000000000001</ele><time>2026-04-03T13:32:39.988Z</time></trkpt><trkpt lat="42.4109129" lon="12.6853791"><ele>577.0</ele><time>2026-04-03T13:32:40.988Z</time></trkpt><trkpt lat="42.4108097" lon="12.6853651"><ele>577.0</ele><time>2026-04-03T13:32:41.988Z</time></trkpt><trkpt lat="42.4107036" lon="12.6853654"><ele>577.0</ele><time>2026-04-03T13:32:42.987Z</time></trkpt><trkpt lat="42.4106059" lon="12.6853778"><ele>577.0</ele><time>2026-04-03T13:32:43.988Z</time></trkpt><trkpt lat="42.4105146" lon="12.6854075"><ele>577.0</ele><time>2026-04-03T13:32:44.988Z</time></trkpt><trkpt lat="42.4104227" lon="12.6854564"><ele>577.0</ele><time>2026-04-03T13:32:45.988Z</time></trkpt><trkpt lat="42.4103373" lon="12.6855274"><ele>573.2</ele><time>2026-04-03T13:32:46.988Z</time></trkpt><trkpt lat="42.4102499" lon="12.6856146"><ele>569.4000000000001</ele><time>2026-04-03T13:32:47.988Z</time></trkpt><trkpt lat="42.4101641" lon="12.6857069"><ele>565.5999999999999</ele><time>2026-04-03T13:32:48.988Z</time></trkpt><trkpt lat="42.410082" lon="12.6858036"><ele>561.8</ele><time>2026-04-03T13:32:49.988Z</time></trkpt><trkpt lat="42.410007" lon="12.6858927"><ele>558.0</ele><time>2026-04-03T13:32:50.988Z</time></trkpt><trkpt lat="42.4099344" lon="12.6859816"><ele>558.0</ele><time>2026-04-03T13:32:51.988Z</time></trkpt><trkpt lat="42.4098578" lon="12.6860683"><ele>558.0</ele><time>2026-04-03T13:32:52.988Z</time></trkpt><trkpt lat="42.4097904" lon="12.6861502"><ele>558.0</ele><time>2026-04-03T13:32:53.988Z</time></trkpt><trkpt lat="42.4097262" lon="12.6862279"><ele>558.0</ele><time>2026-04-03T13:32:54.988Z</time></trkpt><trkpt lat="42.4096682" lon="12.6863037"><ele>558.0</ele><time>2026-04-03T13:32:55.988Z</time></trkpt><trkpt lat="42.4096119" lon="12.6863831"><ele>558.0</ele><time>2026-04-03T13:32:56.988Z</time></trkpt><trkpt lat="42.4095583" lon="12.6864636"><ele>555.8333333333334</ele><time>2026-04-03T13:32:57.988Z</time></trkpt><trkpt lat="42.4095064" lon="12.6865463"><ele>553.6666666666666</ele><time>2026-04-03T13:32:58.987Z</time></trkpt><trkpt lat="42.4094542" lon="12.6866406"><ele>551.5</ele><time>2026-04-03T13:32:59.988Z</time></trkpt><trkpt lat="42.4094034" lon="12.6867425"><ele>549.3333333333333</ele><time>2026-04-03T13:33:00.988Z</time></trkpt><trkpt lat="42.4093539" lon="12.6868448"><ele>547.1666666666666</ele><time>2026-04-03T13:33:01.987Z</time></trkpt><trkpt lat="42.4093049" lon="12.6869484"><ele>545.0</ele><time>2026-04-03T13:33:02.987Z</time></trkpt><trkpt lat="42.4092581" lon="12.6870486"><ele>545.0</ele><time>2026-04-03T13:33:03.988Z</time></trkpt><trkpt lat="42.4092113" lon="12.6871457"><ele>545.0</ele><time>2026-04-03T13:33:04.988Z</time></trkpt><trkpt lat="42.4091631" lon="12.6872333"><ele>545.0</ele><time>2026-04-03T13:33:05.988Z</time></trkpt><trkpt lat="42.4091204" lon="12.6873169"><ele>545.0</ele><time>2026-04-03T13:33:06.988Z</time></trkpt><trkpt lat="42.4090859" lon="12.687398"><ele>545.0</ele><time>2026-04-03T13:33:07.988Z</time></trkpt><trkpt lat="42.4090481" lon="12.687555"><ele>545.0</ele><time>2026-04-03T13:33:09.988Z</time></trkpt><trkpt lat="42.409091" lon="12.6877098"><ele>542.6666666666666</ele><time>2026-04-03T13:33:11.988Z</time></trkpt><trkpt lat="42.4091622" lon="12.6878168"><ele>540.3333333333333</ele><time>2026-04-03T13:33:13.988Z</time></trkpt><trkpt lat="42.4092242" lon="12.6879226"><ele>538.0</ele><time>2026-04-03T13:33:15.988Z</time></trkpt><trkpt lat="42.4092793" lon="12.6879975"><ele>535.6666666666666</ele><time>2026-04-03T13:33:17.987Z</time></trkpt><trkpt lat="42.4092996" lon="12.6880854"><ele>533.3333333333334</ele><time>2026-04-03T13:33:21.988Z</time></trkpt><trkpt lat="42.4092485" lon="12.6881388"><ele>531.0</ele><time>2026-04-03T13:33:25.988Z</time></trkpt><trkpt lat="42.4091873" lon="12.6881819"><ele>531.0</ele><time>2026-04-03T13:33:29.988Z</time></trkpt></trkseg></trk></gpx>